Provisional Data: Mill Creek near Lancaster, PA


Please select a monitoring station.
Please select start date.
Please select start date.

Toggle Unit: C/F Toggle Unit: C/F
Sample Time Temperature (C) Temperature (F) Specific Conductivity (mS/cm) pH   Turbidity (NTU+) DO (mg/L)
10/20/2020 12:00:00 AM 13.35 56.03 0.911 8.09 0.91 8.74
10/20/2020 12:15:00 AM 13.35 56.03 0.911 8.08 1.36 8.7
10/20/2020 12:30:00 AM 13.35 56.03 0.912 8.07 0.81 8.63
10/20/2020 12:45:00 AM 13.35 56.03 0.912 8.07 1.42 8.62
10/20/2020 1:00:00 AM 13.34 56.012 0.912 8.07 0.94 8.67
10/20/2020 1:15:00 AM 13.34 56.012 0.913 8.07 1.1 8.69
10/20/2020 1:30:00 AM 13.35 56.03 0.913 8.06 0.49 8.71
10/20/2020 1:45:00 AM 13.36 56.048 0.914 8.06 0.87 8.65
10/20/2020 2:00:00 AM 13.36 56.048 0.915 8.06 1.32 8.56
10/20/2020 2:15:00 AM 13.37 56.066 0.915 8.05 2.59 8.52
10/20/2020 2:30:00 AM 13.37 56.066 0.916 8.04 0.8 8.48
10/20/2020 2:45:00 AM 13.37 56.066 0.916 8.04 0.84 8.55
10/20/2020 3:00:00 AM 13.37 56.066 0.917 8.03 3.67 8.54
10/20/2020 3:15:00 AM 13.37 56.066 0.917 8.03 0.88 8.59
10/20/2020 3:30:00 AM 13.37 56.066 0.918 8.03 2.78 8.53
10/20/2020 3:45:00 AM 13.37 56.066 0.918 8.03 0.73 8.52
10/20/2020 4:00:00 AM 13.38 56.084 0.919 8.02 0.9 8.55
10/20/2020 4:15:00 AM 13.39 56.102 0.919 8.02 0.96 8.49
10/20/2020 4:30:00 AM 13.4 56.12 0.92 8.02 1.05 8.53
10/20/2020 4:45:00 AM 13.41 56.138 0.92 8.02 0.99 8.51
10/20/2020 5:00:00 AM 13.41 56.138 0.92 8.01 1.25 8.45
10/20/2020 5:15:00 AM 13.42 56.156 0.92 8 1.3 8.4
10/20/2020 5:30:00 AM 13.43 56.174 0.921 8 0.87 8.37
10/20/2020 5:45:00 AM 13.43 56.174 0.921 8 0.75 8.41
10/20/2020 6:00:00 AM 13.44 56.192 0.921 7.99 0.92 8.41
10/20/2020 6:15:00 AM 13.44 56.192 0.921 7.99 0.98 8.4
10/20/2020 6:30:00 AM 13.44 56.192 0.922 7.99 1.01 8.34
10/20/2020 6:45:00 AM 13.44 56.192 0.922 7.99 1.23 8.36
10/20/2020 7:00:00 AM 13.44 56.192 0.922 7.99 1.07 8.38
10/20/2020 7:15:00 AM 13.43 56.174 0.922 7.98 0.79 8.38
10/20/2020 7:30:00 AM 13.43 56.174 0.922 7.98 0.69 8.36
10/20/2020 7:45:00 AM 13.44 56.192 0.922 7.98 0.5 8.37
10/20/2020 8:00:00 AM 13.45 56.21 0.922 7.98 1.04 8.44
10/20/2020 8:15:00 AM 13.46 56.228 0.922 7.98 0.77 8.51
10/20/2020 8:30:00 AM 13.48 56.264 0.922 7.98 0.5 8.61
10/20/2020 8:45:00 AM 13.5 56.3 0.922 7.98 0.78 8.75
10/20/2020 9:00:00 AM 13.52 56.336 0.922 7.98 0.88 8.81
10/20/2020 9:15:00 AM 13.56 56.408 0.921 7.99 0.81 8.92
10/20/2020 9:30:00 AM 13.6 56.48 0.921 7.99 0.54 9.1
10/20/2020 9:45:00 AM 13.64 56.552 0.92 8 0.64 9.22
10/20/2020 10:00:00 AM 13.67 56.606 0.92 8.01 0.65 9.3
10/20/2020 10:15:00 AM 13.7 56.66 0.92 8.02 1.32 9.38
10/20/2020 10:30:00 AM 13.73 56.714 0.92 8.02 0.96 9.53
10/20/2020 10:45:00 AM 13.8 56.84 0.92 8.03 0.47 9.64
10/20/2020 11:00:00 AM 13.87 56.966 0.92 8.04 0.72 9.66
10/20/2020 11:15:00 AM 13.95 57.11 0.919 8.05 0.73 9.92
10/20/2020 11:30:00 AM 14.11 57.398 0.918 8.06 1.09 10.17
10/20/2020 11:45:00 AM 14.28 57.704 0.918 8.07 0.57 10.34
10/20/2020 12:00:00 PM 14.42 57.956 0.917 8.08 0.61 10.43
10/20/2020 12:15:00 PM 14.57 58.226 0.917 8.09 0.97 10.63
10/20/2020 12:30:00 PM 14.7 58.46 0.917 8.1 0.42 10.81
10/20/2020 12:45:00 PM 14.84 58.712 0.916 8.12 1.04 10.99
10/20/2020 1:00:00 PM 14.98 58.964 0.916 8.14 0.71 11.16
10/20/2020 1:15:00 PM 15.07 59.126 0.916 8.14 0.95 11.05
10/20/2020 1:30:00 PM 15.16 59.288 0.916 8.14 0.59 11.14
10/20/2020 1:45:00 PM 15.24 59.432 0.915 8.15 0.62 11.2
10/20/2020 2:00:00 PM 15.31 59.558 0.916 8.16 0.54 11.28
10/20/2020 2:15:00 PM 15.37 59.666 0.915 8.17 1.17 11.27
10/20/2020 2:30:00 PM 15.4 59.72 0.915 8.17 0.77 11.23
10/20/2020 2:45:00 PM 15.37 59.666 0.915 8.18 0.5 11.19
10/20/2020 3:00:00 PM 15.4 59.72 0.914 8.19 0.48 11.15
10/20/2020 3:15:00 PM 15.41 59.738 0.914 8.2 0.61 11.28
10/20/2020 3:30:00 PM 15.41 59.738 0.914 8.2 0.81 11.16
10/20/2020 3:45:00 PM 15.42 59.756 0.914 8.21 0.67 11.12
10/20/2020 4:00:00 PM 15.43 59.774 0.914 8.21 0.86 11.04
10/20/2020 4:15:00 PM 15.45 59.81 0.914 8.21 1.03 10.92
10/20/2020 4:30:00 PM 15.47 59.846 0.914 8.2 1.06 10.85
10/20/2020 4:45:00 PM 15.49 59.882 0.913 8.2 1.12 10.78
10/20/2020 5:00:00 PM 15.5 59.9 0.913 8.2 0.78 10.63
10/20/2020 5:15:00 PM 15.52 59.936 0.913 8.21 0.5 10.6
10/20/2020 5:30:00 PM 15.52 59.936 0.913 8.21 1.23 10.46
10/20/2020 5:45:00 PM 15.52 59.936 0.913 8.21 0.67 10.4
10/20/2020 6:00:00 PM 15.51 59.918 0.913 8.2 0.77 10.22
10/20/2020 6:15:00 PM 15.49 59.882 0.913 8.2 0.69 10.09
10/20/2020 6:30:00 PM 15.48 59.864 0.913 8.19 0.68 9.94
10/20/2020 6:45:00 PM 15.46 59.828 0.915 8.18 0.93 9.7
10/20/2020 7:00:00 PM 15.44 59.792 0.913 8.17 0.57 9.54
10/20/2020 7:15:00 PM 15.42 59.756 0.912 8.16 0.75 9.44
10/20/2020 7:30:00 PM 15.4 59.72 0.913 8.16 3.31 9.29
10/20/2020 7:45:00 PM 15.38 59.684 0.913 8.15 0.57 9.19
10/20/2020 8:00:00 PM 15.36 59.648 0.913 8.14 2.61 9.09
10/20/2020 8:15:00 PM 15.33 59.594 0.912 8.14 0.6 9.03
10/20/2020 8:30:00 PM 15.31 59.558 0.912 8.14 0.97 8.96
10/20/2020 8:45:00 PM 15.29 59.522 0.913 8.14 0.5 8.81
10/20/2020 9:00:00 PM 15.26 59.468 0.912 8.13 1.94 8.75
10/20/2020 9:15:00 PM 15.24 59.432 0.912 8.12 2.25 8.7
10/20/2020 9:30:00 PM 15.22 59.396 0.913 8.12 1.16 8.64
10/20/2020 9:45:00 PM 15.2 59.36 0.912 8.11 0.68 8.47
10/20/2020 10:00:00 PM 15.17 59.306 0.911 8.11 1.87 8.42
10/20/2020 10:15:00 PM 15.14 59.252 0.911 8.1 1.1 8.35
10/20/2020 10:30:00 PM 15.12 59.216 0.911 8.09 1.39 8.27
10/20/2020 10:45:00 PM 15.09 59.162 0.91 8.08 0.75 8.23
10/20/2020 11:00:00 PM 15.07 59.126 0.91 8.07 1.31 8.23
10/20/2020 11:15:00 PM 15.04 59.072 0.912 8.07 1.01 8.21
10/20/2020 11:30:00 PM 15.01 59.018 0.911 8.07 0.86 8.2
10/20/2020 11:45:00 PM 14.99 58.982 0.912 8.06 0.48 8.06
10/21/2020 12:00:00 AM 14.95 58.91 0.911 8.05 1.01 8.05
10/21/2020 12:15:00 AM 14.92 58.856 0.91 8.04 1.3 8.05
10/21/2020 12:30:00 AM 14.89 58.802 0.908 8.04 1.95 8.05
10/21/2020 12:45:00 AM 14.86 58.748 0.91 8.03 1.69 7.99
10/21/2020 1:00:00 AM 14.83 58.694 0.909 8.03 0.83 7.96
10/21/2020 1:15:00 AM 14.8 58.64 0.907 8.02 1.41 7.99
10/21/2020 1:30:00 AM 14.77 58.586 0.908 8.02 1.06 8.01
10/21/2020 1:45:00 AM 14.75 58.55 0.907 8.02 6.72 7.98
10/21/2020 2:00:00 AM 14.73 58.514 0.907 8.02 1.49 7.94
10/21/2020 2:15:00 AM 14.72 58.496 0.907 8.01 9.03 7.96
10/21/2020 2:30:00 AM 14.7 58.46 0.907 8.01 2.19 7.95
10/21/2020 2:45:00 AM 14.69 58.442 0.906 8 1.35 7.95
10/21/2020 3:00:00 AM 14.68 58.424 0.905 8 1.7 7.96
10/21/2020 3:15:00 AM 14.68 58.424 0.905 8 1.43 7.97
10/21/2020 3:30:00 AM 14.67 58.406 0.905 8 1.23 7.97
10/21/2020 3:45:00 AM 14.66 58.388 0.907 8 0.87 7.97
10/21/2020 4:00:00 AM 14.65 58.37 0.906 7.99 0.75 8
10/21/2020 4:15:00 AM 14.65 58.37 0.906 7.99 1.04 7.94
10/21/2020 4:30:00 AM 14.64 58.352 0.906 7.98 1.81 8
10/21/2020 4:45:00 AM 14.63 58.334 0.905 7.98 1.62 7.94
10/21/2020 5:00:00 AM 14.63 58.334 0.905 7.98 1.05 7.93
10/21/2020 5:15:00 AM 14.62 58.316 0.905 7.97 1.17 7.99
10/21/2020 5:30:00 AM 14.62 58.316 0.905 7.97 2.3 7.93
10/21/2020 5:45:00 AM 14.62 58.316 0.905 7.96 1.76 7.93
10/21/2020 6:00:00 AM 14.62 58.316 0.904 7.96 1.01 7.96
10/21/2020 6:15:00 AM 14.63 58.334 0.904 7.96 1.6 7.94
10/21/2020 6:30:00 AM 14.63 58.334 0.904 7.95 1.47 7.92
10/21/2020 6:45:00 AM 14.63 58.334 0.904 7.95 1.49 7.95
10/21/2020 7:00:00 AM 14.63 58.334 0.904 7.95 3.41 7.93
10/21/2020 7:15:00 AM 14.63 58.334 0.903 7.95 1.48 7.93
10/21/2020 7:30:00 AM 14.63 58.334 0.903 7.94 1.27 7.93
10/21/2020 7:45:00 AM 14.64 58.352 0.902 7.94 1.53 7.9
10/21/2020 8:00:00 AM 14.64 58.352 0.902 7.94 0.83 7.93
10/21/2020 8:15:00 AM 14.65 58.37 0.901 7.94 1.42 8
10/21/2020 8:30:00 AM 14.66 58.388 0.9 7.94 0.85 8.06
10/21/2020 8:45:00 AM 14.67 58.406 0.899 7.94 1.08 8.08
10/21/2020 9:00:00 AM 14.68 58.424 0.898 7.95 0.81 8.16
10/21/2020 9:15:00 AM 14.7 58.46 0.898 7.95 1.69 8.19
10/21/2020 9:30:00 AM 14.72 58.496 0.897 7.94 2.03 8.19
10/21/2020 9:45:00 AM 14.74 58.532 0.897 7.94 1.05 8.34
10/21/2020 10:00:00 AM 14.77 58.586 0.896 7.95 1.26 8.44
10/21/2020 10:15:00 AM 14.8 58.64 0.895 7.96 1.38 8.6
10/21/2020 10:30:00 AM 14.83 58.694 0.894 7.97 0.81 8.75
10/21/2020 10:45:00 AM 14.87 58.766 0.893 7.98 1.93 8.79
10/21/2020 11:00:00 AM 14.92 58.856 0.893 7.99 2.93 8.92
10/21/2020 11:15:00 AM 14.98 58.964 0.892 8 0.99 9.13
10/21/2020 11:30:00 AM 15.05 59.09 0.891 8.01 0.68 9.36
10/21/2020 11:45:00 AM 15.15 59.27 0.89 8.02 1 9.61
10/21/2020 12:00:00 PM 15.21 59.378 0.89 8.03 0.96 9.71
10/21/2020 12:15:00 PM 15.26 59.468 0.889 8.03 1.69 9.7
10/21/2020 12:30:00 PM 15.32 59.576 0.888 8.04 0.54 9.84
10/21/2020 12:45:00 PM 15.4 59.72 0.887 8.05 0.76 9.95
10/21/2020 1:00:00 PM 15.49 59.882 0.886 8.06 0.6 10.13
10/21/2020 1:15:00 PM 15.55 59.99 0.885 8.07 0.74 10.23
10/21/2020 1:30:00 PM 15.6 60.08 0.884 8.08 1.14 10.27
10/21/2020 1:45:00 PM 15.63 60.134 0.884 8.09 0.82 10.31
10/21/2020 2:00:00 PM 15.68 60.224 0.883 8.09 0.85 10.3
10/21/2020 2:15:00 PM 15.77 60.386 0.882 8.1 2.46 10.45
10/21/2020 2:30:00 PM 15.85 60.53 0.881 8.11 0.79 10.69
10/21/2020 2:45:00 PM 15.91 60.638 0.879 8.13 0.78 10.9
10/21/2020 3:00:00 PM 15.94 60.692 0.879 8.14 0.72 10.92
10/21/2020 3:15:00 PM 15.98 60.764 0.877 8.15 1.71 10.85
10/21/2020 3:30:00 PM 16.05 60.89 0.879 8.16 3.75 10.94
10/21/2020 3:45:00 PM 16.08 60.944 0.879 8.17 6.7 10.92
10/21/2020 4:00:00 PM 16.11 60.998 0.879 8.18 0.66 10.86
10/21/2020 4:15:00 PM 16.13 61.034 0.877 8.18 1.11 10.8
10/21/2020 4:30:00 PM 16.12 61.016 0.877 8.18 0.55 10.66
10/21/2020 4:45:00 PM 16.12 61.016 0.876 8.18 0.9 10.5
10/21/2020 5:00:00 PM 16.11 60.998 0.875 8.18 0.81 10.38
10/21/2020 5:15:00 PM 16.1 60.98 0.873 8.18 1.47 10.24
10/21/2020 5:30:00 PM 16.1 60.98 0.873 8.18 0.96 10.11
10/21/2020 5:45:00 PM 16.09 60.962 0.874 8.17 0.87 9.99
10/21/2020 6:00:00 PM 16.08 60.944 0.873 8.17 1.14 9.85
10/21/2020 6:15:00 PM 16.08 60.944 0.872 8.16 0.72 9.69
10/21/2020 6:30:00 PM 16.07 60.926 0.872 8.16 5.73 9.59
10/21/2020 6:45:00 PM 16.07 60.926 0.87 8.15 0.97 9.49
10/21/2020 7:00:00 PM 16.08 60.944 0.87 8.15 1.14 9.34
10/21/2020 7:15:00 PM 16.08 60.944 0.869 8.14 1.55 9.24
10/21/2020 7:30:00 PM 16.08 60.944 0.868 8.14 1.15 9.09
10/21/2020 7:45:00 PM 16.08 60.944 0.867 8.13 0.96 8.99
10/21/2020 8:00:00 PM 16.08 60.944 0.866 8.13 0.62 8.88
10/21/2020 8:15:00 PM 16.08 60.944 0.865 8.12 2.06 8.8
10/21/2020 8:30:00 PM 16.07 60.926 0.864 8.12 0.67 8.69
10/21/2020 8:45:00 PM 16.06 60.908 0.863 8.11 1.1 8.63
10/21/2020 9:00:00 PM 16.05 60.89 0.863 8.11 0.63 8.53
10/21/2020 9:15:00 PM 16.03 60.854 0.862 8.1 0.91 8.38
10/21/2020 9:30:00 PM 16.01 60.818 0.861 8.1 0.94 8.34
10/21/2020 9:45:00 PM 15.99 60.782 0.86 8.09 1.62 8.26
10/21/2020 10:00:00 PM 15.96 60.728 0.86 8.08 1.2 8.19
10/21/2020 10:15:00 PM 15.94 60.692 0.859 8.08 1.44 8.11
10/21/2020 10:30:00 PM 15.92 60.656 0.859 8.07 0.89 8.05
10/21/2020 10:45:00 PM 15.89 60.602 0.858 8.06 1.36 7.97
10/21/2020 11:00:00 PM 15.87 60.566 0.858 8.05 0.92 7.88
10/21/2020 11:15:00 PM 15.86 60.548 0.858 8.04 1.37 7.83
10/21/2020 11:30:00 PM 15.85 60.53 0.857 8.04 1.5 7.86
10/21/2020 11:45:00 PM 15.85 60.53 0.856 8.03 0.83 7.75
10/22/2020 12:00:00 AM 15.85 60.53 0.856 8.02 0.92 7.71
10/22/2020 12:15:00 AM 15.85 60.53 0.856 8.01 1.38 7.72
10/22/2020 12:30:00 AM 15.84 60.512 0.856 8 1.39 7.66
10/22/2020 12:45:00 AM 15.84 60.512 0.856 8 1.08 7.63
10/22/2020 1:00:00 AM 15.84 60.512 0.855 7.99 1.56 7.64
10/22/2020 1:15:00 AM 15.83 60.494 0.855 7.99 1.4 7.59
10/22/2020 1:30:00 AM 15.83 60.494 0.856 7.98 0.83 7.58
10/22/2020 1:45:00 AM 15.83 60.494 0.856 7.97 0.79 7.58
10/22/2020 2:00:00 AM 15.82 60.476 0.856 7.97 1.05 7.57
10/22/2020 2:15:00 AM 15.82 60.476 0.857 7.96 0.7 7.51
10/22/2020 2:30:00 AM 15.82 60.476 0.857 7.95 1.41 7.52
10/22/2020 2:45:00 AM 15.81 60.458 0.857 7.95 1.79 7.41
10/22/2020 3:00:00 AM 15.81 60.458 0.858 7.94 2.06 7.29
10/22/2020 3:15:00 AM 15.8 60.44 0.858 7.93 1.56 7.38
10/22/2020 3:30:00 AM 15.79 60.422 0.859 7.93 1.37 7.48
10/22/2020 3:45:00 AM 15.79 60.422 0.861 7.92 2.04 7.38
10/22/2020 4:00:00 AM 15.78 60.404 0.86 7.91 1.35 7.25
10/22/2020 4:15:00 AM 15.78 60.404 0.86 7.91 1 7.4
10/22/2020 4:30:00 AM 15.78 60.404 0.861 7.91 0.91 7.37
10/22/2020 4:45:00 AM 15.78 60.404 0.862 7.91 0.82 7.36
10/22/2020 5:00:00 AM 15.77 60.386 0.862 7.91 1.31 7.37
10/22/2020 5:15:00 AM 15.77 60.386 0.862 7.91 1.12 7.31
10/22/2020 5:30:00 AM 15.76 60.368 0.864 7.9 1.56 7.33
10/22/2020 5:45:00 AM 15.76 60.368 0.864 7.9 0.94 7.33
10/22/2020 6:00:00 AM 15.76 60.368 0.865 7.9 1 7.3
10/22/2020 6:15:00 AM 15.76 60.368 0.865 7.9 1.73 7.34
10/22/2020 6:30:00 AM 15.75 60.35 0.866 7.89 0.87 7.29
10/22/2020 6:45:00 AM 15.75 60.35 0.867 7.89 1.28 7.36
10/22/2020 7:00:00 AM 15.75 60.35 0.867 7.89 1.4 7.49
10/22/2020 7:15:00 AM 15.75 60.35 0.868 7.89 0.67 7.47
10/22/2020 7:30:00 AM 15.74 60.332 0.868 7.89 0.76 7.45
10/22/2020 7:45:00 AM 15.74 60.332 0.869 7.89 3.43 7.45
10/22/2020 8:00:00 AM 15.74 60.332 0.87 7.89 1.51 7.47
10/22/2020 8:15:00 AM 15.75 60.35 0.87 7.89 1.03 7.45
10/22/2020 8:30:00 AM 15.76 60.368 0.871 7.88 0.81 7.49
10/22/2020 8:45:00 AM 15.77 60.386 0.871 7.88 1.27 7.64
10/22/2020 9:00:00 AM 15.79 60.422 0.872 7.89 1.28 7.69
10/22/2020 9:15:00 AM 15.81 60.458 0.872 7.89 1.38 7.81
10/22/2020 9:30:00 AM 15.84 60.512 0.872 7.89 1.02 7.92
10/22/2020 9:45:00 AM 15.86 60.548 0.873 7.9 0.83 8.03
10/22/2020 10:00:00 AM 15.89 60.602 0.873 7.9 1.21 8.03
10/22/2020 10:15:00 AM 15.92 60.656 0.873 7.9 0.91 8.16
10/22/2020 10:30:00 AM 15.94 60.692 0.873 7.91 0.95 8.28
10/22/2020 10:45:00 AM 15.97 60.746 0.873 7.91 1.26 8.4
10/22/2020 11:00:00 AM 16 60.8 0.873 7.92 2.33 8.47
10/22/2020 11:15:00 AM 16.02 60.836 0.873 7.93 0.75 8.64
10/22/2020 11:30:00 AM 16.06 60.908 0.873 7.94 0.84 8.64
10/22/2020 11:45:00 AM 16.09 60.962 0.873 7.95 1.05 8.79
10/22/2020 12:00:00 PM 16.12 61.016 0.873 7.95 0.7 8.87
10/22/2020 12:15:00 PM 16.16 61.088 0.873 7.97 1.16 9.03
10/22/2020 12:30:00 PM 16.2 61.16 0.873 7.97 0.65 9.08
10/22/2020 12:45:00 PM 16.26 61.268 0.872 7.99 0.85 9.3
10/22/2020 1:00:00 PM 16.32 61.376 0.872 7.99 0.86 9.4
10/22/2020 1:15:00 PM 16.4 61.52 0.871 8 0.66 9.67
10/22/2020 1:30:00 PM 16.49 61.682 0.871 8.01 0.91 9.89
10/22/2020 1:45:00 PM 16.55 61.79 0.871 8.03 0.79 10.05
10/22/2020 2:00:00 PM 16.62 61.916 0.871 8.04 0.66 10.17
10/22/2020 2:15:00 PM 16.69 62.042 0.871 8.04 0.69 10.24
10/22/2020 2:30:00 PM 16.75 62.15 0.871 8.05 0.76 10.31
10/22/2020 2:45:00 PM 16.82 62.276 0.871 8.06 0.92 10.38
10/22/2020 3:00:00 PM 16.92 62.456 0.871 8.07 0.54 10.53
10/22/2020 3:15:00 PM 16.97 62.546 0.871 8.08 0.75 10.53
10/22/2020 3:30:00 PM 17.01 62.618 0.872 8.08 0.51 10.45
10/22/2020 3:45:00 PM 17.04 62.672 0.872 8.09 0.79 10.45
10/22/2020 4:00:00 PM 17.06 62.708 0.873 8.09 1.04 10.33
10/22/2020 4:15:00 PM 17.08 62.744 0.874 8.1 0.74 10.34
10/22/2020 4:30:00 PM 17.08 62.744 0.875 8.11 1.06 10.21
10/22/2020 4:45:00 PM 17.09 62.762 0.875 8.11 0.72 10.08
10/22/2020 5:00:00 PM 17.09 62.762 0.877 8.12 6.62 9.97
10/22/2020 5:15:00 PM 17.09 62.762 0.876 8.14 2.01 9.89
10/22/2020 5:30:00 PM 17.1 62.78 0.877 8.15 1.94 9.59
10/22/2020 5:45:00 PM 17.1 62.78 0.88 8.14 5.33 9.57
10/22/2020 6:00:00 PM 17.1 62.78 0.881 8.14 4.33 9.5
10/22/2020 6:15:00 PM 17.1 62.78 0.881 8.13 1.18 9.35
10/22/2020 6:30:00 PM 17.11 62.798 0.882 8.13 1.02 9.21
10/22/2020 6:45:00 PM 17.12 62.816 0.884 8.13 1.18 9.06
10/22/2020 7:00:00 PM 17.12 62.816 0.885 8.13 1.01 8.98
10/22/2020 7:15:00 PM 17.13 62.834 0.886 8.12 1.3 8.89
10/22/2020 7:30:00 PM 17.13 62.834 0.888 8.12 0.97 8.81
10/22/2020 7:45:00 PM 17.12 62.816 0.886 8.11 2.84 8.67
10/22/2020 8:00:00 PM 17.11 62.798 0.891 8.1 1.64 8.58
10/22/2020 8:15:00 PM 17.1 62.78 0.89 8.09 1.38 8.45
10/22/2020 8:30:00 PM 17.08 62.744 0.893 8.08 1.3 8.35
10/22/2020 8:45:00 PM 17.05 62.69 0.894 8.08 1.32 8.25
10/22/2020 9:00:00 PM 17.02 62.636 0.896 8.07 1.43 8.12
10/22/2020 9:15:00 PM 16.98 62.564 0.898 8.06 8.13 8
10/22/2020 9:30:00 PM 16.95 62.51 0.9 8.05 1.93 7.94
10/22/2020 9:45:00 PM 16.92 62.456 0.901 8.04 1.42 7.82
10/22/2020 10:00:00 PM 16.88 62.384 0.903 8.03 1.09 7.75
10/22/2020 10:15:00 PM 16.84 62.312 0.904 8.03 1.47 7.71
10/22/2020 10:30:00 PM 16.81 62.258 0.905 8.02 1.39 7.67
10/22/2020 10:45:00 PM 16.77 62.186 0.906 8.01 1.29 7.56
10/22/2020 11:00:00 PM 16.73 62.114 0.908 8.01 2.31 7.51
10/22/2020 11:15:00 PM 16.69 62.042 0.909 8 2.35 7.5
10/22/2020 11:30:00 PM 16.66 61.988 0.91 7.99 1.25 7.41
10/22/2020 11:45:00 PM 16.62 61.916 0.912 7.99 1.31 7.32
10/23/2020 12:00:00 AM 16.58 61.844 0.913 7.98 1.5 7.31
10/23/2020 12:15:00 AM 16.55 61.79 0.914 7.98 1.07 7.26
10/23/2020 12:30:00 AM 16.51 61.718 0.915 7.97 1.08 7.21
10/23/2020 12:45:00 AM 16.49 61.682 0.917 7.97 23.7 7.21
10/23/2020 1:00:00 AM 16.44 61.592 0.918 7.96 1.63 7.18
10/23/2020 1:15:00 AM 16.41 61.538 0.919 7.96 1.23 7.18
10/23/2020 1:30:00 AM 16.37 61.466 0.92 7.95 1.52 7.18
10/23/2020 1:45:00 AM 16.33 61.394 0.921 7.95 1.3 7.17
10/23/2020 2:00:00 AM 16.29 61.322 0.922 7.95 1.28 7.26
10/23/2020 2:15:00 AM 16.25 61.25 0.922 7.94 2.91 7.24
10/23/2020 2:30:00 AM 16.21 61.178 0.923 7.94 1.35 7.17
10/23/2020 2:45:00 AM 16.17 61.106 0.924 7.93 1.73 7.25
10/23/2020 3:00:00 AM 16.14 61.052 0.924 7.93 1.4 7.25
10/23/2020 3:15:00 AM 16.09 60.962 0.923 7.92 1.36 7.21
10/23/2020 3:30:00 AM 16.05 60.89 0.923 7.92 2.29 7.24
10/23/2020 3:45:00 AM 16.02 60.836 0.925 7.92 1.28 7.21
10/23/2020 4:00:00 AM 16.01 60.818 0.926 7.92 1.68 7.23
10/23/2020 4:15:00 AM 16 60.8 0.927 7.92 1.88 7.24
10/23/2020 4:30:00 AM 15.99 60.782 0.927 7.92 1.6 7.18
10/23/2020 4:45:00 AM 15.97 60.746 0.927 7.92 2.64 7.19
10/23/2020 5:00:00 AM 15.96 60.728 0.927 7.91 1.48 7.18
10/23/2020 5:15:00 AM 15.94 60.692 0.927 7.91 1.76 7.21
10/23/2020 5:30:00 AM 15.92 60.656 0.918 7.9 2.11 7.16
10/23/2020 5:45:00 AM 15.9 60.62 0.928 7.9 1.86 7.21
10/23/2020 6:00:00 AM 15.88 60.584 0.929 7.9 1.65 7.2
10/23/2020 6:15:00 AM 15.88 60.584 0.929 7.89 1.47 7.21
10/23/2020 6:30:00 AM 15.87 60.566 0.929 7.89 2.13 7.21
10/23/2020 6:45:00 AM 15.87 60.566 0.93 7.89 2.16 7.21
10/23/2020 7:00:00 AM 15.86 60.548 0.929 7.89 1.4 7.21
10/23/2020 7:15:00 AM 15.86 60.548 0.928 7.89 2.29 7.25
10/23/2020 7:30:00 AM 15.85 60.53 0.93 7.89 1.27 7.24
10/23/2020 7:45:00 AM 15.85 60.53 0.931 7.89 1.41 7.24
10/23/2020 8:00:00 AM 15.86 60.548 0.93 7.89 1.41 7.29
10/23/2020 8:15:00 AM 15.86 60.548 0.93 7.89 1.13 7.28
10/23/2020 8:30:00 AM 15.88 60.584 0.929 7.89 1.43 7.38
10/23/2020 8:45:00 AM 15.89 60.602 0.93 7.89 1.22 7.46
10/23/2020 9:00:00 AM 15.91 60.638 0.93 7.9 1.84 7.54
10/23/2020 9:15:00 AM 15.93 60.674 0.929 7.9 1.34 7.61
10/23/2020 9:30:00 AM 15.94 60.692 0.93 7.9 1.07 7.62
10/23/2020 9:45:00 AM 15.97 60.746 0.93 7.91 1.16 7.76
10/23/2020 10:00:00 AM 16.01 60.818 0.93 7.91 1.57 7.92
10/23/2020 10:15:00 AM 16.05 60.89 0.929 7.93 2.07 8.12
10/23/2020 10:30:00 AM 16.1 60.98 0.929 7.94 2.02 8.34
10/23/2020 10:45:00 AM 16.15 61.07 0.929 7.95 1.58 8.46
10/23/2020 11:00:00 AM 16.21 61.178 0.929 7.96 1.1 8.61
10/23/2020 11:15:00 AM 16.27 61.286 0.929 7.97 1.11 8.83
10/23/2020 11:30:00 AM 16.35 61.43 0.928 7.98 1.49 9.02
10/23/2020 11:45:00 AM 16.48 61.664 0.928 7.99 1.46 9.25
10/23/2020 12:00:00 PM 16.62 61.916 0.928 8.01 1.21 9.49
10/23/2020 12:15:00 PM 16.78 62.204 0.927 8.03 1.13 9.74
10/23/2020 12:30:00 PM 16.9 62.42 0.927 8.04 3.39 9.9
10/23/2020 12:45:00 PM 17.04 62.672 0.927 8.04 1.28 10.07
10/23/2020 1:00:00 PM 17.16 62.888 0.927 8.06 1.28 10.13
10/23/2020 1:15:00 PM 17.24 63.032 0.926 8.07 1.26 10.26
10/23/2020 1:30:00 PM 17.35 63.23 0.926 8.09 1.45 10.48
10/23/2020 1:45:00 PM 17.45 63.41 0.926 8.1 1.13 10.54
10/23/2020 2:00:00 PM 17.53 63.554 0.926 8.12 1.53 10.67
10/23/2020 2:15:00 PM 17.57 63.626 0.926 8.12 1.29 10.62
10/23/2020 2:30:00 PM 17.65 63.77 0.926 8.12 0.99 10.62
10/23/2020 2:45:00 PM 17.71 63.878 0.926 8.13 1.1 10.59
10/23/2020 3:00:00 PM 17.75 63.95 0.926 8.12 1.16 10.65
10/23/2020 3:15:00 PM 17.75 63.95 0.926 8.13 1.29 10.52
10/23/2020 3:30:00 PM 17.74 63.932 0.926 8.14 1.2 10.45
10/23/2020 3:45:00 PM 17.76 63.968 0.926 8.14 1.18 10.58
10/23/2020 4:00:00 PM 17.77 63.986 0.926 8.15 1.18 10.53
10/23/2020 4:15:00 PM 17.77 63.986 0.926 8.15 1.19 10.36
10/23/2020 4:30:00 PM 17.77 63.986 0.926 8.14 1.39 10.22
10/23/2020 4:45:00 PM 17.77 63.986 0.926 8.13 1.71 9.99
10/23/2020 5:00:00 PM 17.78 64.004 0.927 8.13 1.46 9.86
10/23/2020 5:15:00 PM 17.8 64.04 0.926 8.13 1.71 9.75
10/23/2020 5:30:00 PM 17.82 64.076 0.926 8.14 1.94 9.72
10/23/2020 5:45:00 PM 17.84 64.112 0.927 8.14 2.12 9.56
10/23/2020 6:00:00 PM 17.85 64.13 0.926 8.14 1.73 9.48
10/23/2020 6:15:00 PM 17.84 64.112 0.926 8.14 1.75 9.32
10/23/2020 6:30:00 PM 17.84 64.112 0.926 8.14 2.8 9.11
10/23/2020 6:45:00 PM 17.83 64.094 0.926 8.13 1.9 8.97
10/23/2020 7:00:00 PM 17.82 64.076 0.927 8.13 1.26 8.85
10/23/2020 7:15:00 PM 17.81 64.058 0.926 8.11 0.98 8.7
10/23/2020 7:30:00 PM 17.79 64.022 0.927 8.11 1.83 8.59
10/23/2020 7:45:00 PM 17.77 63.986 0.927 8.1 1.61 8.46
10/23/2020 8:00:00 PM 17.75 63.95 0.927 8.09 1.65 8.32
10/23/2020 8:15:00 PM 17.72 63.896 0.927 8.08 1.44 8.18
10/23/2020 8:30:00 PM 17.68 63.824 0.928 8.07 1.05 8.08
10/23/2020 8:45:00 PM 17.64 63.752 0.928 8.07 1.42 7.96
10/23/2020 9:00:00 PM 17.6 63.68 0.928 8.06 1.3 7.82
10/23/2020 9:15:00 PM 17.55 63.59 0.928 8.05 1.83 7.7
10/23/2020 9:30:00 PM 17.51 63.518 0.929 8.04 1.28 7.58
10/23/2020 9:45:00 PM 17.46 63.428 0.929 8.04 1.88 7.48
10/23/2020 10:00:00 PM 17.43 63.374 0.93 8.02 1.59 7.39
10/23/2020 10:15:00 PM 17.39 63.302 0.93 8.01 1.51 7.36
10/23/2020 10:30:00 PM 17.35 63.23 0.93 8 1.47 7.26
10/23/2020 10:45:00 PM 17.31 63.158 0.931 8 1.65 7.18
10/23/2020 11:00:00 PM 17.27 63.086 0.931 7.99 1.65 7.13
10/23/2020 11:15:00 PM 17.25 63.05 0.932 7.99 1.55 7.07
10/23/2020 11:30:00 PM 17.21 62.978 0.932 7.98 2.2 7.04
10/23/2020 11:45:00 PM 17.18 62.924 0.932 7.98 2.35 6.99
10/24/2020 12:00:00 AM 17.15 62.87 0.933 7.97 6 6.92
10/24/2020 12:15:00 AM 17.12 62.816 0.933 7.96 2.12 6.89
10/24/2020 12:30:00 AM 17.09 62.762 0.934 7.96 1.21 6.87
10/24/2020 12:45:00 AM 17.06 62.708 0.934 7.95 1.48 6.87
10/24/2020 1:00:00 AM 17.02 62.636 0.933 7.95 1.26 6.82
10/24/2020 1:15:00 AM 16.99 62.582 0.935 7.94 1.67 6.81
10/24/2020 1:30:00 AM 16.95 62.51 0.935 7.94 1.85 6.77
10/24/2020 1:45:00 AM 16.95 62.51 0.936 7.93 1.89 6.79
10/24/2020 2:00:00 AM 16.93 62.474 0.936 7.93 1.99 6.76
10/24/2020 2:15:00 AM 16.91 62.438 0.936 7.92 1.98 6.74
10/24/2020 2:30:00 AM 16.88 62.384 0.937 7.91 2.04 6.71
10/24/2020 2:45:00 AM 16.85 62.33 0.937 7.91 2.06 6.7
10/24/2020 3:00:00 AM 16.82 62.276 0.938 7.91 1.72 6.69
10/24/2020 3:15:00 AM 16.8 62.24 0.938 7.9 1.68 6.69
10/24/2020 3:30:00 AM 16.77 62.186 0.938 7.9 2.46 6.66
10/24/2020 3:45:00 AM 16.75 62.15 0.939 7.9 1.7 6.67
10/24/2020 4:00:00 AM 16.73 62.114 0.939 7.9 1.77 6.67
10/24/2020 4:15:00 AM 16.71 62.078 0.939 7.9 2.42 6.66
10/24/2020 4:30:00 AM 16.71 62.078 0.94 7.9 3.18 6.64
10/24/2020 4:45:00 AM 16.71 62.078 0.94 7.89 2.11 6.65
10/24/2020 5:00:00 AM 16.7 62.06 0.94 7.89 3.15 6.64
10/24/2020 5:15:00 AM 16.7 62.06 0.941 7.89 1.87 6.64
10/24/2020 5:30:00 AM 16.69 62.042 0.941 7.89 2.17 6.66
10/24/2020 5:45:00 AM 16.68 62.024 0.941 7.89 2.1 6.67
10/24/2020 6:00:00 AM 16.67 62.006 0.941 7.88 2.36 6.67
10/24/2020 6:15:00 AM 16.66 61.988 0.941 7.88 2.06 6.68
10/24/2020 6:30:00 AM 16.66 61.988 0.941 7.88 2.04 6.68
10/24/2020 6:45:00 AM 16.65 61.97 0.941 7.88 2.47 6.68
10/24/2020 7:00:00 AM 16.65 61.97 0.942 7.87 2.07 6.66
10/24/2020 7:15:00 AM 16.64 61.952 0.942 7.87 2.52 6.66
10/24/2020 7:30:00 AM 16.64 61.952 0.942 7.87 6.11 6.66
10/24/2020 7:45:00 AM 16.64 61.952 0.942 7.87 7.91 6.69
10/24/2020 8:00:00 AM 16.64 61.952 0.942 7.88 4.14 6.74
10/24/2020 8:15:00 AM 16.65 61.97 0.942 7.88 3.47 6.79
10/24/2020 8:30:00 AM 16.65 61.97 0.942 7.88 4.65 6.85
10/24/2020 8:45:00 AM 16.66 61.988 0.942 7.88 5.44 6.87
10/24/2020 9:00:00 AM 16.69 62.042 0.942 7.88 3.65 6.95
10/24/2020 9:15:00 AM 16.72 62.096 0.942 7.89 3.33 7.12
10/24/2020 9:30:00 AM 16.75 62.15 0.942 7.89 3.81 7.28
10/24/2020 9:45:00 AM 16.76 62.168 0.942 7.9 4.05 7.37
10/24/2020 10:00:00 AM 16.78 62.204 0.942 7.91 2.76 7.46
10/24/2020 10:15:00 AM 16.79 62.222 0.942 7.91 3.85 7.52
10/24/2020 10:30:00 AM 16.81 62.258 0.942 7.92 3.3 7.59
10/24/2020 10:45:00 AM 16.85 62.33 0.941 7.92 2.7 7.74
10/24/2020 11:00:00 AM 16.89 62.402 0.941 7.93 2.9 7.92
10/24/2020 11:15:00 AM 16.96 62.528 0.941 7.94 2.92 8.17
10/24/2020 11:30:00 AM 17 62.6 0.941 7.96 2.55 8.42
10/24/2020 11:45:00 AM 17.04 62.672 0.941 7.97 2.72 8.56
10/24/2020 12:00:00 PM 17.12 62.816 0.94 7.99 3.69 8.75
10/24/2020 12:15:00 PM 17.26 63.068 0.94 8 2.67 9.04
10/24/2020 12:30:00 PM 17.4 63.32 0.94 8.02 3.03 9.34
10/24/2020 12:45:00 PM 17.41 63.338 0.939 8.04 2.82 9.5
10/24/2020 1:00:00 PM 17.38 63.284 0.94 8.05 2.65 9.42
10/24/2020 1:15:00 PM 17.35 63.23 0.94 8.05 3.48 9.18
10/24/2020 1:30:00 PM 17.35 63.23 0.94 8.05 3.02 9.04
10/24/2020 1:45:00 PM 17.37 63.266 0.94 8.04 2.97 9.02
10/24/2020 2:00:00 PM 17.4 63.32 0.94 8.04 2.95 9.18
10/24/2020 2:15:00 PM 17.43 63.374 0.939 8.05 3.38 9.33
10/24/2020 2:30:00 PM 17.44 63.392 0.939 8.06 2.92 9.46
10/24/2020 2:45:00 PM 17.46 63.428 0.939 8.08 4.83 9.54
10/24/2020 3:00:00 PM 17.45 63.41 0.939 8.09 2.57 9.52
10/24/2020 3:15:00 PM 17.44 63.392 0.939 8.09 3.22 9.36
10/24/2020 3:30:00 PM 17.44 63.392 0.939 8.09 2.85 9.21
10/24/2020 3:45:00 PM 17.43 63.374 0.939 8.09 3.03 9.27
10/24/2020 4:00:00 PM 17.42 63.356 0.939 8.09 2.85 9.27
10/24/2020 4:15:00 PM 17.41 63.338 0.939 8.09 2.84 9.33
10/24/2020 4:30:00 PM 17.4 63.32 0.939 8.1 3.48 9.27
10/24/2020 4:45:00 PM 17.37 63.266 0.939 8.1 3.65 9.29
10/24/2020 5:00:00 PM 17.33 63.194 0.94 8.1 2.65 9.21
10/24/2020 5:15:00 PM 17.3 63.14 0.94 8.1 2.62 9.11
10/24/2020 5:30:00 PM 17.26 63.068 0.94 8.09 2.85 8.95
10/24/2020 5:45:00 PM 17.21 62.978 0.94 8.09 2.96 8.84
10/24/2020 6:00:00 PM 17.14 62.852 0.94 8.09 2.97 8.67
10/24/2020 6:15:00 PM 17.09 62.762 0.94 8.08 2.89 8.53
10/24/2020 6:30:00 PM 17.03 62.654 0.94 8.07 3.26 8.39
10/24/2020 6:45:00 PM 16.98 62.564 0.94 8.06 3.26 8.23
10/24/2020 7:00:00 PM 16.91 62.438 0.94 8.06 3.33 8.19
10/24/2020 7:15:00 PM 16.86 62.348 0.94 8.06 2.99 8.18
10/24/2020 7:30:00 PM 16.8 62.24 0.94 8.06 3.08 8.08
10/24/2020 7:45:00 PM 16.75 62.15 0.94 8.05 2.89 7.94
10/24/2020 8:00:00 PM 16.69 62.042 0.941 8.04 2.79 7.93
10/24/2020 8:15:00 PM 16.63 61.934 0.94 8.04 3.03 7.8
10/24/2020 8:30:00 PM 16.59 61.862 0.94 8.04 2.92 7.79
10/24/2020 8:45:00 PM 16.52 61.736 0.941 8.03 2.82 7.65
10/24/2020 9:00:00 PM 16.47 61.646 0.941 8.03 2.87 7.57
10/24/2020 9:15:00 PM 16.4 61.52 0.941 8.02 2.77 7.51
10/24/2020 9:30:00 PM 16.34 61.412 0.941 8.01 2.62 7.4
10/24/2020 9:45:00 PM 16.3 61.34 0.941 8.01 3.71 7.35
10/24/2020 10:00:00 PM 16.21 61.178 0.941 8 3.52 7.33
10/24/2020 10:15:00 PM 16.15 61.07 0.941 8 3.31 7.29
10/24/2020 10:30:00 PM 16.07 60.926 0.942 8 3.35 7.27
10/24/2020 10:45:00 PM 16.02 60.836 0.942 7.99 2.95 7.21
10/24/2020 11:00:00 PM 15.95 60.71 0.942 7.99 3.12 7.19
10/24/2020 11:15:00 PM 15.89 60.602 0.942 7.98 3.17 7.2
10/24/2020 11:30:00 PM 15.83 60.494 0.943 7.98 12.95 7.16
10/24/2020 11:45:00 PM 15.76 60.368 0.943 7.98 3.85 7.17
10/25/2020 12:00:00 AM 15.7 60.26 0.943 7.98 3.49 7.12
10/25/2020 12:15:00 AM 15.64 60.152 0.943 7.98 2.89 7.08
10/25/2020 12:30:00 AM 15.58 60.044 0.943 7.97 3.62 7.11
10/25/2020 12:45:00 AM 15.52 59.936 0.944 7.97 3.17 7.12
10/25/2020 1:00:00 AM 15.46 59.828 0.944 7.97 2.98 7.04
10/25/2020 1:15:00 AM 15.39 59.702 0.944 7.96 3.21 7.08
10/25/2020 1:30:00 AM 15.32 59.576 0.945 7.96 3.28 7.07
10/25/2020 1:45:00 AM 15.26 59.468 0.945 7.96 3.12 7
10/25/2020 2:00:00 AM 15.2 59.36 0.945 7.96 3.47 7.05
10/25/2020 2:15:00 AM 15.12 59.216 0.946 7.95 3.22 7.08
10/25/2020 2:30:00 AM 15.07 59.126 0.946 7.96 3.08 7.11
10/25/2020 2:45:00 AM 15 59 0.946 7.95 2.87 7.08
10/25/2020 3:00:00 AM 14.94 58.892 0.947 7.95 3.3 7.1
10/25/2020 3:15:00 AM 14.88 58.784 0.947 7.95 3.3 7.08
10/25/2020 3:30:00 AM 14.82 58.676 0.947 7.95 3.16 7.09
10/25/2020 3:45:00 AM 14.75 58.55 0.948 7.95 3.37 7.09
10/25/2020 4:00:00 AM 14.7 58.46 0.948 7.95 2.97 7.08
10/25/2020 4:15:00 AM 14.64 58.352 0.948 7.95 3.65 7.04
10/25/2020 4:30:00 AM 14.56 58.208 0.948 7.94 3.49 7.01
10/25/2020 4:45:00 AM 14.5 58.1 0.948 7.94 3.46 7.04
10/25/2020 5:00:00 AM 14.44 57.992 0.948 7.94 4.11 7.13
10/25/2020 5:15:00 AM 14.39 57.902 0.949 7.93 3.64 7.13
10/25/2020 5:30:00 AM 14.35 57.83 0.949 7.93 3.48 7.15
10/25/2020 5:45:00 AM 14.3 57.74 0.949 7.93 3.35 7.17
10/25/2020 6:00:00 AM 14.26 57.668 0.949 7.93 3.48 7.2
10/25/2020 6:15:00 AM 14.22 57.596 0.949 7.93 3.06 7.22
10/25/2020 6:30:00 AM 14.17 57.506 0.949 7.93 3.74 7.23
10/25/2020 6:45:00 AM 14.12 57.416 0.949 7.93 3.95 7.26
10/25/2020 7:00:00 AM 14.07 57.326 0.949 7.93 3.4 7.26
10/25/2020 7:15:00 AM 14.02 57.236 0.95 7.93 3.31 7.29
10/25/2020 7:30:00 AM 13.98 57.164 0.949 7.93 2.97 7.32
10/25/2020 7:45:00 AM 13.94 57.092 0.949 7.93 3.18 7.31
10/25/2020 8:00:00 AM 13.9 57.02 0.949 7.93 3.65 7.36
10/25/2020 8:15:00 AM 13.87 56.966 0.949 7.92 3.62 7.39
10/25/2020 8:30:00 AM 13.83 56.894 0.949 7.92 3.64 7.48
10/25/2020 8:45:00 AM 13.81 56.858 0.948 7.93 3.37 7.6
10/25/2020 9:00:00 AM 13.79 56.822 0.948 7.94 3.28 7.65
10/25/2020 9:15:00 AM 13.76 56.768 0.948 7.94 3.07 7.72
10/25/2020 9:30:00 AM 13.74 56.732 0.948 7.95 3.09 7.8
10/25/2020 9:45:00 AM 13.74 56.732 0.947 7.95 3.45 7.93
10/25/2020 10:00:00 AM 13.73 56.714 0.947 7.96 3.39 8.08
10/25/2020 10:15:00 AM 13.73 56.714 0.946 7.97 3.45 8.31
10/25/2020 10:30:00 AM 13.72 56.696 0.946 7.98 3.05 8.45
10/25/2020 10:45:00 AM 13.71 56.678 0.945 7.98 3.09 8.57
10/25/2020 11:00:00 AM 13.71 56.678 0.945 7.99 3.21 8.68
10/25/2020 11:15:00 AM 13.72 56.696 0.945 8 3.04 8.82
10/25/2020 11:30:00 AM 13.71 56.678 0.944 8.01 3.75 8.98
10/25/2020 11:45:00 AM 13.73 56.714 0.943 8.02 3.11 9.12
10/25/2020 12:00:00 PM 13.74 56.732 0.943 8.02 3.49 9.27
10/25/2020 12:15:00 PM 13.73 56.714 0.942 8.04 3.07 9.44
10/25/2020 12:30:00 PM 13.71 56.678 0.942 8.04 3.32 9.42
10/25/2020 12:45:00 PM 13.68 56.624 0.941 8.05 3.24 9.36
10/25/2020 1:00:00 PM 13.63 56.534 0.936 8.06 3.04 9.47
10/25/2020 1:15:00 PM 13.61 56.498 0.935 8.06 3.17 9.52
10/25/2020 1:30:00 PM 13.61 56.498 0.935 8.08 3.2 9.79
10/25/2020 1:45:00 PM 13.6 56.48 0.935 8.09 3.07 9.9
10/25/2020 2:00:00 PM 13.6 56.48 0.934 8.1 3.63 9.94
10/25/2020 2:15:00 PM 13.59 56.462 0.933 8.1 3.29 9.98
10/25/2020 2:30:00 PM 13.59 56.462 0.932 8.11 3.24 10.13
10/25/2020 2:45:00 PM 13.57 56.426 0.931 8.12 3.01 10.21
10/25/2020 3:00:00 PM 13.54 56.372 0.931 8.12 3.37 10.19
10/25/2020 3:15:00 PM 13.51 56.318 0.93 8.12 3.12 10.11
10/25/2020 3:30:00 PM 13.49 56.282 0.929 8.13 3.18 10.02
10/25/2020 3:45:00 PM 13.48 56.264 0.929 8.13 3.22 9.99
10/25/2020 4:00:00 PM 13.47 56.246 0.928 8.13 3.24 10.02
10/25/2020 4:15:00 PM 13.45 56.21 0.928 8.14 3.11 10.03
10/25/2020 4:30:00 PM 13.45 56.21 0.928 8.14 3.3 9.97
10/25/2020 4:45:00 PM 13.44 56.192 0.928 8.14 3.04 9.97
10/25/2020 5:00:00 PM 13.41 56.138 0.928 8.14 3.05 9.92
10/25/2020 5:15:00 PM 13.38 56.084 0.928 8.13 3.17 9.82
10/25/2020 5:30:00 PM 13.37 56.066 0.928 8.12 3.39 9.72
10/25/2020 5:45:00 PM 13.35 56.03 0.927 8.12 3.26 9.62
10/25/2020 6:00:00 PM 13.32 55.976 0.927 8.12 3.36 9.57
10/25/2020 6:15:00 PM 13.3 55.94 0.927 8.11 3.59 9.47
10/25/2020 6:30:00 PM 13.27 55.886 0.927 8.11 3.45 9.38
10/25/2020 6:45:00 PM 13.25 55.85 0.927 8.11 3.69 9.29
10/25/2020 7:00:00 PM 13.23 55.814 0.927 8.11 3.38 9.2
10/25/2020 7:15:00 PM 13.21 55.778 0.927 8.11 3.7 9.16
10/25/2020 7:30:00 PM 13.19 55.742 0.927 8.1 3.73 9.05
10/25/2020 7:45:00 PM 13.17 55.706 0.928 8.1 3.35 8.99
10/25/2020 8:00:00 PM 13.15 55.67 0.928 8.09 3.32 8.91
10/25/2020 8:15:00 PM 13.13 55.634 0.928 8.09 3.28 8.84
10/25/2020 8:30:00 PM 13.11 55.598 0.928 8.09 3.12 8.77
10/25/2020 8:45:00 PM 13.09 55.562 0.928 8.08 3.28 8.7
10/25/2020 9:00:00 PM 13.07 55.526 0.928 8.08 3.3 8.65
10/25/2020 9:15:00 PM 13.05 55.49 0.928 8.08 3.26 8.58
10/25/2020 9:30:00 PM 13.03 55.454 0.928 8.07 3.56 8.55
10/25/2020 9:45:00 PM 13.01 55.418 0.928 8.07 3.77 8.49
10/25/2020 10:00:00 PM 12.99 55.382 0.927 8.06 4.83 8.47
10/25/2020 10:15:00 PM 12.97 55.346 0.927 8.06 3.62 8.45
10/25/2020 10:30:00 PM 12.95 55.31 0.927 8.05 3.75 8.42
10/25/2020 10:45:00 PM 12.93 55.274 0.926 8.05 4.16 8.37
10/25/2020 11:00:00 PM 12.91 55.238 0.926 8.05 3.67 8.36
10/25/2020 11:15:00 PM 12.89 55.202 0.926 8.04 3.59 8.31
10/25/2020 11:30:00 PM 12.87 55.166 0.926 8.04 3.9 8.29
10/25/2020 11:45:00 PM 12.85 55.13 0.926 8.03 3.31 8.28
10/26/2020 12:00:00 AM 12.83 55.094 0.926 8.03 3.49 8.26
10/26/2020 12:15:00 AM 12.82 55.076 0.926 8.03 3.5 8.21
10/26/2020 12:30:00 AM 12.8 55.04 0.927 8.03 3.49 8.19
10/26/2020 12:45:00 AM 12.79 55.022 0.927 8.02 3.83 8.19
10/26/2020 1:00:00 AM 12.77 54.986 0.928 8.02 4.04 8.17
10/26/2020 1:15:00 AM 12.76 54.968 0.928 8.02 3.61 8.15
10/26/2020 1:30:00 AM 12.74 54.932 0.928 8.02 3.78 8.15
10/26/2020 1:45:00 AM 12.73 54.914 0.929 8.01 4.76 8.15
10/26/2020 2:00:00 AM 12.71 54.878 0.93 8.01 3.75 8.13
10/26/2020 2:15:00 AM 12.69 54.842 0.93 8.01 3.78 8.12
10/26/2020 2:30:00 AM 12.68 54.824 0.931 8.01 3.75 8.1
10/26/2020 2:45:00 AM 12.67 54.806 0.932 8 3.67 8.11
10/26/2020 3:00:00 AM 12.65 54.77 0.932 8 3.55 8.09
10/26/2020 3:15:00 AM 12.64 54.752 0.933 8 3.52 8.07
10/26/2020 3:30:00 AM 12.63 54.734 0.934 8 3.66 8.07
10/26/2020 3:45:00 AM 12.61 54.698 0.934 7.99 4 8.09
10/26/2020 4:00:00 AM 12.6 54.68 0.935 7.99 4.21 8.06
10/26/2020 4:15:00 AM 12.58 54.644 0.935 7.99 4.86 8.08
10/26/2020 4:30:00 AM 12.57 54.626 0.935 7.99 4.95 8.07
10/26/2020 4:45:00 AM 12.56 54.608 0.936 7.99 4.34 8.06
10/26/2020 5:00:00 AM 12.55 54.59 0.936 7.98 4.35 8.05
10/26/2020 5:15:00 AM 12.53 54.554 0.937 7.98 4.46 8.1
10/26/2020 5:30:00 AM 12.53 54.554 0.937 7.98 4.31 8.11
10/26/2020 5:45:00 AM 12.52 54.536 0.938 7.98 4.64 8.12
10/26/2020 6:00:00 AM 12.5 54.5 0.938 7.98 4.98 8.12
10/26/2020 6:15:00 AM 12.5 54.5 0.939 7.98 4.86 8.06
10/26/2020 6:30:00 AM 12.49 54.482 0.939 7.97 4.73 8.12
10/26/2020 6:45:00 AM 12.48 54.464 0.939 7.97 4.4 8.12
10/26/2020 7:00:00 AM 12.47 54.446 0.939 7.97 4.57 8.13
10/26/2020 7:15:00 AM 12.46 54.428 0.939 7.96 4.71 8.12
10/26/2020 7:30:00 AM 12.45 54.41 0.939 7.96 4.27 8.12
10/26/2020 7:45:00 AM 12.45 54.41 0.939 7.96 4.26 8.09
10/26/2020 8:00:00 AM 12.44 54.392 0.939 7.96 4.54 8.13
10/26/2020 8:15:00 AM 12.44 54.392 0.938 7.96 4.98 8.11
10/26/2020 8:30:00 AM 12.43 54.374 0.938 7.95 5.37 8.11
10/26/2020 8:45:00 AM 12.43 54.374 0.938 7.95 4.41 8.2
10/26/2020 9:00:00 AM 12.44 54.392 0.938 7.95 4.42 8.19
10/26/2020 9:15:00 AM 12.45 54.41 0.937 7.96 4.33 8.25
10/26/2020 9:30:00 AM 12.46 54.428 0.937 7.96 4.71 8.41
10/26/2020 9:45:00 AM 12.47 54.446 0.937 7.96 4.62 8.47
10/26/2020 10:00:00 AM 12.5 54.5 0.936 7.97 5.33 8.6
10/26/2020 10:15:00 AM 12.52 54.536 0.935 7.97 4.44 8.74
10/26/2020 10:30:00 AM 12.55 54.59 0.935 7.98 4.62 8.9
10/26/2020 10:45:00 AM 12.58 54.644 0.934 7.98 3.97 9.01
10/26/2020 11:00:00 AM 12.65 54.77 0.934 7.99 4.88 9.22
10/26/2020 11:15:00 AM 12.71 54.878 0.933 8 4.26 9.45
10/26/2020 11:30:00 AM 12.75 54.95 0.932 8.01 4.25 9.57
10/26/2020 11:45:00 AM 12.77 54.986 0.931 8.02 4.43 9.64
10/26/2020 12:00:00 PM 12.79 55.022 0.931 8.02 4.43 9.61
10/26/2020 12:15:00 PM 12.81 55.058 0.93 8.03 4.11 9.64
10/26/2020 12:30:00 PM 12.83 55.094 0.929 8.03 4.42 9.72
10/26/2020 12:45:00 PM 12.86 55.148 0.928 8.04 4.65 9.81
10/26/2020 1:00:00 PM 12.88 55.184 0.926 8.05 4.67 9.89
10/26/2020 1:15:00 PM 12.92 55.256 0.925 8.05 4.55 9.99
10/26/2020 1:30:00 PM 12.96 55.328 0.924 8.06 4.37 10.1
10/26/2020 1:45:00 PM 12.99 55.382 0.923 8.07 4.52 10.2
10/26/2020 2:00:00 PM 13.03 55.454 0.922 8.07 4.27 10.26
10/26/2020 2:15:00 PM 13.08 55.544 0.921 8.08 4.3 10.39
10/26/2020 2:30:00 PM 13.12 55.616 0.92 8.09 4.08 10.45
10/26/2020 2:45:00 PM 13.15 55.67 0.919 8.09 4.78 10.47
10/26/2020 3:00:00 PM 13.18 55.724 0.919 8.1 4.28 10.51
10/26/2020 3:15:00 PM 13.19 55.742 0.918 8.11 4.24 10.45
10/26/2020 3:30:00 PM 13.2 55.76 0.918 8.11 4.58 10.34
10/26/2020 3:45:00 PM 13.21 55.778 0.917 8.11 4.23 10.3
10/26/2020 4:00:00 PM 13.23 55.814 0.917 8.11 4.23 10.3
10/26/2020 4:15:00 PM 13.25 55.85 0.917 8.11 4.49 10.24
10/26/2020 4:30:00 PM 13.26 55.868 0.917 8.11 4.88 10.24
10/26/2020 4:45:00 PM 13.28 55.904 0.917 8.12 6.64 10.2
10/26/2020 5:00:00 PM 13.28 55.904 0.917 8.12 4.89 10.1
10/26/2020 5:15:00 PM 13.28 55.904 0.917 8.12 4.46 10.03
10/26/2020 5:30:00 PM 13.29 55.922 0.917 8.12 5.4 9.9
10/26/2020 5:45:00 PM 13.29 55.922 0.917 8.11 4.29 9.78
10/26/2020 6:00:00 PM 13.29 55.922 0.917 8.11 3.86 9.71
10/26/2020 6:15:00 PM 13.29 55.922 0.917 8.1 3.55 9.64
10/26/2020 6:30:00 PM 13.29 55.922 0.917 8.1 3.42 9.53
10/26/2020 6:45:00 PM 13.29 55.922 0.917 8.09 3.15 9.44
10/26/2020 7:00:00 PM 13.3 55.94 0.917 8.09 3.23 9.38
10/26/2020 7:15:00 PM 13.3 55.94 0.917 8.08 3.81 9.29
10/26/2020 7:30:00 PM 13.31 55.958 0.917 8.08 3.46 9.2
10/26/2020 7:45:00 PM 13.31 55.958 0.917 8.07 3.1 9.1
10/26/2020 8:00:00 PM 13.32 55.976 0.917 8.06 3.22 9.04
10/26/2020 8:15:00 PM 13.32 55.976 0.918 8.06 3.5 8.97
10/26/2020 8:30:00 PM 13.32 55.976 0.918 8.06 3.41 8.88
10/26/2020 8:45:00 PM 13.33 55.994 0.918 8.05 3.72 8.84
10/26/2020 9:00:00 PM 13.33 55.994 0.917 8.05 3.14 8.74
10/26/2020 9:15:00 PM 13.33 55.994 0.916 8.04 4.59 8.69
10/26/2020 9:30:00 PM 13.33 55.994 0.915 8.04 3.16 8.61
10/26/2020 9:45:00 PM 13.34 56.012 0.917 8.03 5.22 8.6
10/26/2020 10:00:00 PM 13.34 56.012 0.916 8.03 3.1 8.52
10/26/2020 10:15:00 PM 13.34 56.012 0.916 8.02 3.18 8.48
10/26/2020 10:30:00 PM 13.34 56.012 0.917 8.02 3.03 8.41
10/26/2020 10:45:00 PM 13.34 56.012 0.915 8.01 3.89 8.41
10/26/2020 11:00:00 PM 13.34 56.012 0.892 8 3.27 8.39
10/26/2020 11:15:00 PM 13.34 56.012 0.865 8 3.21 8.35
10/26/2020 11:30:00 PM 13.33 55.994 0.88 7.99 3.2 8.29
10/26/2020 11:45:00 PM 13.32 55.976 0.899 7.99 3.02 8.25
10/27/2020 12:00:00 AM 13.31 55.958 0.913 7.99 3.18 8.24
10/27/2020 12:15:00 AM 13.3 55.94 0.912 7.99 3.21 8.19
10/27/2020 12:30:00 AM 13.29 55.922 0.916 7.98 2.95 8.19
10/27/2020 12:45:00 AM 13.29 55.922 0.915 7.98 2.85 8.17
10/27/2020 1:00:00 AM 13.28 55.904 0.897 7.98 3.45 8.16
10/27/2020 1:15:00 AM 13.29 55.922 0.916 7.97 3.07 8.14
10/27/2020 1:30:00 AM 13.28 55.904 0.917 7.97 4.35 8.08
10/27/2020 1:45:00 AM 13.26 55.868 0.915 7.96 3.75 8.06
10/27/2020 2:00:00 AM 13.24 55.832 0.917 7.96 3.09 8.03
10/27/2020 2:15:00 AM 13.22 55.796 0.917 7.95 3.69 8.03
10/27/2020 2:30:00 AM 13.19 55.742 0.917 7.95 3.28 8.08
10/27/2020 2:45:00 AM 13.17 55.706 0.917 7.95 5.98 8.04
10/27/2020 3:00:00 AM 13.16 55.688 0.916 7.95 4.33 8.07
10/27/2020 3:15:00 AM 13.16 55.688 0.916 7.95 3.61 8.04
10/27/2020 3:30:00 AM 13.16 55.688 0.916 7.94 3.31 8.03
10/27/2020 3:45:00 AM 13.15 55.67 0.916 7.94 3.49 8.02
10/27/2020 4:00:00 AM 13.14 55.652 0.915 7.94 3.17 8.03
10/27/2020 4:15:00 AM 13.13 55.634 0.915 7.93 4 8.02
10/27/2020 4:30:00 AM 13.12 55.616 0.915 7.93 3.88 8.01
10/27/2020 4:45:00 AM 13.11 55.598 0.914 7.93 3.94 8.01
10/27/2020 5:00:00 AM 13.09 55.562 0.914 7.93 4.16 8.01
10/27/2020 5:15:00 AM 13.08 55.544 0.914 7.93 4.08 8.01
10/27/2020 5:30:00 AM 13.07 55.526 0.914 7.93 3.32 8.01
10/27/2020 5:45:00 AM 13.06 55.508 0.914 7.93 4.29 8.01
10/27/2020 6:00:00 AM 13.05 55.49 0.848 7.92 3.61 7.99
10/27/2020 6:15:00 AM 13.03 55.454 0.909 7.92 3.85 8.02
10/27/2020 6:30:00 AM 13.02 55.436 0.9 7.92 4.24 8
10/27/2020 6:45:00 AM 13.01 55.418 0.856 7.92 3.77 8.05
10/27/2020 7:00:00 AM 13 55.4 0.915 7.92 4.77 8.05
10/27/2020 7:15:00 AM 12.99 55.382 0.915 7.92 3.59 8.06
10/27/2020 7:30:00 AM 12.99 55.382 0.915 7.92 3.83 8.06
10/27/2020 7:45:00 AM 12.98 55.364 0.915 7.92 4.15 8.07
10/27/2020 8:00:00 AM 12.97 55.346 0.915 7.91 3.66 8.03
10/27/2020 8:15:00 AM 12.96 55.328 0.915 7.91 4.11 8.01
10/27/2020 8:30:00 AM 12.96 55.328 0.915 7.91 4.09 8.01
10/27/2020 8:45:00 AM 12.95 55.31 0.915 7.91 3.75 8.11
10/27/2020 9:00:00 AM 12.95 55.31 0.915 7.91 3.96 8.16
10/27/2020 9:15:00 AM 12.95 55.31 0.915 7.92 4.25 8.27
10/27/2020 9:30:00 AM 12.93 55.274 0.915 7.92 3.89 8.34
10/27/2020 9:45:00 AM 12.92 55.256 0.915 7.92 4.27 8.32
10/27/2020 10:00:00 AM 12.95 55.31 0.914 7.93 4.3 8.55
10/27/2020 10:15:00 AM 12.98 55.364 0.914 7.94 4.36 8.73
10/27/2020 10:30:00 AM 13.06 55.508 0.914 7.95 3.44 8.98
10/27/2020 10:45:00 AM 13.11 55.598 0.914 7.96 4.05 9.2
10/27/2020 11:00:00 AM 13.14 55.652 0.914 7.98 4.07 9.28
10/27/2020 11:15:00 AM 13.24 55.832 0.914 7.98 3.58 9.43
10/27/2020 11:30:00 AM 13.32 55.976 0.914 7.99 4.04 9.64
10/27/2020 11:45:00 AM 13.42 56.156 0.913 8 3.4 9.83
10/27/2020 12:00:00 PM 13.51 56.318 0.913 8.02 3.62 10.07
10/27/2020 12:15:00 PM 13.65 56.57 0.913 8.04 3.76 10.23
10/27/2020 12:30:00 PM 13.74 56.732 0.913 8.05 3.47 10.4
10/27/2020 12:45:00 PM 13.85 56.93 0.912 8.06 3.7 10.53
10/27/2020 1:00:00 PM 14.02 57.236 0.912 8.07 3.53 10.71
10/27/2020 1:15:00 PM 14 57.2 0.913 8.08 3.74 10.82
10/27/2020 1:30:00 PM 13.98 57.164 0.912 8.09 3.64 10.83
10/27/2020 1:45:00 PM 14.07 57.326 0.912 8.1 3.97 10.87
10/27/2020 2:00:00 PM 14.2 57.56 0.912 8.11 3.68 11.07
10/27/2020 2:15:00 PM 14.28 57.704 0.911 8.12 3.7 11.21
10/27/2020 2:30:00 PM 14.36 57.848 0.911 8.13 3.93 11.29
10/27/2020 2:45:00 PM 14.37 57.866 0.911 8.14 4.31 11.37
10/27/2020 3:00:00 PM 14.39 57.902 0.911 8.16 4.54 11.49
10/27/2020 3:15:00 PM 14.38 57.884 0.911 8.17 4.36 11.5
10/27/2020 3:30:00 PM 14.39 57.902 0.91 8.18 3.74 11.5
10/27/2020 3:45:00 PM 14.39 57.902 0.91 8.18 3.27 11.46
10/27/2020 4:00:00 PM 14.38 57.884 0.911 8.19 3.62 11.43
10/27/2020 4:15:00 PM 14.38 57.884 0.91 8.19 3.62 11.31
10/27/2020 4:30:00 PM 14.38 57.884 0.91 8.19 3.76 11.22
10/27/2020 4:45:00 PM 14.38 57.884 0.91 8.19 4.76 11.17
10/27/2020 5:00:00 PM 14.38 57.884 0.91 8.2 4.19 11.08
10/27/2020 5:15:00 PM 14.37 57.866 0.91 8.2 3.95 10.96
10/27/2020 5:30:00 PM 14.36 57.848 0.91 8.2 3.92 10.84
10/27/2020 5:45:00 PM 14.33 57.794 0.864 8.2 4.49 10.69
10/27/2020 6:00:00 PM 14.3 57.74 0.894 8.2 3.8 10.53
10/27/2020 6:15:00 PM 14.27 57.686 0.893 8.19 3.93 10.39
10/27/2020 6:30:00 PM 14.23 57.614 0.91 8.19 4.03 10.23
10/27/2020 6:45:00 PM 14.2 57.56 0.911 8.18 4.08 10.11
10/27/2020 7:00:00 PM 14.17 57.506 0.849 8.18 4.05 9.95
10/27/2020 7:15:00 PM 14.14 57.452 0.911 8.17 4.03 9.77
10/27/2020 7:30:00 PM 14.12 57.416 0.911 8.16 3.77 9.63
10/27/2020 7:45:00 PM 14.1 57.38 0.911 8.15 4.12 9.52
10/27/2020 8:00:00 PM 14.08 57.344 0.893 8.15 3.74 9.39
10/27/2020 8:15:00 PM 14.07 57.326 0.906 8.14 4.33 9.25
10/27/2020 8:30:00 PM 14.05 57.29 0.911 8.13 4.62 9.18
10/27/2020 8:45:00 PM 14.03 57.254 0.839 8.12 4.48 9.06
10/27/2020 9:00:00 PM 14.01 57.218 0.91 8.12 4.17 8.97
10/27/2020 9:15:00 PM 14 57.2 0.91 8.11 3.98 8.86
10/27/2020 9:30:00 PM 13.98 57.164 0.909 8.1 5.18 8.78
10/27/2020 9:45:00 PM 13.97 57.146 0.909 8.09 4.88 8.69
10/27/2020 10:00:00 PM 13.96 57.128 0.908 8.09 4.47 8.58
10/27/2020 10:15:00 PM 13.95 57.11 0.908 8.08 4.38 8.52
10/27/2020 10:30:00 PM 13.93 57.074 0.908 8.07 4.07 8.49
10/27/2020 10:45:00 PM 13.92 57.056 0.907 8.07 4.4 8.41
10/27/2020 11:00:00 PM 13.91 57.038 0.906 8.06 4.75 8.32
10/27/2020 11:15:00 PM 13.9 57.02 0.905 8.05 4.55 8.28
10/27/2020 11:30:00 PM 13.89 57.002 0.905 8.05 5.59 8.22
10/27/2020 11:45:00 PM 13.88 56.984 0.904 8.04 4.8 8.15
10/28/2020 12:00:00 AM 13.87 56.966 0.903 8.03 4.34 8.14
10/28/2020 12:15:00 AM 13.86 56.948 0.903 8.03 4.24 8.12
10/28/2020 12:30:00 AM 13.85 56.93 0.902 8.02 4.51 8.05
10/28/2020 12:45:00 AM 13.83 56.894 0.901 8.01 3.65 7.97
10/28/2020 1:00:00 AM 13.82 56.876 0.9 8.01 4.12 7.97
10/28/2020 1:15:00 AM 13.81 56.858 0.9 8 3.95 7.89
10/28/2020 1:30:00 AM 13.8 56.84 0.899 7.99 4.03 7.84
10/28/2020 1:45:00 AM 13.78 56.804 0.899 7.99 3.98 7.84
10/28/2020 2:00:00 AM 13.77 56.786 0.898 7.98 3.94 7.84
10/28/2020 2:15:00 AM 13.76 56.768 0.898 7.98 4.05 7.87
10/28/2020 2:30:00 AM 13.75 56.75 0.897 7.97 4.29 7.83
10/28/2020 2:45:00 AM 13.73 56.714 0.897 7.97 4.51 7.78
10/28/2020 3:00:00 AM 13.72 56.696 0.896 7.96 4.29 7.72
10/28/2020 3:15:00 AM 13.71 56.678 0.896 7.95 4.6 7.72
10/28/2020 3:30:00 AM 13.7 56.66 0.895 7.95 4.76 7.71
10/28/2020 3:45:00 AM 13.69 56.642 0.895 7.95 4.8 7.75
10/28/2020 4:00:00 AM 13.67 56.606 0.895 7.94 4.61 7.73
10/28/2020 4:15:00 AM 13.66 56.588 0.894 7.94 4.25 7.67
10/28/2020 4:30:00 AM 13.65 56.57 0.894 7.93 5.7 7.67
10/28/2020 4:45:00 AM 13.64 56.552 0.894 7.93 8.01 7.64
10/28/2020 5:00:00 AM 13.64 56.552 0.894 7.92 4.24 7.54
10/28/2020 5:15:00 AM 13.62 56.516 0.893 7.92 4.14 7.65
10/28/2020 5:30:00 AM 13.61 56.498 0.893 7.92 4.33 7.68
10/28/2020 5:45:00 AM 13.61 56.498 0.892 7.92 4.84 7.67
10/28/2020 6:00:00 AM 13.6 56.48 0.892 7.91 4.14 7.55
10/28/2020 6:15:00 AM 13.59 56.462 0.892 7.91 4.16 7.65
10/28/2020 6:30:00 AM 13.58 56.444 0.892 7.91 4.14 7.6
10/28/2020 6:45:00 AM 13.57 56.426 0.891 7.91 4.14 7.62
10/28/2020 7:00:00 AM 13.56 56.408 0.892 7.9 4.46 7.57
10/28/2020 7:15:00 AM 13.55 56.39 0.892 7.9 4.04 7.52
10/28/2020 7:30:00 AM 13.54 56.372 0.891 7.89 4.13 7.54
10/28/2020 7:45:00 AM 13.53 56.354 0.891 7.9 4.12 7.64
10/28/2020 8:00:00 AM 13.52 56.336 0.89 7.89 4.09 7.6
10/28/2020 8:15:00 AM 13.52 56.336 0.89 7.9 4.18 7.68
10/28/2020 8:30:00 AM 13.52 56.336 0.889 7.89 5.43 7.68
10/28/2020 8:45:00 AM 13.51 56.318 0.889 7.89 5.29 7.72
10/28/2020 9:00:00 AM 13.51 56.318 0.889 7.89 4.49 7.72
10/28/2020 9:15:00 AM 13.5 56.3 0.888 7.89 4.75 7.7
10/28/2020 9:30:00 AM 13.5 56.3 0.888 7.9 5.05 7.73
10/28/2020 9:45:00 AM 13.5 56.3 0.888 7.9 4.38 7.72
10/28/2020 10:00:00 AM 13.52 56.336 0.887 7.9 4.3 7.85
10/28/2020 10:15:00 AM 13.54 56.372 0.886 7.9 4.56 8.04
10/28/2020 10:30:00 AM 13.55 56.39 0.886 7.91 4.29 8.16
10/28/2020 10:45:00 AM 13.57 56.426 0.886 7.92 4.4 8.39
10/28/2020 11:00:00 AM 13.58 56.444 0.885 7.93 5.02 8.45
10/28/2020 11:15:00 AM 13.59 56.462 0.885 7.93 4.13 8.42
10/28/2020 11:30:00 AM 13.62 56.516 0.884 7.93 4.3 8.6
10/28/2020 11:45:00 AM 13.64 56.552 0.884 7.94 4.19 8.73
10/28/2020 12:00:00 PM 13.65 56.57 0.883 7.95 4.59 8.83
10/28/2020 12:15:00 PM 13.66 56.588 0.883 7.96 4.16 8.91
10/28/2020 12:30:00 PM 13.68 56.624 0.882 7.96 4.04 8.98
10/28/2020 12:45:00 PM 13.7 56.66 0.882 7.97 5.47 9.1
10/28/2020 1:00:00 PM 13.72 56.696 0.881 7.98 4.4 9.17
10/28/2020 1:15:00 PM 13.73 56.714 0.881 7.99 3.97 9.19
10/28/2020 1:30:00 PM 13.74 56.732 0.88 8 4.75 9.29
10/28/2020 1:45:00 PM 13.76 56.768 0.88 8 4.32 9.29
10/28/2020 2:00:00 PM 13.79 56.822 0.879 8.01 4.1 9.39
10/28/2020 2:15:00 PM 13.81 56.858 0.879 8.01 4.03 9.46
10/28/2020 2:30:00 PM 13.87 56.966 0.878 8.02 4.06 9.69
10/28/2020 2:45:00 PM 13.91 57.038 0.877 8.03 4.27 9.81
10/28/2020 3:00:00 PM 13.98 57.164 0.876 8.04 4.18 10
10/28/2020 3:15:00 PM 14.04 57.272 0.876 8.06 4.09 10.16
10/28/2020 3:30:00 PM 14.05 57.29 0.875 8.06 4.4 10.19
10/28/2020 3:45:00 PM 14.05 57.29 0.875 8.07 4.77 10.14
10/28/2020 4:00:00 PM 14.04 57.272 0.875 8.08 4.25 10.05
10/28/2020 4:15:00 PM 14.04 57.272 0.874 8.08 4.3 9.96
10/28/2020 4:30:00 PM 14.04 57.272 0.874 8.08 5.31 9.93
10/28/2020 4:45:00 PM 14.04 57.272 0.874 8.08 4.89 9.82
10/28/2020 5:00:00 PM 14.05 57.29 0.873 8.09 4.14 9.79
10/28/2020 5:15:00 PM 14.06 57.308 0.872 8.09 4.75 9.8
10/28/2020 5:30:00 PM 14.06 57.308 0.872 8.09 6.13 9.8
10/28/2020 5:45:00 PM 14.06 57.308 0.872 8.09 5.15 9.75
10/28/2020 6:00:00 PM 14.06 57.308 0.871 8.09 4.82 9.62
10/28/2020 6:15:00 PM 14.05 57.29 0.871 8.09 4.45 9.52
10/28/2020 6:30:00 PM 14.04 57.272 0.87 8.09 4.88 9.42
10/28/2020 6:45:00 PM 14.03 57.254 0.87 8.08 5.47 9.31
10/28/2020 7:00:00 PM 14.02 57.236 0.869 8.08 4.87 9.22
10/28/2020 7:15:00 PM 14.01 57.218 0.869 8.08 6.54 9.15
10/28/2020 7:30:00 PM 13.99 57.182 0.868 8.08 4.87 9.05
10/28/2020 7:45:00 PM 13.97 57.146 0.867 8.07 6.13 8.96
10/28/2020 8:00:00 PM 13.96 57.128 0.867 8.07 4.44 8.9
10/28/2020 8:15:00 PM 13.95 57.11 0.866 8.06 4.54 8.81
10/28/2020 8:30:00 PM 13.93 57.074 0.866 8.05 4.61 8.72
10/28/2020 8:45:00 PM 13.92 57.056 0.865 8.05 4.37 8.57
10/28/2020 9:00:00 PM 13.91 57.038 0.864 8.04 4.97 8.58
10/28/2020 9:15:00 PM 13.9 57.02 0.864 8.03 4.68 8.41
10/28/2020 9:30:00 PM 13.89 57.002 0.863 8.03 4.78 8.35
10/28/2020 9:45:00 PM 13.88 56.984 0.862 8.02 4.68 8.35
10/28/2020 10:00:00 PM 13.87 56.966 0.861 8.02 4.66 8.35
10/28/2020 10:15:00 PM 13.86 56.948 0.86 8.01 4.93 8.28
10/28/2020 10:30:00 PM 13.85 56.93 0.859 8.01 4.75 8.23
10/28/2020 10:45:00 PM 13.83 56.894 0.858 8 4.57 8.18
10/28/2020 11:00:00 PM 13.82 56.876 0.858 8 4.75 8.19
10/28/2020 11:15:00 PM 13.8 56.84 0.857 8 4.74 8.12
10/28/2020 11:30:00 PM 13.79 56.822 0.856 7.99 5.01 8.11
10/28/2020 11:45:00 PM 13.78 56.804 0.855 7.99 4.82 8.09
10/29/2020 12:00:00 AM 13.77 56.786 0.854 7.99 4.61 8.06
10/29/2020 12:15:00 AM 13.77 56.786 0.853 7.99 4.79 8.04
10/29/2020 12:30:00 AM 13.76 56.768 0.853 7.98 5.02 8
10/29/2020 12:45:00 AM 13.75 56.75 0.852 7.98 4.79 7.98
10/29/2020 1:00:00 AM 13.74 56.732 0.851 7.98 4.71 7.97
10/29/2020 1:15:00 AM 13.74 56.732 0.851 7.97 5.84 7.97
10/29/2020 1:30:00 AM 13.73 56.714 0.85 7.97 5.13 7.94
10/29/2020 1:45:00 AM 13.73 56.714 0.85 7.97 4.77 7.96
10/29/2020 2:00:00 AM 13.72 56.696 0.849 7.97 5.93 7.93
10/29/2020 2:15:00 AM 13.71 56.678 0.849 7.96 4.99 7.93
10/29/2020 2:30:00 AM 13.71 56.678 0.849 7.96 5.1 7.9
10/29/2020 2:45:00 AM 13.7 56.66 0.848 7.96 4.86 7.88
10/29/2020 3:00:00 AM 13.7 56.66 0.848 7.96 5.12 7.9
10/29/2020 3:15:00 AM 13.69 56.642 0.848 7.95 5.14 7.88
10/29/2020 3:30:00 AM 13.69 56.642 0.847 7.95 5.07 7.87
10/29/2020 3:45:00 AM 13.68 56.624 0.847 7.95 5.34 7.87
10/29/2020 4:00:00 AM 13.67 56.606 0.846 7.95 5.97 7.85
10/29/2020 4:15:00 AM 13.66 56.588 0.844 7.94 5.43 7.85
10/29/2020 4:30:00 AM 13.65 56.57 0.842 7.94 5.2 7.89
10/29/2020 4:45:00 AM 13.65 56.57 0.842 7.94 5.21 7.87
10/29/2020 5:00:00 AM 13.64 56.552 0.842 7.93 6.75 7.84
10/29/2020 5:15:00 AM 13.64 56.552 0.842 7.93 5.29 7.86
10/29/2020 5:30:00 AM 13.63 56.534 0.842 7.93 5.02 7.85
10/29/2020 5:45:00 AM 13.62 56.516 0.841 7.93 4.82 7.84
10/29/2020 6:00:00 AM 13.61 56.498 0.84 7.93 6.65 7.87
10/29/2020 6:15:00 AM 13.6 56.48 0.838 7.93 4.87 7.87
10/29/2020 6:30:00 AM 13.59 56.462 0.837 7.93 5.14 7.88
10/29/2020 6:45:00 AM 13.58 56.444 0.836 7.92 5.54 7.87
10/29/2020 7:00:00 AM 13.57 56.426 0.836 7.92 5.52 7.84
10/29/2020 7:15:00 AM 13.56 56.408 0.837 7.92 5.61 7.83
10/29/2020 7:30:00 AM 13.54 56.372 0.836 7.92 203 7.82
10/29/2020 7:45:00 AM 13.53 56.354 0.835 7.92 6.46 7.83
10/29/2020 8:00:00 AM 13.52 56.336 0.834 7.91 7.65 7.85
10/29/2020 8:15:00 AM 13.5 56.3 0.833 7.91 5.92 7.84
10/29/2020 8:30:00 AM 13.48 56.264 0.831 7.91 6.12 7.87
10/29/2020 8:45:00 AM 13.45 56.21 0.829 7.92 5.73 7.91
10/29/2020 9:00:00 AM 13.43 56.174 0.828 7.92 5.64 7.95
10/29/2020 9:15:00 AM 13.4 56.12 0.824 7.92 5.25 7.99
10/29/2020 9:30:00 AM 13.38 56.084 0.821 7.92 5.84 8.03
10/29/2020 9:45:00 AM 13.37 56.066 0.819 7.92 5.51 8.05
10/29/2020 10:00:00 AM 13.35 56.03 0.817 7.92 5.49 8.08
10/29/2020 10:15:00 AM 13.34 56.012 0.815 7.92 5.85 8.09
10/29/2020 10:30:00 AM 13.32 55.976 0.812 7.92 7.45 8.13
10/29/2020 10:45:00 AM 13.31 55.958 0.811 7.92 6.47 8.16
10/29/2020 11:00:00 AM 13.3 55.94 0.809 7.92 6.35 8.22
10/29/2020 11:15:00 AM 13.28 55.904 0.806 7.93 6.48 8.25
10/29/2020 11:30:00 AM 13.26 55.868 0.801 7.93 6.65 8.28
10/29/2020 11:45:00 AM 13.26 55.868 0.796 7.93 8.15 8.36
10/29/2020 12:00:00 PM 13.22 55.796 0.782 7.93 7.96 8.4
10/29/2020 12:15:00 PM 13.22 55.796 0.779 7.92 8.38 8.43
10/29/2020 12:30:00 PM 13.16 55.688 0.745 7.92 11.75 8.46
10/29/2020 12:45:00 PM 13.07 55.526 0.702 7.9 14.5 8.53
10/29/2020 1:00:00 PM 13.04 55.472 0.681 7.9 18.71 8.62
10/29/2020 1:15:00 PM 13.14 55.652 0.709 7.9 16.34 8.63
10/29/2020 1:30:00 PM 13.14 55.652 0.72 7.9 14.73 8.61
10/29/2020 1:45:00 PM 13.14 55.652 0.705 7.9 19.88 8.58
10/29/2020 2:00:00 PM 13.12 55.616 0.67 7.89 27.66 8.52
10/29/2020 2:15:00 PM 13.16 55.688 0.664 7.88 23.06 8.51
10/29/2020 2:30:00 PM 13.17 55.706 0.655 7.89 29.75 8.51
10/29/2020 2:45:00 PM 13.18 55.724 0.65 7.88 30.71 8.51
10/29/2020 3:00:00 PM 13.2 55.76 0.648 7.88 30.16 8.53
10/29/2020 3:15:00 PM 13.19 55.742 0.635 7.89 39.84 8.54
10/29/2020 3:30:00 PM 13.19 55.742 0.627 7.88 44.51 8.54
10/29/2020 3:45:00 PM 13.18 55.724 0.619 7.88 46.96 8.54
10/29/2020 4:00:00 PM 13.19 55.742 0.613 7.87 48.91 8.56
10/29/2020 4:15:00 PM 13.18 55.724 0.606 7.87 53.24 8.56
10/29/2020 4:30:00 PM 13.19 55.742 0.602 7.86 61.28 8.56
10/29/2020 4:45:00 PM 13.19 55.742 0.6 7.86 56.21 8.56
10/29/2020 5:00:00 PM 13.19 55.742 0.606 7.86 53.5 8.54
10/29/2020 5:15:00 PM 13.2 55.76 0.613 7.86 51.3 8.52
10/29/2020 5:30:00 PM 13.2 55.76 0.616 7.85 51.82 8.54
10/29/2020 5:45:00 PM 13.2 55.76 0.619 7.85 46.65 8.52
10/29/2020 6:00:00 PM 13.19 55.742 0.621 7.85 43.55 8.52
10/29/2020 6:15:00 PM 13.18 55.724 0.622 7.85 45.11 8.53
10/29/2020 6:30:00 PM 13.18 55.724 0.623 7.85 42.43 8.52
10/29/2020 6:45:00 PM 13.17 55.706 0.623 7.85 40.42 8.52
10/29/2020 7:00:00 PM 13.17 55.706 0.624 7.85 37.07 8.51
10/29/2020 7:15:00 PM 13.16 55.688 0.624 7.85 38.5 8.5
10/29/2020 7:30:00 PM 13.14 55.652 0.624 7.84 37.27 8.51
10/29/2020 7:45:00 PM 13.13 55.634 0.624 7.84 36.51 8.5
10/29/2020 8:00:00 PM 13.11 55.598 0.624 7.84 36.74 8.5
10/29/2020 8:15:00 PM 13.08 55.544 0.624 7.84 35.5 8.5
10/29/2020 8:30:00 PM 13.06 55.508 0.626 7.84 39.05 8.5
10/29/2020 8:45:00 PM 13.03 55.454 0.629 7.84 29.87 8.51
10/29/2020 9:00:00 PM 13.01 55.418 0.632 7.83 31.55 8.5
10/29/2020 9:15:00 PM 12.98 55.364 0.633 7.82 31.67 8.5
10/29/2020 9:30:00 PM 12.96 55.328 0.634 7.83 32.07 8.51
10/29/2020 9:45:00 PM 12.93 55.274 0.633 7.83 41.83 8.51
10/29/2020 10:00:00 PM 12.91 55.238 0.632 7.83 32.57 8.49
10/29/2020 10:15:00 PM 12.88 55.184 0.633 7.82 31.71 8.49
10/29/2020 10:30:00 PM 12.86 55.148 0.635 7.82 29.32 8.49
10/29/2020 10:45:00 PM 12.83 55.094 0.638 7.82 37.81 8.5
10/29/2020 11:00:00 PM 12.81 55.058 0.643 7.82 41.83 8.52
10/29/2020 11:15:00 PM 12.8 55.04 0.648 7.82 48.38 8.51
10/29/2020 11:30:00 PM 12.79 55.022 0.653 7.82 43.82 8.51
10/29/2020 11:45:00 PM 12.78 55.004 0.658 7.81 34.85 8.52
10/30/2020 12:00:00 AM 12.77 54.986 0.662 7.81 36.22 8.55
10/30/2020 12:15:00 AM 12.76 54.968 0.665 7.81 32.87 8.56
10/30/2020 12:30:00 AM 12.75 54.95 0.666 7.81 34.73 8.57
10/30/2020 12:45:00 AM 12.74 54.932 0.666 7.81 32.63 8.6
10/30/2020 1:00:00 AM 12.72 54.896 0.663 7.81 32.31 8.61
10/30/2020 1:15:00 AM 12.71 54.878 0.659 7.81 34.67 8.64
10/30/2020 1:30:00 AM 12.69 54.842 0.656 7.82 39.11 8.65
10/30/2020 1:45:00 AM 12.66 54.788 0.652 7.82 37.48 8.67
10/30/2020 2:00:00 AM 12.64 54.752 0.648 7.82 29.95 8.67
10/30/2020 2:15:00 AM 12.62 54.716 0.645 7.81 28.29 8.7
10/30/2020 2:30:00 AM 12.59 54.662 0.643 7.81 32.1 8.71
10/30/2020 2:45:00 AM 12.57 54.626 0.643 7.81 31.58 8.7
10/30/2020 3:00:00 AM 12.54 54.572 0.645 7.81 28.76 8.71
10/30/2020 3:15:00 AM 12.52 54.536 0.648 7.81 31.38 8.72
10/30/2020 3:30:00 AM 12.48 54.464 0.651 7.81 29.38 8.75
10/30/2020 3:45:00 AM 12.45 54.41 0.657 7.82 26.79 8.75
10/30/2020 4:00:00 AM 12.43 54.374 0.665 7.82 29.74 8.75
10/30/2020 4:15:00 AM 12.41 54.338 0.674 7.82 32.87 8.77
10/30/2020 4:30:00 AM 12.38 54.284 0.683 7.82 30.2 8.77
10/30/2020 4:45:00 AM 12.36 54.248 0.691 7.82 26.46 8.78
10/30/2020 5:00:00 AM 12.34 54.212 0.701 7.82 28.64 8.79
10/30/2020 5:15:00 AM 12.31 54.158 0.71 7.82 28.99 8.79
10/30/2020 5:30:00 AM 12.29 54.122 0.719 7.83 28.38 8.81
10/30/2020 5:45:00 AM 12.27 54.086 0.727 7.83 25.62 8.81
10/30/2020 6:00:00 AM 12.25 54.05 0.734 7.83 25.11 8.83
10/30/2020 6:15:00 AM 12.22 53.996 0.739 7.84 29.67 8.82
10/30/2020 6:30:00 AM 12.19 53.942 0.743 7.84 24.26 8.84
10/30/2020 6:45:00 AM 12.17 53.906 0.745 7.84 24.18 8.84
10/30/2020 7:00:00 AM 12.15 53.87 0.747 7.85 25.15 8.84
10/30/2020 7:15:00 AM 12.12 53.816 0.745 7.85 29.78 8.83
10/30/2020 7:30:00 AM 12.1 53.78 0.742 7.85 23.27 8.84
10/30/2020 7:45:00 AM 12.07 53.726 0.739 7.84 24.08 8.84
10/30/2020 8:00:00 AM 12.05 53.69 0.733 7.84 24.33 8.84
10/30/2020 8:15:00 AM 12.02 53.636 0.727 7.84 23.7 8.86
10/30/2020 8:30:00 AM 12 53.6 0.721 7.84 23.65 8.87
10/30/2020 8:45:00 AM 11.98 53.564 0.714 7.84 25.18 8.87
10/30/2020 9:00:00 AM 11.95 53.51 0.707 7.84 24.53 8.88
10/30/2020 9:15:00 AM 11.92 53.456 0.701 7.84 49.57 8.91
10/30/2020 9:30:00 AM 11.91 53.438 0.696 7.83 24.06 8.93
10/30/2020 9:45:00 AM 11.9 53.42 0.691 7.83 24.88 8.98
10/30/2020 10:00:00 AM 11.9 53.42 0.687 7.83 24.95 9
10/30/2020 10:15:00 AM 11.87 53.366 0.684 7.83 22.87 9.01
10/30/2020 10:30:00 AM 11.87 53.366 0.681 7.83 24.73 9.02
10/30/2020 10:45:00 AM 11.86 53.348 0.68 7.82 29.66 9.07
10/30/2020 11:00:00 AM 11.87 53.366 0.678 7.82 24.2 9.11
10/30/2020 11:15:00 AM 11.87 53.366 0.678 7.82 23.91 9.15
10/30/2020 11:30:00 AM 11.87 53.366 0.677 7.82 24.18 9.19
10/30/2020 11:45:00 AM 11.88 53.384 0.678 7.82 23.8 9.24
10/30/2020 12:00:00 PM 11.89 53.402 0.678 7.82 24.92 9.27
10/30/2020 12:15:00 PM 11.9 53.42 0.68 7.82 23.62 9.29
10/30/2020 12:30:00 PM 11.91 53.438 0.681 7.82 22.03 9.35
10/30/2020 12:45:00 PM 11.95 53.51 0.683 7.82 23.12 9.37
10/30/2020 1:00:00 PM 11.98 53.564 0.684 7.83 30.08 9.42
10/30/2020 1:15:00 PM 11.98 53.564 0.686 7.83 24.17 9.45
10/30/2020 1:30:00 PM 11.97 53.546 0.688 7.83 22.5 9.44
10/30/2020 1:45:00 PM 11.97 53.546 0.69 7.83 24.15 9.46
10/30/2020 2:00:00 PM 11.97 53.546 0.691 7.83 22.37 9.44
10/30/2020 2:15:00 PM 11.98 53.564 0.692 7.84 23.74 9.48
10/30/2020 2:30:00 PM 11.97 53.546 0.693 7.84 22.57 9.49
10/30/2020 2:45:00 PM 11.96 53.528 0.694 7.84 22.67 9.45
10/30/2020 3:00:00 PM 11.95 53.51 0.694 7.84 20.99 9.46
10/30/2020 3:15:00 PM 11.95 53.51 0.694 7.84 23.18 9.44
10/30/2020 3:30:00 PM 11.97 53.546 0.694 7.84 23.55 9.44
10/30/2020 3:45:00 PM 11.95 53.51 0.695 7.84 26.59 9.48
10/30/2020 4:00:00 PM 11.95 53.51 0.695 7.84 23.6 9.42
10/30/2020 4:15:00 PM 11.96 53.528 0.695 7.84 23.96 9.44
10/30/2020 4:30:00 PM 11.93 53.474 0.695 7.84 23.94 9.47
10/30/2020 4:45:00 PM 11.92 53.456 0.695 7.84 24.93 9.41
10/30/2020 5:00:00 PM 11.89 53.402 0.695 7.84 25.47 9.39
10/30/2020 5:15:00 PM 11.88 53.384 0.694 7.83 25.22 9.36
10/30/2020 5:30:00 PM 11.84 53.312 0.693 7.83 27.69 9.34
10/30/2020 5:45:00 PM 11.82 53.276 0.692 7.83 24.41 9.29
10/30/2020 6:00:00 PM 11.8 53.24 0.691 7.83 26.47 9.25
10/30/2020 6:15:00 PM 11.77 53.186 0.689 7.83 25.9 9.22
10/30/2020 6:30:00 PM 11.74 53.132 0.687 7.82 26.9 9.19
10/30/2020 6:45:00 PM 11.73 53.114 0.686 7.82 27.63 9.17
10/30/2020 7:00:00 PM 11.71 53.078 0.684 7.82 28.5 9.15
10/30/2020 7:15:00 PM 11.69 53.042 0.682 7.8 28.77 9.12
10/30/2020 7:30:00 PM 11.67 53.006 0.68 7.79 32.82 9.09
10/30/2020 7:45:00 PM 11.65 52.97 0.678 7.79 28.34 9.09
10/30/2020 8:00:00 PM 11.62 52.916 0.676 7.79 29.03 9.07
10/30/2020 8:15:00 PM 11.6 52.88 0.674 7.78 27.31 9.05
10/30/2020 8:30:00 PM 11.57 52.826 0.672 7.78 27.81 9.03
10/30/2020 8:45:00 PM 11.54 52.772 0.67 7.78 28.66 9
10/30/2020 9:00:00 PM 11.49 52.682 0.668 7.78 28.05 9
10/30/2020 9:15:00 PM 11.44 52.592 0.666 7.78 28.75 9
10/30/2020 9:30:00 PM 11.41 52.538 0.664 7.77 27.45 9
10/30/2020 9:45:00 PM 11.39 52.502 0.663 7.77 31.03 8.98
10/30/2020 10:00:00 PM 11.36 52.448 0.661 7.76 27.84 8.99
10/30/2020 10:15:00 PM 11.33 52.394 0.66 7.76 29.88 8.97
10/30/2020 10:30:00 PM 11.3 52.34 0.659 7.75 28.29 9
10/30/2020 10:45:00 PM 11.26 52.268 0.658 7.75 28.77 8.98
10/30/2020 11:00:00 PM 11.21 52.178 0.657 7.75 28.55 8.98
10/30/2020 11:15:00 PM 11.17 52.106 0.656 7.75 24.9 8.97
10/30/2020 11:30:00 PM 11.14 52.052 0.655 7.75 25.09 8.99
10/30/2020 11:45:00 PM 11.11 51.998 0.654 7.75 23.9 9.02
10/31/2020 12:00:00 AM 11.08 51.944 0.653 7.75 24.45 9.02
10/31/2020 12:15:00 AM 11.03 51.854 0.652 7.75 43.12 9.02
10/31/2020 12:30:00 AM 10.97 51.746 0.651 7.75 24.86 9.02
10/31/2020 12:45:00 AM 10.93 51.674 0.651 7.75 24.32 9.01
10/31/2020 1:00:00 AM 10.91 51.638 0.649 7.75 24.61 9.04
10/31/2020 1:15:00 AM 10.89 51.602 0.649 7.75 22.67 9.02
10/31/2020 1:30:00 AM 10.86 51.548 0.647 7.74 54.37 9.04
10/31/2020 1:45:00 AM 10.84 51.512 0.646 7.75 23.9 9.06
10/31/2020 2:00:00 AM 10.81 51.458 0.645 7.75 24.35 9.05
10/31/2020 2:15:00 AM 10.78 51.404 0.643 7.74 21.74 9.06
10/31/2020 2:30:00 AM 10.76 51.368 0.642 7.74 21.64 9.1
10/31/2020 2:45:00 AM 10.74 51.332 0.637 7.74 22.83 9.08
10/31/2020 3:00:00 AM 10.71 51.278 0.639 7.75 21.72 9.11
10/31/2020 3:15:00 AM 10.69 51.242 0.637 7.75 22.65 9.11
10/31/2020 3:30:00 AM 10.67 51.206 0.636 7.74 22.61 9.16
10/31/2020 3:45:00 AM 10.65 51.17 0.634 7.75 22.44 9.14
10/31/2020 4:00:00 AM 10.63 51.134 0.633 7.74 24.19 9.14
10/31/2020 4:15:00 AM 10.61 51.098 0.631 7.75 23.54 9.14
10/31/2020 4:30:00 AM 10.59 51.062 0.63 7.75 25.63 9.18
10/31/2020 4:45:00 AM 10.56 51.008 0.628 7.75 21.85 9.16
10/31/2020 5:00:00 AM 10.52 50.936 0.625 7.75 21.46 9.16
10/31/2020 5:15:00 AM 10.48 50.864 0.623 7.75 21.37 9.21
10/31/2020 5:30:00 AM 10.45 50.81 0.625 7.75 20.2 9.2
10/31/2020 5:45:00 AM 10.4 50.72 0.624 7.75 21.78 9.23
10/31/2020 6:00:00 AM 10.36 50.648 0.623 7.75 20.25 9.24
10/31/2020 6:15:00 AM 10.32 50.576 0.622 7.75 20.61 9.24
10/31/2020 6:30:00 AM 10.27 50.486 0.621 7.76 21.64 9.26
10/31/2020 6:45:00 AM 10.23 50.414 0.62 7.76 20.79 9.27
10/31/2020 7:00:00 AM 10.18 50.324 0.62 7.76 20.21 9.29
10/31/2020 7:15:00 AM 10.14 50.252 0.619 7.76 20.66 9.28
10/31/2020 7:30:00 AM 10.09 50.162 0.618 7.76 21.85 9.32
10/31/2020 7:45:00 AM 10.05 50.09 0.618 7.76 20.71 9.32
10/31/2020 8:00:00 AM 10 50 0.617 7.76 21.69 9.35
10/31/2020 8:15:00 AM 9.96 49.928 0.617 7.76 20.45 9.38
10/31/2020 8:30:00 AM 9.92 49.856 0.616 7.76 19.46 9.4
10/31/2020 8:45:00 AM 9.89 49.802 0.616 7.77 20.15 9.43
10/31/2020 9:00:00 AM 9.87 49.766 0.615 7.78 19.92 9.46
10/31/2020 9:15:00 AM 9.86 49.748 0.615 7.78 20.71 9.52
10/31/2020 9:30:00 AM 9.89 49.802 0.614 7.79 19.29 9.57
10/31/2020 9:45:00 AM 9.94 49.892 0.614 7.8 18.67 9.67
10/31/2020 10:00:00 AM 9.98 49.964 0.614 7.81 18.39 9.77
10/31/2020 10:15:00 AM 10 50 0.613 7.81 20.17 9.81
10/31/2020 10:30:00 AM 10.02 50.036 0.614 7.82 17.56 9.88
10/31/2020 10:45:00 AM 10.07 50.126 0.614 7.83 18.02 9.98
10/31/2020 11:00:00 AM 10.13 50.234 0.614 7.82 17.98 10.1
10/31/2020 11:15:00 AM 10.2 50.36 0.614 7.83 19.99 10.2
10/31/2020 11:30:00 AM 10.26 50.468 0.614 7.83 17.68 10.28
10/31/2020 11:45:00 AM 10.28 50.504 0.614 7.84 17.59 10.33
10/31/2020 12:00:00 PM 10.28 50.504 0.615 7.87 17.52 10.39
10/31/2020 12:15:00 PM 10.29 50.522 0.615 7.88 17.58 10.41
10/31/2020 12:30:00 PM 10.31 50.558 0.616 7.88 17.74 10.48
10/31/2020 12:45:00 PM 10.33 50.594 0.616 7.89 18.35 10.51
10/31/2020 1:00:00 PM 10.35 50.63 0.617 7.89 17.24 10.57
10/31/2020 1:15:00 PM 10.39 50.702 0.618 7.89 20.7 10.62
10/31/2020 1:30:00 PM 10.42 50.756 0.618 7.9 19.04 10.68
10/31/2020 1:45:00 PM 10.44 50.792 0.619 7.91 17.63 10.73
10/31/2020 2:00:00 PM 10.47 50.846 0.62 7.92 17.03 10.76
10/31/2020 2:15:00 PM 10.51 50.918 0.621 7.93 17.39 10.8
10/31/2020 2:30:00 PM 10.56 51.008 0.622 7.93 16.38 10.85
10/31/2020 2:45:00 PM 10.59 51.062 0.623 7.94 16.84 10.9
10/31/2020 3:00:00 PM 10.62 51.116 0.624 7.94 16.9 10.93
10/31/2020 3:15:00 PM 10.63 51.134 0.625 7.95 17.52 10.96
10/31/2020 3:30:00 PM 10.64 51.152 0.626 7.96 16.49 10.88
10/31/2020 3:45:00 PM 10.65 51.17 0.627 7.96 16.83 10.88
10/31/2020 4:00:00 PM 10.65 51.17 0.628 7.97 16.8 10.91
10/31/2020 4:15:00 PM 10.66 51.188 0.629 7.97 16.72 10.86
10/31/2020 4:30:00 PM 10.66 51.188 0.631 7.97 17.26 10.81
10/31/2020 4:45:00 PM 10.67 51.206 0.632 7.97 18.23 10.8
10/31/2020 5:00:00 PM 10.67 51.206 0.633 7.97 21.72 10.77
10/31/2020 5:15:00 PM 10.66 51.188 0.634 7.97 19.41 10.72
10/31/2020 5:30:00 PM 10.65 51.17 0.636 7.97 18.93 10.65
10/31/2020 5:45:00 PM 10.63 51.134 0.637 7.97 16.43 10.6
10/31/2020 6:00:00 PM 10.61 51.098 0.638 7.97 17.29 10.51
10/31/2020 6:15:00 PM 10.57 51.026 0.639 7.97 16.68 10.45
10/31/2020 6:30:00 PM 10.55 50.99 0.641 7.97 16.65 10.39
10/31/2020 6:45:00 PM 10.52 50.936 0.643 7.97 16.5 10.33
10/31/2020 7:00:00 PM 10.51 50.918 0.644 7.96 16.16 10.27
10/31/2020 7:15:00 PM 10.49 50.882 0.646 7.96 16.34 10.2
10/31/2020 7:30:00 PM 10.47 50.846 0.647 7.96 16.68 10.16
10/31/2020 7:45:00 PM 10.44 50.792 0.649 7.96 15.9 10.1
10/31/2020 8:00:00 PM 10.42 50.756 0.65 7.95 17.09 10.03
10/31/2020 8:15:00 PM 10.41 50.738 0.652 7.95 15.95 9.98
10/31/2020 8:30:00 PM 10.39 50.702 0.653 7.94 15.91 9.94
10/31/2020 8:45:00 PM 10.37 50.666 0.655 7.94 16.17 9.91
10/31/2020 9:00:00 PM 10.35 50.63 0.657 7.94 17.46 9.83
10/31/2020 9:15:00 PM 10.32 50.576 0.659 7.93 16.59 9.82
10/31/2020 9:30:00 PM 10.29 50.522 0.66 7.93 16.29 9.79
10/31/2020 9:45:00 PM 10.26 50.468 0.662 7.93 17.67 9.74
10/31/2020 10:00:00 PM 10.23 50.414 0.664 7.93 16.6 9.72
10/31/2020 10:15:00 PM 10.18 50.324 0.665 7.92 18.58 9.69
10/31/2020 10:30:00 PM 10.14 50.252 0.667 7.92 16.12 9.66
10/31/2020 10:45:00 PM 10.09 50.162 0.669 7.92 16.75 9.64
10/31/2020 11:00:00 PM 10.04 50.072 0.671 7.91 16.4 9.64
10/31/2020 11:15:00 PM 10 50 0.672 7.91 16.23 9.6
10/31/2020 11:30:00 PM 9.96 49.928 0.674 7.91 16.72 9.61
10/31/2020 11:45:00 PM 9.93 49.874 0.676 7.91 16.43 9.59
11/1/2020 12:00:00 AM 9.9 49.82 0.678 7.9 16.08 9.57
11/1/2020 12:15:00 AM 9.86 49.748 0.68 7.9 15.79 9.57
11/1/2020 12:30:00 AM 9.81 49.658 0.682 7.9 16.52 9.56
11/1/2020 12:45:00 AM 9.78 49.604 0.684 7.9 16.43 9.56
11/1/2020 1:00:00 AM 9.76 49.568 0.685 7.9 16.18 9.56
11/1/2020 1:15:00 AM 9.73 49.514 0.687 7.9 16.53 9.55
11/1/2020 1:30:00 AM 9.71 49.478 0.689 7.89 16.78 9.56
11/1/2020 1:45:00 AM 9.68 49.424 0.691 7.89 16.54 9.53
11/1/2020 2:00:00 AM 9.66 49.388 0.693 7.89 15.59 9.54
11/1/2020 2:15:00 AM 9.64 49.352 0.695 7.89 15.99 9.54
11/1/2020 2:30:00 AM 9.62 49.316 0.696 7.89 16.39 9.53
11/1/2020 2:45:00 AM 9.6 49.28 0.698 7.89 16.34 9.54
11/1/2020 3:00:00 AM 9.59 49.262 0.7 7.89 16.36 9.54
11/1/2020 3:15:00 AM 9.58 49.244 0.701 7.89 16.58 9.54
11/1/2020 3:30:00 AM 9.54 49.172 0.709 7.89 17.4 9.57
11/1/2020 3:45:00 AM 9.53 49.154 0.711 7.89 16.46 9.54
11/1/2020 4:00:00 AM 9.52 49.136 0.712 7.89 16.49 9.57
11/1/2020 4:15:00 AM 9.52 49.136 0.714 7.89 16.19 9.57
11/1/2020 4:30:00 AM 9.51 49.118 0.715 7.89 15.85 9.56
11/1/2020 4:45:00 AM 9.51 49.118 0.716 7.89 16.47 9.58
11/1/2020 5:00:00 AM 9.5 49.1 0.717 7.89 16.5 9.57
11/1/2020 5:15:00 AM 9.5 49.1 0.719 7.89 15.89 9.57
11/1/2020 5:30:00 AM 9.5 49.1 0.72 7.9 16.16 9.6
11/1/2020 5:45:00 AM 9.49 49.082 0.721 7.9 16.29 9.6
11/1/2020 6:00:00 AM 9.5 49.1 0.722 7.89 16.62 9.58
11/1/2020 6:15:00 AM 9.49 49.082 0.723 7.9 16.46 9.58
11/1/2020 6:30:00 AM 9.49 49.082 0.724 7.9 16.75 9.62
11/1/2020 6:45:00 AM 9.49 49.082 0.725 7.9 16.85 9.62
11/1/2020 7:00:00 AM 9.5 49.1 0.726 7.9 16.41 9.61
11/1/2020 7:15:00 AM 9.51 49.118 0.727 7.9 15.85 9.64
11/1/2020 7:30:00 AM 9.52 49.136 0.727 7.9 16.39 9.68
11/1/2020 7:45:00 AM 9.53 49.154 0.728 7.91 15.98 9.72
11/1/2020 8:00:00 AM 9.55 49.19 0.729 7.91 15.59 9.78
11/1/2020 8:15:00 AM 9.58 49.244 0.729 7.91 18.94 9.84
11/1/2020 8:30:00 AM 9.62 49.316 0.73 7.92 18.88 9.88
11/1/2020 8:45:00 AM 9.66 49.388 0.731 7.92 15.45 9.98
11/1/2020 9:00:00 AM 9.71 49.478 0.731 7.93 16.35 10.06
11/1/2020 9:15:00 AM 9.78 49.604 0.732 7.93 15.15 10.14
11/1/2020 9:30:00 AM 9.84 49.712 0.732 7.94 15.64 10.22
11/1/2020 9:45:00 AM 9.89 49.802 0.732 7.95 15.4 10.28
11/1/2020 10:00:00 AM 9.93 49.874 0.733 7.95 17.33 10.31
11/1/2020 10:15:00 AM 9.97 49.946 0.734 7.96 15.47 10.33
11/1/2020 10:30:00 AM 9.98 49.964 0.734 7.96 15.78 10.34
11/1/2020 10:45:00 AM 10 50 0.735 7.97 15.15 10.3
11/1/2020 11:00:00 AM 10.02 50.036 0.735 7.97 15.3 10.3
11/1/2020 11:15:00 AM 10.05 50.09 0.734 7.97 15.29 10.28
11/1/2020 11:30:00 AM 10.08 50.144 0.734 7.97 15.44 10.3
11/1/2020 11:45:00 AM 10.11 50.198 0.734 7.98 15.8 10.33
11/1/2020 12:00:00 PM 10.14 50.252 0.734 7.98 15.4 10.3
11/1/2020 12:15:00 PM 10.17 50.306 0.734 7.98 21.02 10.33
11/1/2020 12:30:00 PM 10.2 50.36 0.734 7.99 16.05 10.33
11/1/2020 12:45:00 PM 10.23 50.414 0.735 7.99 15.48 10.32
11/1/2020 1:00:00 PM 10.26 50.468 0.735 7.99 16.58 10.3
11/1/2020 1:15:00 PM 10.29 50.522 0.735 7.99 16.08 10.3
11/1/2020 1:30:00 PM 10.31 50.558 0.736 8 14.99 10.31
11/1/2020 1:45:00 PM 10.36 50.648 0.736 8 16.56 10.29
11/1/2020 2:00:00 PM 10.42 50.756 0.737 8 16.51 10.31
11/1/2020 2:15:00 PM 10.46 50.828 0.737 8.01 15.83 10.38
11/1/2020 2:30:00 PM 10.49 50.882 0.737 8.01 18.64 10.38
11/1/2020 2:45:00 PM 10.54 50.972 0.738 8.02 17.47 10.36
11/1/2020 3:00:00 PM 10.59 51.062 0.739 8.02 18.27 10.4
11/1/2020 3:15:00 PM 10.65 51.17 0.739 8.02 16.4 10.45
11/1/2020 3:30:00 PM 10.69 51.242 0.74 8.02 16.19 10.47
11/1/2020 3:45:00 PM 10.71 51.278 0.74 8.02 15.97 10.41
11/1/2020 4:00:00 PM 10.73 51.314 0.741 8.03 16.17 10.36
11/1/2020 4:15:00 PM 10.75 51.35 0.737 8.03 18.3 10.27
11/1/2020 4:30:00 PM 10.77 51.386 0.736 8.03 17.27 10.2
11/1/2020 4:45:00 PM 10.78 51.404 0.737 8.03 16.11 10.16
11/1/2020 5:00:00 PM 10.8 51.44 0.739 8.03 17.6 10.12
11/1/2020 5:15:00 PM 10.81 51.458 0.74 8.03 18.3 10.08
11/1/2020 5:30:00 PM 10.82 51.476 0.74 8.03 16.16 10
11/1/2020 5:45:00 PM 10.83 51.494 0.741 8.03 16.41 9.97
11/1/2020 6:00:00 PM 10.83 51.494 0.741 8.03 15.9 9.91
11/1/2020 6:15:00 PM 10.82 51.476 0.742 8.02 15.89 9.85
11/1/2020 6:30:00 PM 10.79 51.422 0.742 8.02 15.38 9.76
11/1/2020 6:45:00 PM 10.77 51.386 0.742 8.02 15.82 9.71
11/1/2020 7:00:00 PM 10.74 51.332 0.743 8.01 16.17 9.63
11/1/2020 7:15:00 PM 10.71 51.278 0.744 8.01 17.37 9.61
11/1/2020 7:30:00 PM 10.68 51.224 0.745 8 19.19 9.58
11/1/2020 7:45:00 PM 10.65 51.17 0.746 8 18.66 9.5
11/1/2020 8:00:00 PM 10.61 51.098 0.746 8 16.86 9.49
11/1/2020 8:15:00 PM 10.55 50.99 0.748 8 20.73 9.48
11/1/2020 8:30:00 PM 10.51 50.918 0.748 7.99 16.55 9.45
11/1/2020 8:45:00 PM 10.48 50.864 0.749 7.99 17.89 9.45
11/1/2020 9:00:00 PM 10.43 50.774 0.75 7.99 17.09 9.44
11/1/2020 9:15:00 PM 10.36 50.648 0.75 7.99 17.3 9.39
11/1/2020 9:30:00 PM 10.32 50.576 0.75 7.98 18.49 9.41
11/1/2020 9:45:00 PM 10.26 50.468 0.75 7.98 16.91 9.38
11/1/2020 10:00:00 PM 10.21 50.378 0.751 7.98 17.36 9.33
11/1/2020 10:15:00 PM 10.17 50.306 0.752 7.97 18.66 9.34
11/1/2020 10:30:00 PM 10.12 50.216 0.753 7.97 17.93 9.34
11/1/2020 10:45:00 PM 10.07 50.126 0.753 7.97 19.12 9.38
11/1/2020 11:00:00 PM 9.99 49.982 0.753 7.96 19.06 9.35
11/1/2020 11:15:00 PM 9.92 49.856 0.753 7.96 19.01 9.37
11/1/2020 11:30:00 PM 9.85 49.73 0.752 7.96 20.74 9.39
11/1/2020 11:45:00 PM 9.77 49.586 0.751 7.96 19.67 9.41
11/2/2020 12:00:00 AM 9.68 49.424 0.75 7.96 18.7 9.41
11/2/2020 12:15:00 AM 9.61 49.298 0.749 7.96 18.62 9.4
11/2/2020 12:30:00 AM 9.53 49.154 0.748 7.96 18.51 9.43
11/2/2020 12:45:00 AM 9.46 49.028 0.748 7.96 19.54 9.42
11/2/2020 1:00:00 AM 9.39 48.902 0.747 7.96 19.3 9.46
11/2/2020 1:15:00 AM 9.33 48.794 0.747 7.96 21.74 9.47
11/2/2020 1:30:00 AM 9.27 48.686 0.747 7.96 21.07 9.46
11/2/2020 1:45:00 AM 9.2 48.56 0.748 7.96 19.51 9.49
11/2/2020 2:00:00 AM 9.12 48.416 0.749 7.96 18.25 9.52
11/2/2020 2:15:00 AM 9.04 48.272 0.749 7.96 19.38 9.54
11/2/2020 2:30:00 AM 8.99 48.182 0.75 7.96 18.59 9.56
11/2/2020 2:45:00 AM 8.94 48.092 0.751 7.96 19.82 9.57
11/2/2020 3:00:00 AM 8.88 47.984 0.751 7.96 18.28 9.63
11/2/2020 3:15:00 AM 8.84 47.912 0.752 7.96 18.2 9.64
11/2/2020 3:30:00 AM 8.78 47.804 0.752 7.96 15.84 9.64
11/2/2020 3:45:00 AM 8.74 47.732 0.752 7.96 19.55 9.66
11/2/2020 4:00:00 AM 8.7 47.66 0.752 7.97 17.91 9.68
11/2/2020 4:15:00 AM 8.66 47.588 0.752 7.97 18.07 9.7
11/2/2020 4:30:00 AM 8.62 47.516 0.753 7.97 20.11 9.71
11/2/2020 4:45:00 AM 8.59 47.462 0.753 7.97 19.15 9.73
11/2/2020 5:00:00 AM 8.54 47.372 0.753 7.97 17.13 9.76
11/2/2020 5:15:00 AM 8.5 47.3 0.754 7.97 18 9.76
11/2/2020 5:30:00 AM 8.46 47.228 0.754 7.97 18.37 9.78
11/2/2020 5:45:00 AM 8.41 47.138 0.755 7.97 17.6 9.79
11/2/2020 6:00:00 AM 8.35 47.03 0.756 7.97 15.61 9.8
11/2/2020 6:15:00 AM 8.31 46.958 0.757 7.97 22.19 9.84
11/2/2020 6:30:00 AM 8.26 46.868 0.758 7.97 17.42 9.84
11/2/2020 6:45:00 AM 8.23 46.814 0.759 7.97 18.64 9.84
11/2/2020 7:00:00 AM 8.2 46.76 0.76 7.98 17.21 9.89
11/2/2020 7:15:00 AM 8.17 46.706 0.761 7.98 15.99 9.91
11/2/2020 7:30:00 AM 8.15 46.67 0.761 7.98 16.31 9.94
11/2/2020 7:45:00 AM 8.15 46.67 0.761 7.98 15.73 10.02
11/2/2020 8:00:00 AM 8.15 46.67 0.762 7.98 15.99 10.07
11/2/2020 8:15:00 AM 8.14 46.652 0.763 7.98 24.07 10.15
11/2/2020 8:30:00 AM 8.14 46.652 0.763 7.98 17.95 10.21
11/2/2020 8:45:00 AM 8.12 46.616 0.764 7.98 18.54 10.29
11/2/2020 9:00:00 AM 8.09 46.562 0.764 7.99 18.23 10.35
11/2/2020 9:15:00 AM 8.12 46.616 0.765 7.99 17.54 10.42
11/2/2020 9:30:00 AM 8.16 46.688 0.765 7.99 16.97 10.55
11/2/2020 9:45:00 AM 8.24 46.832 0.766 8 17.08 10.65
11/2/2020 10:00:00 AM 8.31 46.958 0.766 8.01 17.04 10.77
11/2/2020 10:15:00 AM 8.41 47.138 0.767 8.01 17.9 10.85
11/2/2020 10:30:00 AM 8.47 47.246 0.768 8.02 17.06 10.92
11/2/2020 10:45:00 AM 8.55 47.39 0.769 8.03 18.17 10.99
11/2/2020 11:00:00 AM 8.71 47.678 0.769 8.03 15.24 11.1
11/2/2020 11:15:00 AM 8.82 47.876 0.77 8.04 17.58 11.21
11/2/2020 11:30:00 AM 8.92 48.056 0.771 8.04 17.03 11.29
11/2/2020 11:45:00 AM 8.96 48.128 0.771 8.05 16.82 11.33
11/2/2020 12:00:00 PM 9 48.2 0.772 8.06 16.47 11.39
11/2/2020 12:15:00 PM 9.04 48.272 0.773 8.06 15.42 11.44
11/2/2020 12:30:00 PM 9.08 48.344 0.773 8.07 15.72 11.49
11/2/2020 12:45:00 PM 9.12 48.416 0.774 8.07 15.98 11.49
11/2/2020 1:00:00 PM 9.16 48.488 0.774 8.08 15.63 11.56
11/2/2020 1:15:00 PM 9.22 48.596 0.775 8.08 17.62 11.53
11/2/2020 1:30:00 PM 9.26 48.668 0.775 8.09 30.2 11.59
11/2/2020 1:45:00 PM 9.28 48.704 0.775 8.1 17.53 11.58
11/2/2020 2:00:00 PM 9.3 48.74 0.776 8.1 18.36 11.6
11/2/2020 2:15:00 PM 9.32 48.776 0.776 8.1 15.71 11.62
11/2/2020 2:30:00 PM 9.33 48.794 0.776 8.11 14.89 11.58
11/2/2020 2:45:00 PM 9.36 48.848 0.776 8.12 16.49 11.63
11/2/2020 3:00:00 PM 9.36 48.848 0.775 8.12 15 11.63
11/2/2020 3:15:00 PM 9.34 48.812 0.776 8.13 15.59 11.61
11/2/2020 3:30:00 PM 9.3 48.74 0.776 8.13 15.44 11.54
11/2/2020 3:45:00 PM 9.28 48.704 0.776 8.14 17.35 11.46
11/2/2020 4:00:00 PM 9.27 48.686 0.776 8.14 16.7 11.43
11/2/2020 4:15:00 PM 9.26 48.668 0.776 8.14 17.38 11.38
11/2/2020 4:30:00 PM 9.25 48.65 0.776 8.14 14.38 11.32
11/2/2020 4:45:00 PM 9.24 48.632 0.776 8.14 16.92 11.25
11/2/2020 5:00:00 PM 9.21 48.578 0.777 8.14 21.56 11.19
11/2/2020 5:15:00 PM 9.19 48.542 0.776 8.14 13.69 11.11
11/2/2020 5:30:00 PM 9.15 48.47 0.777 8.14 11.96 11.04
11/2/2020 5:45:00 PM 9.13 48.434 0.777 8.14 13.21 10.97
11/2/2020 6:00:00 PM 9.09 48.362 0.777 8.14 16.62 10.9
11/2/2020 6:15:00 PM 9.04 48.272 0.777 8.13 13.2 10.84
11/2/2020 6:30:00 PM 8.99 48.182 0.778 8.13 13.48 10.8
11/2/2020 6:45:00 PM 8.94 48.092 0.778 8.13 12.1 10.74
11/2/2020 7:00:00 PM 8.89 48.002 0.778 8.13 14.02 10.68
11/2/2020 7:15:00 PM 8.82 47.876 0.779 8.13 10.87 10.61
11/2/2020 7:30:00 PM 8.76 47.768 0.779 8.12 12.29 10.54
11/2/2020 7:45:00 PM 8.7 47.66 0.779 8.12 12.83 10.51
11/2/2020 8:00:00 PM 8.64 47.552 0.78 8.11 12.54 10.46
11/2/2020 8:15:00 PM 8.58 47.444 0.78 8.11 12.59 10.42
11/2/2020 8:30:00 PM 8.52 47.336 0.781 8.1 13.43 10.37
11/2/2020 8:45:00 PM 8.47 47.246 0.781 8.1 12.07 10.35
11/2/2020 9:00:00 PM 8.42 47.156 0.781 8.1 16.62 10.33
11/2/2020 9:15:00 PM 8.36 47.048 0.782 8.09 11.55 10.27
11/2/2020 9:30:00 PM 8.31 46.958 0.782 8.09 12.34 10.29
11/2/2020 9:45:00 PM 8.25 46.85 0.783 8.08 12.06 10.27
11/2/2020 10:00:00 PM 8.2 46.76 0.783 8.08 12.91 10.26
11/2/2020 10:15:00 PM 8.15 46.67 0.784 8.07 12.76 10.24
11/2/2020 10:30:00 PM 8.1 46.58 0.784 8.07 17.06 10.23
11/2/2020 10:45:00 PM 8.05 46.49 0.785 8.07 6.1 10.22
11/2/2020 11:00:00 PM 8 46.4 0.785 8.06 8.2 10.21
11/2/2020 11:15:00 PM 7.94 46.292 0.786 8.06 7.69 10.22
11/2/2020 11:30:00 PM 7.9 46.22 0.787 8.06 7.21 10.19
11/2/2020 11:45:00 PM 7.85 46.13 0.788 8.05 7.52 10.19
11/3/2020 12:00:00 AM 7.8 46.04 0.789 8.05 7.21 10.2
11/3/2020 12:15:00 AM 7.76 45.968 0.789 8.05 7.59 10.2
11/3/2020 12:30:00 AM 7.71 45.878 0.789 8.05 8.21 10.2
11/3/2020 12:45:00 AM 7.67 45.806 0.79 8.04 6.16 10.21
11/3/2020 1:00:00 AM 7.63 45.734 0.791 8.04 6.86 10.2
11/3/2020 1:15:00 AM 7.59 45.662 0.792 8.04 7.06 10.21
11/3/2020 1:30:00 AM 7.55 45.59 0.792 8.04 6.36 10.21
11/3/2020 1:45:00 AM 7.52 45.536 0.793 8.04 7.15 10.23
11/3/2020 2:00:00 AM 7.48 45.464 0.794 8.03 7.89 10.22
11/3/2020 2:15:00 AM 7.45 45.41 0.794 8.03 6.09 10.22
11/3/2020 2:30:00 AM 7.41 45.338 0.794 8.03 6.47 10.23
11/3/2020 2:45:00 AM 7.38 45.284 0.795 8.03 6.58 10.24
11/3/2020 3:00:00 AM 7.35 45.23 0.796 8.03 6.52 10.24
11/3/2020 3:15:00 AM 7.32 45.176 0.796 8.03 6.73 10.27
11/3/2020 3:30:00 AM 7.29 45.122 0.797 8.03 6.38 10.27
11/3/2020 3:45:00 AM 7.26 45.068 0.797 8.03 7.39 10.28
11/3/2020 4:00:00 AM 7.23 45.014 0.798 8.03 7.33 10.28
11/3/2020 4:15:00 AM 7.2 44.96 0.798 8.03 6.73 10.29
11/3/2020 4:30:00 AM 7.17 44.906 0.799 8.03 7.22 10.3
11/3/2020 4:45:00 AM 7.14 44.852 0.799 8.03 7.38 10.31
11/3/2020 5:00:00 AM 7.11 44.798 0.799 8.03 6.86 10.35
11/3/2020 5:15:00 AM 7.08 44.744 0.8 8.03 6.99 10.38
11/3/2020 5:30:00 AM 7.05 44.69 0.8 8.03 7.51 10.37
11/3/2020 5:45:00 AM 7.03 44.654 0.8 8.03 8.76 10.39
11/3/2020 6:00:00 AM 7 44.6 0.8 8.03 7.79 10.38
11/3/2020 6:15:00 AM 6.99 44.582 0.8 8.03 8.45 10.39
11/3/2020 6:30:00 AM 6.97 44.546 0.801 8.03 8.3 10.4
11/3/2020 6:45:00 AM 6.95 44.51 0.801 8.03 8.3 10.42
11/3/2020 7:00:00 AM 6.94 44.492 0.8 8.03 7.94 10.45
11/3/2020 7:15:00 AM 6.94 44.492 0.801 8.03 8.17 10.49
11/3/2020 7:30:00 AM 6.93 44.474 0.801 8.03 8.05 10.52
11/3/2020 7:45:00 AM 6.92 44.456 0.801 8.03 8.44 10.59
11/3/2020 8:00:00 AM 6.92 44.456 0.801 8.04 8.79 10.61
11/3/2020 8:15:00 AM 6.92 44.456 0.8 8.04 8.69 10.7
11/3/2020 8:30:00 AM 6.93 44.474 0.8 8.04 9 10.76
11/3/2020 8:45:00 AM 6.94 44.492 0.8 8.04 9.34 10.84
11/3/2020 9:00:00 AM 6.96 44.528 0.8 8.05 8.43 10.91
11/3/2020 9:15:00 AM 7.01 44.618 0.799 8.05 8.27 11.03
11/3/2020 9:30:00 AM 7.08 44.744 0.799 8.06 8.18 11.13
11/3/2020 9:45:00 AM 7.16 44.888 0.799 8.06 9.03 11.25
11/3/2020 10:00:00 AM 7.24 45.032 0.798 8.07 8.49 11.34
11/3/2020 10:15:00 AM 7.4 45.32 0.797 8.07 8.46 11.45
11/3/2020 10:30:00 AM 7.54 45.572 0.797 8.08 9.92 11.55
11/3/2020 10:45:00 AM 7.67 45.806 0.797 8.08 8.57 11.68
11/3/2020 11:00:00 AM 7.81 46.058 0.796 8.08 9.65 11.74
11/3/2020 11:15:00 AM 7.94 46.292 0.795 8.09 8.86 11.83
11/3/2020 11:30:00 AM 8.05 46.49 0.795 8.09 8.11 11.91
11/3/2020 11:45:00 AM 8.14 46.652 0.795 8.1 7.99 11.99
11/3/2020 12:00:00 PM 8.23 46.814 0.794 8.1 8.08 12.03
11/3/2020 12:15:00 PM 8.3 46.94 0.793 8.11 8.72 12.09
11/3/2020 12:30:00 PM 8.38 47.084 0.793 8.12 8.65 12.13
11/3/2020 12:45:00 PM 8.46 47.228 0.793 8.12 9.67 12.18
11/3/2020 1:00:00 PM 8.55 47.39 0.792 8.13 7.66 12.19
11/3/2020 1:15:00 PM 8.64 47.552 0.791 8.13 7.9 12.2
11/3/2020 1:30:00 PM 8.71 47.678 0.791 8.14 8.57 12.23
11/3/2020 1:45:00 PM 8.78 47.804 0.79 8.14 8.43 12.26
11/3/2020 2:00:00 PM 8.83 47.894 0.79 8.14 8.85 12.26
11/3/2020 2:15:00 PM 8.88 47.984 0.789 8.15 7.87 12.24
11/3/2020 2:30:00 PM 8.93 48.074 0.789 8.15 8.22 12.23
11/3/2020 2:45:00 PM 8.96 48.128 0.788 8.16 7.98 12.2
11/3/2020 3:00:00 PM 8.98 48.164 0.788 8.16 7.82 12.16
11/3/2020 3:15:00 PM 9 48.2 0.787 8.16 7.57 12.11
11/3/2020 3:30:00 PM 9.01 48.218 0.787 8.17 8.5 12.03
11/3/2020 3:45:00 PM 9.03 48.254 0.786 8.17 8.18 11.95
11/3/2020 4:00:00 PM 9.05 48.29 0.786 8.17 8.72 11.9
11/3/2020 4:15:00 PM 9.07 48.326 0.785 8.17 8.17 11.81
11/3/2020 4:30:00 PM 9.09 48.362 0.785 8.18 7.12 11.73
11/3/2020 4:45:00 PM 9.1 48.38 0.784 8.18 7.94 11.64
11/3/2020 5:00:00 PM 9.12 48.416 0.784 8.18 7.81 11.56
11/3/2020 5:15:00 PM 9.13 48.434 0.783 8.18 7.7 11.49
11/3/2020 5:30:00 PM 9.15 48.47 0.783 8.18 8.43 11.4
11/3/2020 5:45:00 PM 9.16 48.488 0.783 8.18 7.96 11.3
11/3/2020 6:00:00 PM 9.16 48.488 0.782 8.17 7.47 11.23
11/3/2020 6:15:00 PM 9.16 48.488 0.782 8.17 7.89 11.15
11/3/2020 6:30:00 PM 9.16 48.488 0.782 8.17 7.4 11.07
11/3/2020 6:45:00 PM 9.14 48.452 0.781 8.17 7.85 11
11/3/2020 7:00:00 PM 9.11 48.398 0.781 8.17 8.85 10.91
11/3/2020 7:15:00 PM 9.08 48.344 0.781 8.16 9.14 10.84
11/3/2020 7:30:00 PM 9.04 48.272 0.781 8.16 8.39 10.78
11/3/2020 7:45:00 PM 9.01 48.218 0.781 8.15 8.12 10.7
11/3/2020 8:00:00 PM 8.98 48.164 0.781 8.15 8.38 10.64
11/3/2020 8:15:00 PM 8.95 48.11 0.78 8.14 8.05 10.58
11/3/2020 8:30:00 PM 8.91 48.038 0.78 8.14 8.51 10.52
11/3/2020 8:45:00 PM 8.87 47.966 0.779 8.13 8.31 10.48
11/3/2020 9:00:00 PM 8.84 47.912 0.779 8.13 9.81 10.42
11/3/2020 9:15:00 PM 8.8 47.84 0.778 8.13 9.12 10.41
11/3/2020 9:30:00 PM 8.75 47.75 0.778 8.12 7.96 10.38
11/3/2020 9:45:00 PM 8.71 47.678 0.778 8.11 7.96 10.35
11/3/2020 10:00:00 PM 8.67 47.606 0.777 8.11 9.11 10.34
11/3/2020 10:15:00 PM 8.62 47.516 0.777 8.11 9.58 10.31
11/3/2020 10:30:00 PM 8.57 47.426 0.776 8.1 9.43 10.28
11/3/2020 10:45:00 PM 8.52 47.336 0.776 8.1 8.4 10.27
11/3/2020 11:00:00 PM 8.47 47.246 0.775 8.09 9.07 10.26
11/3/2020 11:15:00 PM 8.42 47.156 0.775 8.09 8.38 10.24
11/3/2020 11:30:00 PM 8.36 47.048 0.774 8.08 8.89 10.25
11/3/2020 11:45:00 PM 8.31 46.958 0.774 8.08 8.98 10.23
11/4/2020 12:00:00 AM 8.25 46.85 0.774 8.07 10.54 10.24
11/4/2020 12:15:00 AM 8.2 46.76 0.773 8.07 8.98 10.23
11/4/2020 12:30:00 AM 8.14 46.652 0.773 8.07 8.18 10.2
11/4/2020 12:45:00 AM 8.09 46.562 0.772 8.06 9.23 10.23
11/4/2020 1:00:00 AM 8.04 46.472 0.772 8.06 8.07 10.21
11/4/2020 1:15:00 AM 7.99 46.382 0.772 8.06 8.75 10.23
11/4/2020 1:30:00 AM 7.93 46.274 0.772 8.05 8.57 10.24
11/4/2020 1:45:00 AM 7.88 46.184 0.771 8.05 9.82 10.24
11/4/2020 2:00:00 AM 7.83 46.094 0.771 8.04 12.28 10.25
11/4/2020 2:15:00 AM 7.78 46.004 0.771 8.04 10.54 10.27
11/4/2020 2:30:00 AM 7.73 45.914 0.771 8.04 8.94 10.27
11/4/2020 2:45:00 AM 7.68 45.824 0.772 8.04 9.93 10.29
11/4/2020 3:00:00 AM 7.63 45.734 0.772 8.04 10.2 10.31
11/4/2020 3:15:00 AM 7.59 45.662 0.772 8.04 10.05 10.32
11/4/2020 3:30:00 AM 7.54 45.572 0.772 8.03 10.81 10.32
11/4/2020 3:45:00 AM 7.49 45.482 0.773 8.03 9.75 10.34
11/4/2020 4:00:00 AM 7.44 45.392 0.774 8.03 10.34 10.35
11/4/2020 4:15:00 AM 7.4 45.32 0.774 8.03 10.34 10.37
11/4/2020 4:30:00 AM 7.36 45.248 0.775 8.03 10.16 10.37
11/4/2020 4:45:00 AM 7.31 45.158 0.776 8.03 11.08 10.42
11/4/2020 5:00:00 AM 7.27 45.086 0.776 8.03 10.49 10.42
11/4/2020 5:15:00 AM 7.23 45.014 0.777 8.03 9.04 10.45
11/4/2020 5:30:00 AM 7.19 44.942 0.778 8.03 9.46 10.44
11/4/2020 5:45:00 AM 7.15 44.87 0.78 8.02 8.83 10.46
11/4/2020 6:00:00 AM 7.11 44.798 0.781 8.02 9.53 10.49
11/4/2020 6:15:00 AM 7.07 44.726 0.782 8.02 9.93 10.5
11/4/2020 6:30:00 AM 7.03 44.654 0.783 8.02 9.25 10.52
11/4/2020 6:45:00 AM 7 44.6 0.784 8.02 9.7 10.53
11/4/2020 7:00:00 AM 6.97 44.546 0.786 8.02 9.83 10.56
11/4/2020 7:15:00 AM 6.94 44.492 0.787 8.02 9.44 10.58
11/4/2020 7:30:00 AM 6.92 44.456 0.788 8.02 8.58 10.65
11/4/2020 7:45:00 AM 6.9 44.42 0.79 8.02 9.91 10.7
11/4/2020 8:00:00 AM 6.88 44.384 0.791 8.02 9.88 10.74
11/4/2020 8:15:00 AM 6.88 44.384 0.793 8.02 10.3 10.8
11/4/2020 8:30:00 AM 6.87 44.366 0.794 8.03 8.86 10.85
11/4/2020 8:45:00 AM 6.88 44.384 0.796 8.03 8.86 10.95
11/4/2020 9:00:00 AM 6.91 44.438 0.798 8.03 9.21 11.02
11/4/2020 9:15:00 AM 6.97 44.546 0.798 8.03 10.54 11.11
11/4/2020 9:30:00 AM 7.05 44.69 0.799 8.04 10.34 11.23
11/4/2020 9:45:00 AM 7.16 44.888 0.8 8.04 10.93 11.35
11/4/2020 10:00:00 AM 7.28 45.104 0.802 8.05 9.76 11.47
11/4/2020 10:15:00 AM 7.46 45.428 0.803 8.05 9.96 11.58
11/4/2020 10:30:00 AM 7.62 45.716 0.804 8.05 9.98 11.71
11/4/2020 10:45:00 AM 7.8 46.04 0.805 8.06 12.01 11.84
11/4/2020 11:00:00 AM 7.98 46.364 0.807 8.06 10.44 11.94
11/4/2020 11:15:00 AM 8.15 46.67 0.808 8.06 11.43 12.03
11/4/2020 11:30:00 AM 8.3 46.94 0.809 8.07 10.68 12.1
11/4/2020 11:45:00 AM 8.42 47.156 0.81 8.07 10.43 12.18
11/4/2020 12:00:00 PM 8.54 47.372 0.811 8.07 10.06 12.23
11/4/2020 12:15:00 PM 8.63 47.534 0.812 8.08 8.94 12.29
11/4/2020 12:30:00 PM 8.72 47.696 0.813 8.08 9.41 12.32
11/4/2020 12:45:00 PM 8.83 47.894 0.814 8.09 9.94 12.35
11/4/2020 1:00:00 PM 8.94 48.092 0.814 8.09 9.33 12.36
11/4/2020 1:15:00 PM 9.04 48.272 0.815 8.1 9.6 12.39
11/4/2020 1:30:00 PM 9.15 48.47 0.815 8.1 17.58 12.41
11/4/2020 1:45:00 PM 9.23 48.614 0.816 8.11 10.01 12.41
11/4/2020 2:00:00 PM 9.31 48.758 0.817 8.12 10.33 12.41
11/4/2020 2:15:00 PM 9.38 48.884 0.817 8.12 9.46 12.39
11/4/2020 2:30:00 PM 9.45 49.01 0.818 8.13 10.27 12.35
11/4/2020 2:45:00 PM 9.5 49.1 0.818 8.13 10.21 12.32
11/4/2020 3:00:00 PM 9.54 49.172 0.818 8.14 9.42 12.27
11/4/2020 3:15:00 PM 9.58 49.244 0.818 8.14 12.02 12.19
11/4/2020 3:30:00 PM 9.6 49.28 0.819 8.15 10.94 12.11
11/4/2020 3:45:00 PM 9.64 49.352 0.818 8.15 9.89 12.01
11/4/2020 4:00:00 PM 9.68 49.424 0.818 8.15 10.83 11.91
11/4/2020 4:15:00 PM 9.72 49.496 0.818 8.15 9.96 11.82
11/4/2020 4:30:00 PM 9.75 49.55 0.818 8.15 11.02 11.73
11/4/2020 4:45:00 PM 9.78 49.604 0.817 8.15 9.76 11.68
11/4/2020 5:00:00 PM 9.81 49.658 0.817 8.15 10.39 11.58
11/4/2020 5:15:00 PM 9.84 49.712 0.816 8.16 10.01 11.49
11/4/2020 5:30:00 PM 9.86 49.748 0.816 8.16 9.77 11.37
11/4/2020 5:45:00 PM 9.87 49.766 0.815 8.15 9.53 11.29
11/4/2020 6:00:00 PM 9.88 49.784 0.815 8.16 14.13 11.19
11/4/2020 6:15:00 PM 9.88 49.784 0.813 8.15 3.51 11.09
11/4/2020 6:30:00 PM 9.87 49.766 0.813 8.15 4.15 11.03
11/4/2020 6:45:00 PM 9.87 49.766 0.811 8.15 4.94 10.92
11/4/2020 7:00:00 PM 9.86 49.748 0.811 8.14 3.76 10.83
11/4/2020 7:15:00 PM 9.84 49.712 0.81 8.14 3.66 10.75
11/4/2020 7:30:00 PM 9.83 49.694 0.808 8.14 3.34 10.66
11/4/2020 7:45:00 PM 9.81 49.658 0.808 8.13 4.08 10.57
11/4/2020 8:00:00 PM 9.8 49.64 0.806 8.13 2.88 10.49
11/4/2020 8:15:00 PM 9.78 49.604 0.805 8.13 2.8 10.41
11/4/2020 8:30:00 PM 9.76 49.568 0.805 8.12 4.38 10.34
11/4/2020 8:45:00 PM 9.74 49.532 0.804 8.12 2.83 10.28
11/4/2020 9:00:00 PM 9.72 49.496 0.803 8.12 2.9 10.25
11/4/2020 9:15:00 PM 9.69 49.442 0.802 8.11 2.57 10.2
11/4/2020 9:30:00 PM 9.67 49.406 0.801 8.11 3.54 10.15
11/4/2020 9:45:00 PM 9.64 49.352 0.801 8.1 2.69 10.11
11/4/2020 10:00:00 PM 9.61 49.298 0.8 8.1 3.13 10.07
11/4/2020 10:15:00 PM 9.58 49.244 0.8 8.1 3.22 10.05
11/4/2020 10:30:00 PM 9.55 49.19 0.8 8.09 2.54 10.01
11/4/2020 10:45:00 PM 9.52 49.136 0.799 8.08 5.43 9.97
11/4/2020 11:00:00 PM 9.49 49.082 0.799 8.08 2.75 9.96
11/4/2020 11:15:00 PM 9.45 49.01 0.799 8.08 2.46 9.95
11/4/2020 11:30:00 PM 9.41 48.938 0.799 8.07 4.63 9.93
11/4/2020 11:45:00 PM 9.38 48.884 0.8 8.06 3.94 9.92
11/5/2020 12:00:00 AM 9.34 48.812 0.8 8.06 4.2 9.91
11/5/2020 12:15:00 AM 9.29 48.722 0.801 8.06 3.24 9.89
11/5/2020 12:30:00 AM 9.25 48.65 0.801 8.05 3.46 9.89
11/5/2020 12:45:00 AM 9.21 48.578 0.802 8.05 3.56 9.88
11/5/2020 1:00:00 AM 9.16 48.488 0.802 8.04 3.67 9.89
11/5/2020 1:15:00 AM 9.12 48.416 0.803 8.04 2.77 9.89
11/5/2020 1:30:00 AM 9.07 48.326 0.804 8.04 4.26 9.9
11/5/2020 1:45:00 AM 9.03 48.254 0.805 8.03 3.75 9.9
11/5/2020 2:00:00 AM 8.98 48.164 0.806 8.03 3.56 9.88
11/5/2020 2:15:00 AM 8.93 48.074 0.807 8.03 3.9 9.9
11/5/2020 2:30:00 AM 8.88 47.984 0.808 8.03 3.82 9.92
11/5/2020 2:45:00 AM 8.84 47.912 0.809 8.02 3.48 9.94
11/5/2020 3:00:00 AM 8.79 47.822 0.81 8.02 4.21 9.92
11/5/2020 3:15:00 AM 8.74 47.732 0.812 8.02 3.19 9.93
11/5/2020 3:30:00 AM 8.7 47.66 0.813 8.02 4.2 9.94
11/5/2020 3:45:00 AM 8.65 47.57 0.814 8.02 3.82 9.94
11/5/2020 4:00:00 AM 8.61 47.498 0.815 8.02 3.2 9.96
11/5/2020 4:15:00 AM 8.56 47.408 0.816 8.01 2.55 9.99
11/5/2020 4:30:00 AM 8.52 47.336 0.818 8.01 3.11 9.98
11/5/2020 4:45:00 AM 8.48 47.264 0.82 8.01 2.65 9.99
11/5/2020 5:00:00 AM 8.43 47.174 0.821 8.01 2.91 10.01
11/5/2020 5:15:00 AM 8.39 47.102 0.822 8.01 2.35 10.03
11/5/2020 5:30:00 AM 8.35 47.03 0.824 8.01 2.92 10.04
11/5/2020 5:45:00 AM 8.32 46.976 0.825 8.01 3.35 10.04
11/5/2020 6:00:00 AM 8.29 46.922 0.827 8.01 3.59 10.08
11/5/2020 6:15:00 AM 8.26 46.868 0.828 8.01 3.55 10.08
11/5/2020 6:30:00 AM 8.23 46.814 0.83 8.01 2.8 10.09
11/5/2020 6:45:00 AM 8.21 46.778 0.831 8.01 3.09 10.1
11/5/2020 7:00:00 AM 8.18 46.724 0.833 8.01 3.14 10.1
11/5/2020 7:15:00 AM 8.16 46.688 0.834 8.01 3.39 10.16
11/5/2020 7:30:00 AM 8.14 46.652 0.836 8.01 3.67 10.2
11/5/2020 7:45:00 AM 8.12 46.616 0.838 8.01 4.28 10.25
11/5/2020 8:00:00 AM 8.11 46.598 0.839 8.01 2.92 10.3
11/5/2020 8:15:00 AM 8.1 46.58 0.84 8.01 3.2 10.37
11/5/2020 8:30:00 AM 8.1 46.58 0.842 8.01 3.48 10.43
11/5/2020 8:45:00 AM 8.12 46.616 0.843 8.01 2.75 10.5
11/5/2020 9:00:00 AM 8.15 46.67 0.844 8.01 2.77 10.59
11/5/2020 9:15:00 AM 8.21 46.778 0.846 8.02 3.14 10.7
11/5/2020 9:30:00 AM 8.3 46.94 0.847 8.02 3.91 10.86
11/5/2020 9:45:00 AM 8.41 47.138 0.848 8.02 3.63 10.99
11/5/2020 10:00:00 AM 8.54 47.372 0.848 8.02 3.94 11.13
11/5/2020 10:15:00 AM 8.71 47.678 0.85 8.02 3.64 11.25
11/5/2020 10:30:00 AM 8.87 47.966 0.85 8.03 4.31 11.41
11/5/2020 10:45:00 AM 9.05 48.29 0.851 8.03 3.03 11.53
11/5/2020 11:00:00 AM 9.24 48.632 0.852 8.03 3.99 11.67
11/5/2020 11:15:00 AM 9.42 48.956 0.852 8.04 3.7 11.78
11/5/2020 11:30:00 AM 9.54 49.172 0.854 8.04 4.11 11.82
11/5/2020 11:45:00 AM 9.65 49.37 0.854 8.05 5.15 11.91
11/5/2020 12:00:00 PM 9.77 49.586 0.854 8.05 2.84 12.01
11/5/2020 12:15:00 PM 9.87 49.766 0.855 8.06 4.58 12.08
11/5/2020 12:30:00 PM 9.96 49.928 0.856 8.07 3.77 12.14
11/5/2020 12:45:00 PM 10.08 50.144 0.857 8.08 3.21 12.17
11/5/2020 1:00:00 PM 10.18 50.324 0.857 8.08 3.39 12.24
11/5/2020 1:15:00 PM 10.28 50.504 0.858 8.09 3 12.29
11/5/2020 1:30:00 PM 10.37 50.666 0.859 8.1 3.19 12.34
11/5/2020 1:45:00 PM 10.45 50.81 0.859 8.1 2.82 12.34
11/5/2020 2:00:00 PM 10.54 50.972 0.859 8.11 5.01 12.35
11/5/2020 2:15:00 PM 10.62 51.116 0.86 8.11 4.3 12.42
11/5/2020 2:30:00 PM 10.69 51.242 0.861 8.12 2.95 12.41
11/5/2020 2:45:00 PM 10.74 51.332 0.861 8.14 4.49 12.34
11/5/2020 3:00:00 PM 10.79 51.422 0.863 8.14 4.09 12.3
11/5/2020 3:15:00 PM 10.82 51.476 0.864 8.15 3.74 12.24
11/5/2020 3:30:00 PM 10.86 51.548 0.864 8.15 4.49 12.16
11/5/2020 3:45:00 PM 10.9 51.62 0.865 8.16 5.69 12.08
11/5/2020 4:00:00 PM 10.94 51.692 0.866 8.17 6.63 11.99
11/5/2020 4:15:00 PM 10.98 51.764 0.866 8.17 3.01 11.91
11/5/2020 4:30:00 PM 11 51.8 0.867 8.17 2.7 11.8
11/5/2020 4:45:00 PM 11.03 51.854 0.868 8.17 4.64 11.65
11/5/2020 5:00:00 PM 11.05 51.89 0.869 8.17 3.51 11.54
11/5/2020 5:15:00 PM 11.07 51.926 0.87 8.17 3.28 11.39
11/5/2020 5:30:00 PM 11.09 51.962 0.87 8.18 3.27 11.29
11/5/2020 5:45:00 PM 11.1 51.98 0.871 8.17 3.36 11.18
11/5/2020 6:00:00 PM 11.11 51.998 0.871 8.17 6.86 11.05
11/5/2020 6:15:00 PM 11.11 51.998 0.872 8.17 5.87 10.95
11/5/2020 6:30:00 PM 11.1 51.98 0.872 8.17 3.08 10.81
11/5/2020 6:45:00 PM 11.09 51.962 0.873 8.16 3.35 10.72
11/5/2020 7:00:00 PM 11.08 51.944 0.873 8.16 3.16 10.58
11/5/2020 7:15:00 PM 11.08 51.944 0.873 8.15 2.69 10.49
11/5/2020 7:30:00 PM 11.06 51.908 0.874 8.15 2.71 10.38
11/5/2020 7:45:00 PM 11.05 51.89 0.874 8.14 3.31 10.26
11/5/2020 8:00:00 PM 11.04 51.872 0.874 8.14 3.78 10.18
11/5/2020 8:15:00 PM 11.03 51.854 0.875 8.13 4.3 10.09
11/5/2020 8:30:00 PM 11.01 51.818 0.875 8.13 3.05 10.01
11/5/2020 8:45:00 PM 10.99 51.782 0.875 8.13 4.32 9.94
11/5/2020 9:00:00 PM 10.97 51.746 0.875 8.12 5.48 9.86
11/5/2020 9:15:00 PM 10.95 51.71 0.875 8.11 5.4 9.81
11/5/2020 9:30:00 PM 10.93 51.674 0.875 8.11 3.89 9.73
11/5/2020 9:45:00 PM 10.9 51.62 0.875 8.1 4.7 9.69
11/5/2020 10:00:00 PM 10.88 51.584 0.875 8.09 6.18 9.64
11/5/2020 10:15:00 PM 10.85 51.53 0.874 8.09 4.46 9.6
11/5/2020 10:30:00 PM 10.82 51.476 0.874 8.08 7.6 9.55
11/5/2020 10:45:00 PM 10.78 51.404 0.874 8.08 4.48 9.53
11/5/2020 11:00:00 PM 10.75 51.35 0.874 8.07 4.82 9.5
11/5/2020 11:15:00 PM 10.71 51.278 0.874 8.06 3.67 9.47
11/5/2020 11:30:00 PM 10.67 51.206 0.874 8.06 6.78 9.43
11/5/2020 11:45:00 PM 10.63 51.134 0.874 8.05 5.29 9.42
11/6/2020 12:00:00 AM 10.59 51.062 0.874 8.04 9.05 9.4
11/6/2020 12:15:00 AM 10.55 50.99 0.873 8.04 8 9.39
11/6/2020 12:30:00 AM 10.51 50.918 0.873 8.03 6.37 9.37
11/6/2020 12:45:00 AM 10.46 50.828 0.873 8.03 10.27 9.36
11/6/2020 1:00:00 AM 10.41 50.738 0.873 8.02 7.36 9.35
11/6/2020 1:15:00 AM 10.37 50.666 0.873 8.02 5.01 9.35
11/6/2020 1:30:00 AM 10.32 50.576 0.873 8.01 5.28 9.35
11/6/2020 1:45:00 AM 10.28 50.504 0.872 8.01 6.33 9.35
11/6/2020 2:00:00 AM 10.24 50.432 0.872 8 4.39 9.36
11/6/2020 2:15:00 AM 10.2 50.36 0.872 8 5.14 9.36
11/6/2020 2:30:00 AM 10.16 50.288 0.872 7.99 4.87 9.36
11/6/2020 2:45:00 AM 10.11 50.198 0.871 7.99 6.06 9.36
11/6/2020 3:00:00 AM 10.07 50.126 0.871 7.99 10.27 9.36
11/6/2020 3:15:00 AM 10.03 50.054 0.871 7.98 5.87 9.37
11/6/2020 3:30:00 AM 9.99 49.982 0.871 7.98 6.45 9.38
11/6/2020 3:45:00 AM 9.95 49.91 0.871 7.98 4.28 9.4
11/6/2020 4:00:00 AM 9.92 49.856 0.871 7.98 5.79 9.4
11/6/2020 4:15:00 AM 9.89 49.802 0.87 7.98 13.1 9.42
11/6/2020 4:30:00 AM 9.86 49.748 0.87 7.97 6 9.42
11/6/2020 4:45:00 AM 9.82 49.676 0.87 7.97 5.2 9.44
11/6/2020 5:00:00 AM 9.79 49.622 0.87 7.97 4.87 9.44
11/6/2020 5:15:00 AM 9.76 49.568 0.87 7.97 4.78 9.45
11/6/2020 5:30:00 AM 9.73 49.514 0.87 7.97 4.29 9.46
11/6/2020 5:45:00 AM 9.69 49.442 0.87 7.97 6.37 9.46
11/6/2020 6:00:00 AM 9.66 49.388 0.87 7.97 6.28 9.47
11/6/2020 6:15:00 AM 9.63 49.334 0.87 7.97 6.96 9.47
11/6/2020 6:30:00 AM 9.6 49.28 0.87 7.97 7.37 9.48
11/6/2020 6:45:00 AM 9.58 49.244 0.87 7.97 9.61 9.49
11/6/2020 7:00:00 AM 9.56 49.208 0.871 7.97 7.96 9.51
11/6/2020 7:15:00 AM 9.55 49.19 0.871 7.97 5.43 9.56
11/6/2020 7:30:00 AM 9.54 49.172 0.871 7.97 4.17 9.6
11/6/2020 7:45:00 AM 9.55 49.19 0.871 7.97 7.9 9.68
11/6/2020 8:00:00 AM 9.55 49.19 0.871 7.97 5.62 9.78
11/6/2020 8:15:00 AM 9.56 49.208 0.872 7.97 3.91 9.9
11/6/2020 8:30:00 AM 9.56 49.208 0.872 7.98 5.82 9.99
11/6/2020 8:45:00 AM 9.56 49.208 0.872 7.98 4.17 10.01
11/6/2020 9:00:00 AM 9.56 49.208 0.873 7.98 5.37 10.03
11/6/2020 9:15:00 AM 9.59 49.262 0.873 7.99 4.26 10.11
11/6/2020 9:30:00 AM 9.65 49.37 0.873 7.99 4.69 10.28
11/6/2020 9:45:00 AM 9.76 49.568 0.874 7.99 5.14 10.51
11/6/2020 10:00:00 AM 9.88 49.784 0.874 8 4.23 10.65
11/6/2020 10:15:00 AM 10.04 50.072 0.874 8 6.19 10.84
11/6/2020 10:30:00 AM 10.2 50.36 0.874 8.01 4.33 11.01
11/6/2020 10:45:00 AM 10.35 50.63 0.874 8.01 3.83 11.16
11/6/2020 11:00:00 AM 10.53 50.954 0.874 8.01 4.26 11.31
11/6/2020 11:15:00 AM 10.7 51.26 0.875 8.02 4.58 11.5
11/6/2020 11:30:00 AM 10.83 51.494 0.875 8.02 6.14 11.62
11/6/2020 11:45:00 AM 10.94 51.692 0.876 8.02 8.43 11.75
11/6/2020 12:00:00 PM 11.05 51.89 0.876 8.04 8.59 11.84
11/6/2020 12:15:00 PM 11.13 52.034 0.876 8.05 8.02 11.97
11/6/2020 12:30:00 PM 11.22 52.196 0.876 8.06 7.68 11.94
11/6/2020 12:45:00 PM 11.32 52.376 0.876 8.06 4.91 12.04
11/6/2020 1:00:00 PM 11.41 52.538 0.877 8.06 4.79 12.08
11/6/2020 1:15:00 PM 11.5 52.7 0.877 8.07 4.3 12.12
11/6/2020 1:30:00 PM 11.59 52.862 0.878 8.08 5.01 12.2
11/6/2020 1:45:00 PM 11.67 53.006 0.878 8.09 4.37 12.22
11/6/2020 2:00:00 PM 11.73 53.114 0.878 8.09 4.26 12.22
11/6/2020 2:15:00 PM 11.79 53.222 0.878 8.1 7.35 12.22
11/6/2020 2:30:00 PM 11.84 53.312 0.878 8.11 4.42 12.16
11/6/2020 2:45:00 PM 11.89 53.402 0.879 8.11 5.25 12.13
11/6/2020 3:00:00 PM 11.93 53.474 0.879 8.12 3.9 12.06
11/6/2020 3:15:00 PM 11.95 53.51 0.88 8.13 10.19 11.98
11/6/2020 3:30:00 PM 11.98 53.564 0.88 8.13 8.68 11.83
11/6/2020 3:45:00 PM 12 53.6 0.88 8.14 9.75 11.74
11/6/2020 4:00:00 PM 12.02 53.636 0.881 8.13 8.53 11.63
11/6/2020 4:15:00 PM 12.06 53.708 0.881 8.13 7.02 11.5
11/6/2020 4:30:00 PM 12.08 53.744 0.881 8.13 6.35 11.35
11/6/2020 4:45:00 PM 12.1 53.78 0.881 8.13 7.93 11.28
11/6/2020 5:00:00 PM 12.1 53.78 0.882 8.13 13.88 11.15
11/6/2020 5:15:00 PM 12.11 53.798 0.882 8.14 14.24 10.99
11/6/2020 5:30:00 PM 12.12 53.816 0.882 8.15 7.02 10.9
11/6/2020 5:45:00 PM 12.12 53.816 0.883 8.15 5.86 10.77
11/6/2020 6:00:00 PM 12.12 53.816 0.883 8.16 5.58 10.69
11/6/2020 6:15:00 PM 12.12 53.816 0.883 8.16 5.24 10.57
11/6/2020 6:30:00 PM 12.11 53.798 0.884 8.16 4.11 10.45
11/6/2020 6:45:00 PM 12.09 53.762 0.884 8.15 4.59 10.32
11/6/2020 7:00:00 PM 12.07 53.726 0.884 8.15 4.36 10.21
11/6/2020 7:15:00 PM 12.04 53.672 0.884 8.15 5.02 10.08
11/6/2020 7:30:00 PM 12.01 53.618 0.885 8.14 5.67 9.96
11/6/2020 7:45:00 PM 11.98 53.564 0.885 8.14 6.4 9.87
11/6/2020 8:00:00 PM 11.95 53.51 0.885 8.13 6.67 9.78
11/6/2020 8:15:00 PM 11.92 53.456 0.885 8.13 4.39 9.7
11/6/2020 8:30:00 PM 11.89 53.402 0.885 8.12 4.45 9.6
11/6/2020 8:45:00 PM 11.85 53.33 0.885 8.12 5.48 9.54
11/6/2020 9:00:00 PM 11.82 53.276 0.886 8.11 4.01 9.46
11/6/2020 9:15:00 PM 11.78 53.204 0.885 8.11 4.14 9.4
11/6/2020 9:30:00 PM 11.74 53.132 0.885 8.1 6.43 9.35
11/6/2020 9:45:00 PM 11.7 53.06 0.885 8.1 5.65 9.3
11/6/2020 10:00:00 PM 11.65 52.97 0.885 8.09 4.83 9.25
11/6/2020 10:15:00 PM 11.61 52.898 0.885 8.08 5.21 9.2
11/6/2020 10:30:00 PM 11.56 52.808 0.886 8.08 7.57 9.17
11/6/2020 10:45:00 PM 11.52 52.736 0.885 8.07 6.48 9.15
11/6/2020 11:00:00 PM 11.47 52.646 0.885 8.07 6.38 9.12
11/6/2020 11:15:00 PM 11.42 52.556 0.886 8.06 5.89 9.07
11/6/2020 11:30:00 PM 11.37 52.466 0.886 8.06 5.4 9.06
11/6/2020 11:45:00 PM 11.31 52.358 0.885 8.05 7.53 9.05
11/7/2020 12:00:00 AM 11.26 52.268 0.885 8.04 6.02 9.02
11/7/2020 12:15:00 AM 11.2 52.16 0.885 8.04 5.36 9.03
11/7/2020 12:30:00 AM 11.15 52.07 0.885 8.03 5.86 9.03
11/7/2020 12:45:00 AM 11.09 51.962 0.885 8.03 6.73 9.03
11/7/2020 1:00:00 AM 11.02 51.836 0.885 8.02 4.02 9.01
11/7/2020 1:15:00 AM 10.97 51.746 0.879 8.02 6.8 9.01
11/7/2020 1:30:00 AM 10.91 51.638 0.861 8.02 6.8 9.01
11/7/2020 1:45:00 AM 10.85 51.53 0.885 8.01 13.63 9.02
11/7/2020 2:00:00 AM 10.79 51.422 0.885 8.01 6.42 9.04
11/7/2020 2:15:00 AM 10.73 51.314 0.884 8.01 6.71 9.03
11/7/2020 2:30:00 AM 10.67 51.206 0.766 8 4.88 9.04
11/7/2020 2:45:00 AM 10.62 51.116 0.767 8 6.63 9.06
11/7/2020 3:00:00 AM 10.56 51.008 0.884 8 12.34 9.05
11/7/2020 3:15:00 AM 10.5 50.9 0.884 7.99 8.79 9.03
11/7/2020 3:30:00 AM 10.44 50.792 0.883 7.99 4.33 9.07
11/7/2020 3:45:00 AM 10.39 50.702 0.883 7.99 5.13 9.1
11/7/2020 4:00:00 AM 10.33 50.594 0.88 7.99 6.17 9.09
11/7/2020 4:15:00 AM 10.27 50.486 0.882 7.98 4.32 9.12
11/7/2020 4:30:00 AM 10.22 50.396 0.882 7.98 5.3 9.14
11/7/2020 4:45:00 AM 10.16 50.288 0.883 7.98 10.23 9.18
11/7/2020 5:00:00 AM 10.11 50.198 0.883 7.98 4.77 9.17
11/7/2020 5:15:00 AM 10.05 50.09 0.882 7.98 7.82 9.18
11/7/2020 5:30:00 AM 10 50 0.882 7.98 12.76 9.21
11/7/2020 5:45:00 AM 9.95 49.91 0.882 7.97 8.8 9.23
11/7/2020 6:00:00 AM 9.9 49.82 0.882 7.97 4.85 9.24
11/7/2020 6:15:00 AM 9.85 49.73 0.882 7.97 4.1 9.27
11/7/2020 6:30:00 AM 9.8 49.64 0.882 7.97 4.34 9.28
11/7/2020 6:45:00 AM 9.76 49.568 0.882 7.98 3.79 9.3
11/7/2020 7:00:00 AM 9.72 49.496 0.882 7.97 3.46 9.32
11/7/2020 7:15:00 AM 9.68 49.424 0.882 7.97 7.84 9.36
11/7/2020 7:30:00 AM 9.65 49.37 0.882 7.97 5.48 9.44
11/7/2020 7:45:00 AM 9.62 49.316 0.882 7.98 5.48 9.5
11/7/2020 8:00:00 AM 9.6 49.28 0.882 7.98 4.83 9.56
11/7/2020 8:15:00 AM 9.59 49.262 0.882 7.98 4.08 9.65
11/7/2020 8:30:00 AM 9.58 49.244 0.882 7.98 4.37 9.73
11/7/2020 8:45:00 AM 9.59 49.262 0.882 7.98 4.62 9.77
11/7/2020 9:00:00 AM 9.61 49.298 0.883 7.99 3.74 9.89
11/7/2020 9:15:00 AM 9.65 49.37 0.883 7.99 4.83 10.03
11/7/2020 9:30:00 AM 9.72 49.496 0.883 7.99 4.68 10.18
11/7/2020 9:45:00 AM 9.82 49.676 0.883 7.99 4.68 10.42
11/7/2020 10:00:00 AM 9.95 49.91 0.883 8 4.74 10.64
11/7/2020 10:15:00 AM 10.12 50.216 0.883 8 3.67 10.86
11/7/2020 10:30:00 AM 10.29 50.522 0.883 8.01 4.41 11.04
11/7/2020 10:45:00 AM 10.45 50.81 0.883 8.02 7.02 11.22
11/7/2020 11:00:00 AM 10.65 51.17 0.883 8.03 3.92 11.4
11/7/2020 11:15:00 AM 10.83 51.494 0.883 8.04 4.89 11.59
11/7/2020 11:30:00 AM 10.98 51.764 0.884 8.05 3.39 11.72
11/7/2020 11:45:00 AM 11.09 51.962 0.884 8.06 6.27 11.86
11/7/2020 12:00:00 PM 11.19 52.142 0.884 8.08 5.52 11.98
11/7/2020 12:15:00 PM 11.29 52.322 0.884 8.09 6.6 12.09
11/7/2020 12:30:00 PM 11.39 52.502 0.884 8.09 4.69 12.16
11/7/2020 12:45:00 PM 11.49 52.682 0.885 8.1 3.62 12.21
11/7/2020 1:00:00 PM 11.59 52.862 0.885 8.11 4.88 12.32
11/7/2020 1:15:00 PM 11.69 53.042 0.885 8.12 4.59 12.39
11/7/2020 1:30:00 PM 11.8 53.24 0.885 8.13 14.36 12.38
11/7/2020 1:45:00 PM 11.87 53.366 0.885 8.14 4.05 12.45
11/7/2020 2:00:00 PM 11.94 53.492 0.886 8.15 4.24 12.47
11/7/2020 2:15:00 PM 12 53.6 0.886 8.16 2.83 12.37
11/7/2020 2:30:00 PM 12.06 53.708 0.886 8.16 3.58 12.4
11/7/2020 2:45:00 PM 12.1 53.78 0.886 8.17 3.81 12.36
11/7/2020 3:00:00 PM 12.14 53.852 0.886 8.18 4.09 12.3
11/7/2020 3:15:00 PM 12.17 53.906 0.887 8.18 9.49 12.2
11/7/2020 3:30:00 PM 12.2 53.96 0.887 8.19 4.13 12.06
11/7/2020 3:45:00 PM 12.22 53.996 0.887 8.19 6 11.93
11/7/2020 4:00:00 PM 12.25 54.05 0.888 8.2 4.57 11.82
11/7/2020 4:15:00 PM 12.28 54.104 0.888 8.2 5.53 11.69
11/7/2020 4:30:00 PM 12.31 54.158 0.888 8.2 4.39 11.6
11/7/2020 4:45:00 PM 12.32 54.176 0.888 8.2 4.7 11.45
11/7/2020 5:00:00 PM 12.34 54.212 0.889 8.2 14.35 11.31
11/7/2020 5:15:00 PM 12.35 54.23 0.889 8.2 17.41 11.18
11/7/2020 5:30:00 PM 12.35 54.23 0.889 8.2 6.58 11.03
11/7/2020 5:45:00 PM 12.36 54.248 0.889 8.2 4.46 10.85
11/7/2020 6:00:00 PM 12.37 54.266 0.889 8.2 5.38 10.76
11/7/2020 6:15:00 PM 12.36 54.248 0.889 8.2 6.37 10.67
11/7/2020 6:30:00 PM 12.36 54.248 0.89 8.2 5.67 10.53
11/7/2020 6:45:00 PM 12.35 54.23 0.89 8.2 4.42 10.41
11/7/2020 7:00:00 PM 12.33 54.194 0.89 8.2 3.47 10.29
11/7/2020 7:15:00 PM 12.31 54.158 0.891 8.19 5.8 10.16
11/7/2020 7:30:00 PM 12.28 54.104 0.891 8.19 8.35 10.03
11/7/2020 7:45:00 PM 12.26 54.068 0.892 8.18 6.28 9.91
11/7/2020 8:00:00 PM 12.23 54.014 0.89 8.18 6.4 9.79
11/7/2020 8:15:00 PM 12.19 53.942 0.892 8.17 7.06 9.71
11/7/2020 8:30:00 PM 12.16 53.888 0.892 8.17 4.96 9.62
11/7/2020 8:45:00 PM 12.12 53.816 0.893 8.16 6.57 9.51
11/7/2020 9:00:00 PM 12.09 53.762 0.893 8.15 20.47 9.43
11/7/2020 9:15:00 PM 12.05 53.69 0.893 8.15 4.22 9.35
11/7/2020 9:30:00 PM 12.01 53.618 0.893 8.14 7.35 9.3
11/7/2020 9:45:00 PM 11.97 53.546 0.894 8.13 4.49 9.23
11/7/2020 10:00:00 PM 11.93 53.474 0.894 8.13 3.66 9.18
11/7/2020 10:15:00 PM 11.88 53.384 0.894 8.12 4.92 9.13
11/7/2020 10:30:00 PM 11.84 53.312 0.894 8.11 3.31 9.1
11/7/2020 10:45:00 PM 11.79 53.222 0.895 8.11 5.92 9.06
11/7/2020 11:00:00 PM 11.74 53.132 0.895 8.1 22.91 9.03
11/7/2020 11:15:00 PM 11.68 53.024 0.895 8.09 5.41 9
11/7/2020 11:30:00 PM 11.63 52.934 0.896 8.09 6.81 8.98
11/7/2020 11:45:00 PM 11.57 52.826 0.896 8.08 30.46 8.95
11/8/2020 12:00:00 AM 11.52 52.736 0.896 8.07 6.42 8.94
11/8/2020 12:15:00 AM 11.46 52.628 0.896 8.07 9.46 8.94
11/8/2020 12:30:00 AM 11.4 52.52 0.897 8.06 6.29 8.92
11/8/2020 12:45:00 AM 11.33 52.394 0.897 8.05 6.45 8.91
11/8/2020 1:00:00 AM 11.28 52.304 0.897 8.05 19.95 8.9
11/8/2020 1:15:00 AM 11.21 52.178 0.897 8.04 8.11 8.9
11/8/2020 1:30:00 AM 11.15 52.07 0.897 8.04 6.49 8.9
11/8/2020 1:45:00 AM 11.09 51.962 0.897 8.03 5.57 8.91
11/8/2020 2:00:00 AM 11.02 51.836 0.897 8.03 7.24 8.93
11/8/2020 2:15:00 AM 10.96 51.728 0.897 8.02 5.78 8.91
11/8/2020 2:30:00 AM 10.89 51.602 0.898 8.02 5.75 8.9
11/8/2020 2:45:00 AM 10.83 51.494 0.897 8.01 6.6 8.94
11/8/2020 3:00:00 AM 10.77 51.386 0.897 8.01 46.13 8.91
11/8/2020 3:15:00 AM 10.71 51.278 0.897 8.01 7.62 8.96
11/8/2020 3:30:00 AM 10.64 51.152 0.897 8.01 26.49 8.96
11/8/2020 3:45:00 AM 10.58 51.044 0.897 8 25.29 8.99
11/8/2020 4:00:00 AM 10.52 50.936 0.897 8 7.41 9.01
11/8/2020 4:15:00 AM 10.46 50.828 0.897 8 10.36 9.02
11/8/2020 4:30:00 AM 10.4 50.72 0.897 8 10.22 9.03
11/8/2020 4:45:00 AM 10.34 50.612 0.897 8 7.26 9.03
11/8/2020 5:00:00 AM 10.28 50.504 0.897 8 4.9 9.07
11/8/2020 5:15:00 AM 10.22 50.396 0.896 8 3.94 9.08
11/8/2020 5:30:00 AM 10.17 50.306 0.896 8 25.17 9.1
11/8/2020 5:45:00 AM 10.11 50.198 0.896 7.99 11.13 9.12
11/8/2020 6:00:00 AM 10.06 50.108 0.896 7.99 16.97 9.13
11/8/2020 6:15:00 AM 10 50 0.896 7.99 10.44 9.15
11/8/2020 6:30:00 AM 9.95 49.91 0.896 7.99 45.97 9.16
11/8/2020 6:45:00 AM 9.9 49.82 0.896 7.99 6.2 9.2
11/8/2020 7:00:00 AM 9.85 49.73 0.896 7.99 33.09 9.23
11/8/2020 7:15:00 AM 9.8 49.64 0.896 7.99 3.64 9.28
11/8/2020 7:30:00 AM 9.76 49.568 0.896 8 4.66 9.36
11/8/2020 7:45:00 AM 9.74 49.532 0.896 8 10.48 9.43
11/8/2020 8:00:00 AM 9.71 49.478 0.896 8 13.53 9.5
11/8/2020 8:15:00 AM 9.69 49.442 0.895 8 9.33 9.61
11/8/2020 8:30:00 AM 9.68 49.424 0.896 8 6.23 9.7
11/8/2020 8:45:00 AM 9.67 49.406 0.896 8.01 34.02 9.79
11/8/2020 9:00:00 AM 9.69 49.442 0.896 8.01 10.4 9.89
11/8/2020 9:15:00 AM 9.72 49.496 0.896 8.02 31.15 10.08
11/8/2020 9:30:00 AM 9.78 49.604 0.896 8.02 14.82 10.29
11/8/2020 9:45:00 AM 9.88 49.784 0.896 8.03 7.59 10.42
11/8/2020 10:00:00 AM 10 50 0.896 8.04 11.23 10.62
11/8/2020 10:15:00 AM 10.17 50.306 0.895 8.04 7.28 10.88
11/8/2020 10:30:00 AM 10.32 50.576 0.896 8.05 6.52 11.12
11/8/2020 10:45:00 AM 10.49 50.882 0.896 8.06 9.05 11.3
11/8/2020 11:00:00 AM 10.67 51.206 0.896 8.07 13.39 11.48
11/8/2020 11:15:00 AM 10.85 51.53 0.896 8.08 15.18 11.66
11/8/2020 11:30:00 AM 11 51.8 0.896 8.09 5.52 11.81
11/8/2020 11:45:00 AM 11.11 51.998 0.897 8.1 3.05 11.97
11/8/2020 12:00:00 PM 11.22 52.196 0.897 8.11 10.67 12.11
11/8/2020 12:15:00 PM 11.32 52.376 0.897 8.12 7.1 12.2
11/8/2020 12:30:00 PM 11.4 52.52 0.897 8.13 9.86 12.33
11/8/2020 12:45:00 PM 11.51 52.718 0.897 8.14 6 12.45
11/8/2020 1:00:00 PM 11.6 52.88 0.897 8.15 3.44 12.55
11/8/2020 1:15:00 PM 11.7 53.06 0.898 8.16 3.73 12.62
11/8/2020 1:30:00 PM 11.8 53.24 0.898 8.17 8.7 12.65
11/8/2020 1:45:00 PM 11.87 53.366 0.898 8.18 6.11 12.73
11/8/2020 2:00:00 PM 11.93 53.474 0.898 8.19 5.27 12.69
11/8/2020 2:15:00 PM 12 53.6 0.898 8.2 4.13 12.72
11/8/2020 2:30:00 PM 12.06 53.708 0.898 8.2 3.96 12.68
11/8/2020 2:45:00 PM 12.1 53.78 0.899 8.21 3.28 12.63
11/8/2020 3:00:00 PM 12.14 53.852 0.898 8.22 5.84 12.58
11/8/2020 3:15:00 PM 12.16 53.888 0.899 8.22 12.37 12.49
11/8/2020 3:30:00 PM 12.19 53.942 0.899 8.23 4.56 12.34
11/8/2020 3:45:00 PM 12.22 53.996 0.899 8.23 4.16 12.21
11/8/2020 4:00:00 PM 12.26 54.068 0.899 8.23 3.14 12.1
11/8/2020 4:15:00 PM 12.28 54.104 0.899 8.23 4.41 11.97
11/8/2020 4:30:00 PM 12.31 54.158 0.899 8.23 7.42 11.86
11/8/2020 4:45:00 PM 12.33 54.194 0.899 8.24 24.74 11.72
11/8/2020 5:00:00 PM 12.35 54.23 0.899 8.24 3.66 11.59
11/8/2020 5:15:00 PM 12.36 54.248 0.899 8.24 3.38 11.44
11/8/2020 5:30:00 PM 12.37 54.266 0.899 8.23 3.68 11.3
11/8/2020 5:45:00 PM 12.38 54.284 0.899 8.23 6.52 11.14
11/8/2020 6:00:00 PM 12.39 54.302 0.899 8.23 4.85 11.04
11/8/2020 6:15:00 PM 12.39 54.302 0.9 8.23 6.22 10.9
11/8/2020 6:30:00 PM 12.38 54.284 0.899 8.23 4.52 10.75
11/8/2020 6:45:00 PM 12.37 54.266 0.9 8.23 3.8 10.62
11/8/2020 7:00:00 PM 12.36 54.248 0.9 8.23 4.46 10.48
11/8/2020 7:15:00 PM 12.34 54.212 0.9 8.22 5.05 10.34
11/8/2020 7:30:00 PM 12.31 54.158 0.9 8.22 3.16 10.21
11/8/2020 7:45:00 PM 12.29 54.122 0.9 8.21 4.47 10.07
11/8/2020 8:00:00 PM 12.26 54.068 0.9 8.21 4.32 9.95
11/8/2020 8:15:00 PM 12.24 54.032 0.901 8.2 4.79 9.85
11/8/2020 8:30:00 PM 12.2 53.96 0.901 8.2 4.35 9.72
11/8/2020 8:45:00 PM 12.17 53.906 0.901 8.19 3.54 9.64
11/8/2020 9:00:00 PM 12.14 53.852 0.901 8.18 4.93 9.55
11/8/2020 9:15:00 PM 12.11 53.798 0.901 8.18 5.5 9.49
11/8/2020 9:30:00 PM 12.08 53.744 0.902 8.17 4.71 9.39
11/8/2020 9:45:00 PM 12.05 53.69 0.902 8.16 4.37 9.34
11/8/2020 10:00:00 PM 12.01 53.618 0.902 8.15 3.47 9.27
11/8/2020 10:15:00 PM 11.98 53.564 0.902 8.14 3.75 9.22
11/8/2020 10:30:00 PM 11.94 53.492 0.902 8.14 3.36 9.17
11/8/2020 10:45:00 PM 11.9 53.42 0.902 8.13 4.15 9.13
11/8/2020 11:00:00 PM 11.86 53.348 0.902 8.12 10.94 9.09
11/8/2020 11:15:00 PM 11.82 53.276 0.903 8.11 5.52 9.04
11/8/2020 11:30:00 PM 11.77 53.186 0.903 8.11 4.88 9.01
11/8/2020 11:45:00 PM 11.72 53.096 0.903 8.1 5.23 8.98
11/9/2020 12:00:00 AM 11.67 53.006 0.903 8.09 5.92 8.96
11/9/2020 12:15:00 AM 11.63 52.934 0.903 8.08 3.89 8.93
11/9/2020 12:30:00 AM 11.58 52.844 0.903 8.08 3.99 8.91
11/9/2020 12:45:00 AM 11.53 52.754 0.904 8.07 3.96 8.91
11/9/2020 1:00:00 AM 11.48 52.664 0.904 8.06 4.36 8.89
11/9/2020 1:15:00 AM 11.43 52.574 0.904 8.06 5.31 8.9
11/9/2020 1:30:00 AM 11.37 52.466 0.903 8.05 3.83 8.89
11/9/2020 1:45:00 AM 11.32 52.376 0.903 8.04 7.34 8.87
11/9/2020 2:00:00 AM 11.27 52.286 0.903 8.04 14.41 8.88
11/9/2020 2:15:00 AM 11.22 52.196 0.903 8.04 4.01 8.89
11/9/2020 2:30:00 AM 11.16 52.088 0.903 8.03 4.29 8.86
11/9/2020 2:45:00 AM 11.11 51.998 0.903 8.02 4.69 8.89
11/9/2020 3:00:00 AM 11.06 51.908 0.903 8.02 7.19 8.88
11/9/2020 3:15:00 AM 11 51.8 0.902 8.02 3.85 8.89
11/9/2020 3:30:00 AM 10.95 51.71 0.902 8.01 3.54 8.89
11/9/2020 3:45:00 AM 10.9 51.62 0.902 8.01 4.72 8.91
11/9/2020 4:00:00 AM 10.85 51.53 0.901 8.01 36.15 8.92
11/9/2020 4:15:00 AM 10.8 51.44 0.901 8 4.34 8.93
11/9/2020 4:30:00 AM 10.75 51.35 0.901 8 4.34 8.91
11/9/2020 4:45:00 AM 10.69 51.242 0.901 8 4.3 8.93
11/9/2020 5:00:00 AM 10.65 51.17 0.9 7.99 5.22 8.94
11/9/2020 5:15:00 AM 10.6 51.08 0.9 7.99 5.03 8.95
11/9/2020 5:30:00 AM 10.55 50.99 0.899 7.99 4.3 8.98
11/9/2020 5:45:00 AM 10.5 50.9 0.899 7.99 5.7 8.98
11/9/2020 6:00:00 AM 10.45 50.81 0.898 7.99 8.13 9.02
11/9/2020 6:15:00 AM 10.4 50.72 0.898 7.99 3.3 9.03
11/9/2020 6:30:00 AM 10.36 50.648 0.897 7.98 5.45 9.05
11/9/2020 6:45:00 AM 10.32 50.576 0.897 7.98 8.58 9.07
11/9/2020 7:00:00 AM 10.29 50.522 0.896 7.98 15.99 9.07
11/9/2020 7:15:00 AM 10.26 50.468 0.896 7.98 8.42 9.14
11/9/2020 7:30:00 AM 10.24 50.432 0.895 7.98 5.53 9.22
11/9/2020 7:45:00 AM 10.23 50.414 0.895 7.99 3.87 9.32
11/9/2020 8:00:00 AM 10.21 50.378 0.894 7.99 3.67 9.41
11/9/2020 8:15:00 AM 10.2 50.36 0.893 7.99 4.1 9.54
11/9/2020 8:30:00 AM 10.19 50.342 0.893 7.99 9.2 9.64
11/9/2020 8:45:00 AM 10.18 50.324 0.893 8 6.09 9.73
11/9/2020 9:00:00 AM 10.2 50.36 0.892 8 14.7 9.83
11/9/2020 9:15:00 AM 10.24 50.432 0.892 8 6.5 9.98
11/9/2020 9:30:00 AM 10.3 50.54 0.892 8.01 21.97 10.18
11/9/2020 9:45:00 AM 10.41 50.738 0.891 8.02 17.99 10.43
11/9/2020 10:00:00 AM 10.53 50.954 0.89 8.03 11 10.66
11/9/2020 10:15:00 AM 10.7 51.26 0.888 8.03 8.43 10.87
11/9/2020 10:30:00 AM 10.87 51.566 0.888 8.05 4.9 11.14
11/9/2020 10:45:00 AM 11.04 51.872 0.889 8.06 6.65 11.38
11/9/2020 11:00:00 AM 11.22 52.196 0.889 8.07 24.83 11.61
11/9/2020 11:15:00 AM 11.41 52.538 0.888 8.08 41.15 11.82
11/9/2020 11:30:00 AM 11.56 52.808 0.888 8.09 4.39 11.98
11/9/2020 11:45:00 AM 11.68 53.024 0.886 8.11 4.97 12.16
11/9/2020 12:00:00 PM 11.8 53.24 0.889 8.12 4.23 12.3
11/9/2020 12:15:00 PM 11.89 53.402 0.886 8.13 5.29 12.46
11/9/2020 12:30:00 PM 11.99 53.582 0.886 8.15 9.85 12.51
11/9/2020 12:45:00 PM 12.1 53.78 0.887 8.15 16.55 12.56
11/9/2020 1:00:00 PM 12.2 53.96 0.885 8.17 9.02 12.69
11/9/2020 1:15:00 PM 12.3 54.14 0.886 8.17 20.69 12.74
11/9/2020 1:30:00 PM 12.4 54.32 0.886 8.19 3.42 12.85
11/9/2020 1:45:00 PM 12.48 54.464 0.886 8.2 5.18 12.95
11/9/2020 2:00:00 PM 12.55 54.59 0.886 8.21 12.58 12.95
11/9/2020 2:15:00 PM 12.61 54.698 0.885 8.22 5.59 12.94
11/9/2020 2:30:00 PM 12.69 54.842 0.886 8.23 6.35 12.89
11/9/2020 2:45:00 PM 12.73 54.914 0.887 8.23 5.97 12.85
11/9/2020 3:00:00 PM 12.78 55.004 0.887 8.24 4.62 12.71
11/9/2020 3:15:00 PM 12.81 55.058 0.887 8.25 4.41 12.64
11/9/2020 3:30:00 PM 12.85 55.13 0.889 8.25 5.18 12.48
11/9/2020 3:45:00 PM 12.89 55.202 0.887 8.25 4.21 12.31
11/9/2020 4:00:00 PM 12.93 55.274 0.888 8.25 6.58 12.19
11/9/2020 4:15:00 PM 12.97 55.346 0.889 8.25 4.85 12.08
11/9/2020 4:30:00 PM 13.01 55.418 0.889 8.25 4.75 11.95
11/9/2020 4:45:00 PM 13.04 55.472 0.889 8.25 4.54 11.79
11/9/2020 5:00:00 PM 13.06 55.508 0.89 8.26 4.23 11.67
11/9/2020 5:15:00 PM 13.08 55.544 0.891 8.26 6.02 11.49
11/9/2020 5:30:00 PM 13.1 55.58 0.891 8.26 4.84 11.32
11/9/2020 5:45:00 PM 13.12 55.616 0.892 8.25 4.68 11.19
11/9/2020 6:00:00 PM 13.13 55.634 0.893 8.25 4.65 11.05
11/9/2020 6:15:00 PM 13.14 55.652 0.892 8.25 8.44 10.9
11/9/2020 6:30:00 PM 13.13 55.634 0.893 8.25 4.87 10.73
11/9/2020 6:45:00 PM 13.13 55.634 0.894 8.24 7.23 10.57
11/9/2020 7:00:00 PM 13.12 55.616 0.894 8.24 4.08 10.43
11/9/2020 7:15:00 PM 13.1 55.58 0.895 8.23 4.71 10.27
11/9/2020 7:30:00 PM 13.09 55.562 0.896 8.23 6.53 10.13
11/9/2020 7:45:00 PM 13.06 55.508 0.896 8.22 4.02 9.96
11/9/2020 8:00:00 PM 13.04 55.472 0.897 8.22 4.1 9.84
11/9/2020 8:15:00 PM 13.02 55.436 0.898 8.21 4.01 9.74
11/9/2020 8:30:00 PM 13 55.4 0.898 8.2 4.11 9.6
11/9/2020 8:45:00 PM 12.97 55.346 0.899 8.2 4.35 9.46
11/9/2020 9:00:00 PM 12.94 55.292 0.899 8.19 3.39 9.39
11/9/2020 9:15:00 PM 12.91 55.238 0.9 8.18 4.21 9.26
11/9/2020 9:30:00 PM 12.88 55.184 0.901 8.17 3.52 9.19
11/9/2020 9:45:00 PM 12.85 55.13 0.901 8.17 4.7 9.11
11/9/2020 10:00:00 PM 12.83 55.094 0.902 8.16 3.49 9.04
11/9/2020 10:15:00 PM 12.8 55.04 0.902 8.15 4.94 8.96
11/9/2020 10:30:00 PM 12.77 54.986 0.902 8.14 6.05 8.9
11/9/2020 10:45:00 PM 12.74 54.932 0.903 8.13 5.14 8.85
11/9/2020 11:00:00 PM 12.71 54.878 0.904 8.13 36.88 8.81
11/9/2020 11:15:00 PM 12.68 54.824 0.904 8.12 24.09 8.77
11/9/2020 11:30:00 PM 12.64 54.752 0.904 8.11 3.97 8.73
11/9/2020 11:45:00 PM 12.61 54.698 0.905 8.1 13.08 8.68
11/10/2020 12:00:00 AM 12.57 54.626 0.905 8.09 6.58 8.63
11/10/2020 12:15:00 AM 12.52 54.536 0.905 8.09 5.86 8.63
11/10/2020 12:30:00 AM 12.48 54.464 0.906 8.08 5.05 8.59
11/10/2020 12:45:00 AM 12.44 54.392 0.906 8.07 6.65 8.55
11/10/2020 1:00:00 AM 12.4 54.32 0.906 8.06 4.52 8.52
11/10/2020 1:15:00 AM 12.35 54.23 0.907 8.06 5.11 8.53
11/10/2020 1:30:00 AM 12.31 54.158 0.907 8.05 5.49 8.48
11/10/2020 1:45:00 AM 12.26 54.068 0.907 8.04 9.83 8.5
11/10/2020 2:00:00 AM 12.22 53.996 0.907 8.03 7.03 8.47
11/10/2020 2:15:00 AM 12.16 53.888 0.907 8.03 5.62 8.46
11/10/2020 2:30:00 AM 12.11 53.798 0.907 8.02 3.47 8.49
11/10/2020 2:45:00 AM 12.07 53.726 0.907 8.01 26.68 8.47
11/10/2020 3:00:00 AM 12.02 53.636 0.906 8.01 7.56 8.49
11/10/2020 3:15:00 AM 11.97 53.546 0.907 8 6.46 8.46
11/10/2020 3:30:00 AM 11.92 53.456 0.906 8 8.64 8.49
11/10/2020 3:45:00 AM 11.87 53.366 0.906 7.99 15.83 8.48
11/10/2020 4:00:00 AM 11.82 53.276 0.906 7.99 8.06 8.48
11/10/2020 4:15:00 AM 11.77 53.186 0.905 7.99 5.71 8.51
11/10/2020 4:30:00 AM 11.72 53.096 0.905 7.98 4.26 8.51
11/10/2020 4:45:00 AM 11.67 53.006 0.905 7.98 56.43 8.53
11/10/2020 5:00:00 AM 11.62 52.916 0.905 7.98 7.16 8.5
11/10/2020 5:15:00 AM 11.58 52.844 0.904 7.98 6.53 8.53
11/10/2020 5:30:00 AM 11.53 52.754 0.904 7.97 4.2 8.54
11/10/2020 5:45:00 AM 11.49 52.682 0.904 7.97 12.38 8.57
11/10/2020 6:00:00 AM 11.44 52.592 0.903 7.97 4.95 8.58
11/10/2020 6:15:00 AM 11.39 52.502 0.903 7.96 9.71 8.6
11/10/2020 6:30:00 AM 11.35 52.43 0.903 7.96 7.87 8.64
11/10/2020 6:45:00 AM 11.31 52.358 0.902 7.96 7.58 8.66
11/10/2020 7:00:00 AM 11.27 52.286 0.902 7.96 5.11 8.7
11/10/2020 7:15:00 AM 11.23 52.214 0.901 7.96 5.06 8.74
11/10/2020 7:30:00 AM 11.2 52.16 0.901 7.96 8.47 8.8
11/10/2020 7:45:00 AM 11.18 52.124 0.901 7.96 6.28 8.86
11/10/2020 8:00:00 AM 11.16 52.088 0.9 7.97 7.7 8.96
11/10/2020 8:15:00 AM 11.14 52.052 0.9 7.97 12.93 9.05
11/10/2020 8:30:00 AM 11.13 52.034 0.899 7.97 14.22 9.11
11/10/2020 8:45:00 AM 11.13 52.034 0.899 7.97 6.76 9.22
11/10/2020 9:00:00 AM 11.14 52.052 0.898 7.98 6.08 9.35
11/10/2020 9:15:00 AM 11.18 52.124 0.898 7.98 4.34 9.5
11/10/2020 9:30:00 AM 11.24 52.232 0.897 7.98 22.22 9.71
11/10/2020 9:45:00 AM 11.35 52.43 0.897 7.99 3.96 9.99
11/10/2020 10:00:00 AM 11.47 52.646 0.896 8 6.53 10.23
11/10/2020 10:15:00 AM 11.64 52.952 0.895 8.01 9.33 10.51
11/10/2020 10:30:00 AM 11.83 53.294 0.894 8.02 9.56 10.72
11/10/2020 10:45:00 AM 12 53.6 0.893 8.04 21.19 11.01
11/10/2020 11:00:00 AM 12.19 53.942 0.892 8.05 14.72 11.23
11/10/2020 11:15:00 AM 12.38 54.284 0.892 8.06 9.75 11.38
11/10/2020 11:30:00 AM 12.52 54.536 0.891 8.07 7.79 11.66
11/10/2020 11:45:00 AM 12.64 54.752 0.89 8.09 6.38 11.77
11/10/2020 12:00:00 PM 12.75 54.95 0.889 8.1 27.27 11.96
11/10/2020 12:15:00 PM 12.86 55.148 0.888 8.11 13.49 12.06
11/10/2020 12:30:00 PM 12.97 55.346 0.887 8.13 4.08 12.28
11/10/2020 12:45:00 PM 13.08 55.544 0.886 8.14 6.74 12.41
11/10/2020 1:00:00 PM 13.2 55.76 0.885 8.15 7.46 12.48
11/10/2020 1:15:00 PM 13.31 55.958 0.884 8.16 6.64 12.59
11/10/2020 1:30:00 PM 13.42 56.156 0.883 8.17 17.85 12.61
11/10/2020 1:45:00 PM 13.51 56.318 0.882 8.18 15.1 12.61
11/10/2020 2:00:00 PM 13.59 56.462 0.881 8.19 10.89 12.77
11/10/2020 2:15:00 PM 13.67 56.606 0.881 8.2 10.38 12.76
11/10/2020 2:30:00 PM 13.7 56.66 0.88 8.21 12.74 12.75
11/10/2020 2:45:00 PM 13.75 56.75 0.879 8.22 6.28 12.64
11/10/2020 3:00:00 PM 13.8 56.84 0.878 8.23 7.04 12.55
11/10/2020 3:15:00 PM 13.83 56.894 0.878 8.23 9.19 12.47
11/10/2020 3:30:00 PM 13.87 56.966 0.877 8.24 3.55 12.35
11/10/2020 3:45:00 PM 13.92 57.056 0.877 8.24 13.62 12.17
11/10/2020 4:00:00 PM 13.96 57.128 0.877 8.23 9.13 12.07
11/10/2020 4:15:00 PM 14.01 57.218 0.876 8.24 5.53 11.83
11/10/2020 4:30:00 PM 14.04 57.272 0.876 8.24 5.36 11.74
11/10/2020 4:45:00 PM 14.08 57.344 0.875 8.24 6.15 11.63
11/10/2020 5:00:00 PM 14.1 57.38 0.875 8.24 6.89 11.49
11/10/2020 5:15:00 PM 14.11 57.398 0.875 8.24 7.34 11.27
11/10/2020 5:30:00 PM 14.12 57.416 0.875 8.24 24.38 11.09
11/10/2020 5:45:00 PM 14.13 57.434 0.875 8.24 23.53 10.93
11/10/2020 6:00:00 PM 14.12 57.416 0.874 8.24 2.51 10.85
11/10/2020 6:15:00 PM 14.12 57.416 0.875 8.24 2.85 10.64
11/10/2020 6:30:00 PM 14.11 57.398 0.874 8.24 1.55 10.53
11/10/2020 6:45:00 PM 14.11 57.398 0.875 8.24 1.87 10.37
11/10/2020 7:00:00 PM 14.11 57.398 0.874 8.24 4.39 10.2
11/10/2020 7:15:00 PM 14.11 57.398 0.875 8.23 1.69 10.01
11/10/2020 7:30:00 PM 14.11 57.398 0.875 8.23 2.09 9.83
11/10/2020 7:45:00 PM 14.1 57.38 0.875 8.22 1.24 9.7
11/10/2020 8:00:00 PM 14.09 57.362 0.876 8.21 1.75 9.55
11/10/2020 8:15:00 PM 14.08 57.344 0.876 8.2 1.52 9.41
11/10/2020 8:30:00 PM 14.07 57.326 0.876 8.2 3.27 9.25
11/10/2020 8:45:00 PM 14.06 57.308 0.876 8.19 2.24 9.15
11/10/2020 9:00:00 PM 14.05 57.29 0.876 8.18 2.61 9.05
11/10/2020 9:15:00 PM 14.04 57.272 0.877 8.17 1.34 8.91
11/10/2020 9:30:00 PM 14.03 57.254 0.877 8.17 2.28 8.82
11/10/2020 9:45:00 PM 14.03 57.254 0.877 8.16 3.67 8.71
11/10/2020 10:00:00 PM 14.02 57.236 0.878 8.15 2.59 8.64
11/10/2020 10:15:00 PM 14.02 57.236 0.878 8.14 2.97 8.57
11/10/2020 10:30:00 PM 14.01 57.218 0.878 8.13 2.36 8.49
11/10/2020 10:45:00 PM 14 57.2 0.878 8.12 1.66 8.43
11/10/2020 11:00:00 PM 14 57.2 0.879 8.11 3.44 8.37
11/10/2020 11:15:00 PM 13.98 57.164 0.879 8.1 3.14 8.33
11/10/2020 11:30:00 PM 13.96 57.128 0.879 8.09 3.62 8.27
11/10/2020 11:45:00 PM 13.94 57.092 0.88 8.08 2.35 8.22
11/11/2020 12:00:00 AM 13.92 57.056 0.88 8.07 3.39 8.18
11/11/2020 12:15:00 AM 13.9 57.02 0.88 8.07 1.79 8.12
11/11/2020 12:30:00 AM 13.88 56.984 0.881 8.06 2.18 8.06
11/11/2020 12:45:00 AM 13.85 56.93 0.881 8.05 2.47 8.04
11/11/2020 1:00:00 AM 13.83 56.894 0.881 8.04 3.77 8.02
11/11/2020 1:15:00 AM 13.81 56.858 0.881 8.03 3.01 7.98
11/11/2020 1:30:00 AM 13.78 56.804 0.882 8.02 2.39 7.97
11/11/2020 1:45:00 AM 13.75 56.75 0.882 8.01 1.29 7.95
11/11/2020 2:00:00 AM 13.73 56.714 0.882 8 1.98 7.92
11/11/2020 2:15:00 AM 13.7 56.66 0.882 8 3.62 7.93
11/11/2020 2:30:00 AM 13.67 56.606 0.882 7.99 4.42 7.9
11/11/2020 2:45:00 AM 13.64 56.552 0.882 7.98 3.29 7.88
11/11/2020 3:00:00 AM 13.61 56.498 0.882 7.98 3.93 7.9
11/11/2020 3:15:00 AM 13.57 56.426 0.882 7.97 3.38 7.88
11/11/2020 3:30:00 AM 13.54 56.372 0.882 7.96 4.21 7.9
11/11/2020 3:45:00 AM 13.51 56.318 0.882 7.96 2.49 7.92
11/11/2020 4:00:00 AM 13.48 56.264 0.882 7.96 2.27 7.89
11/11/2020 4:15:00 AM 13.46 56.228 0.881 7.95 3.13 7.92
11/11/2020 4:30:00 AM 13.45 56.21 0.881 7.94 3.17 7.9
11/11/2020 4:45:00 AM 13.45 56.21 0.881 7.94 3.29 7.89
11/11/2020 5:00:00 AM 13.45 56.21 0.881 7.93 2.36 7.88
11/11/2020 5:15:00 AM 13.44 56.192 0.881 7.93 2.61 7.9
11/11/2020 5:30:00 AM 13.43 56.174 0.881 7.93 2.81 7.92
11/11/2020 5:45:00 AM 13.42 56.156 0.88 7.93 3.44 7.9
11/11/2020 6:00:00 AM 13.42 56.156 0.88 7.92 4.28 7.92
11/11/2020 6:15:00 AM 13.43 56.174 0.88 7.92 1.62 7.92
11/11/2020 6:30:00 AM 13.43 56.174 0.879 7.92 4.82 7.94
11/11/2020 6:45:00 AM 13.43 56.174 0.879 7.92 2.98 7.94
11/11/2020 7:00:00 AM 13.44 56.192 0.878 7.92 2.11 7.93
11/11/2020 7:15:00 AM 13.45 56.21 0.877 7.92 2.02 7.96
11/11/2020 7:30:00 AM 13.46 56.228 0.877 7.92 3.22 7.96
11/11/2020 7:45:00 AM 13.5 56.3 0.876 7.92 2.84 7.99
11/11/2020 8:00:00 AM 13.55 56.39 0.876 7.92 2.26 8.1
11/11/2020 8:15:00 AM 13.6 56.48 0.875 7.93 2.71 8.2
11/11/2020 8:30:00 AM 13.64 56.552 0.874 7.93 1.74 8.26
11/11/2020 8:45:00 AM 13.67 56.606 0.873 7.93 2.33 8.36
11/11/2020 9:00:00 AM 13.7 56.66 0.872 7.94 3.4 8.44
11/11/2020 9:15:00 AM 13.73 56.714 0.871 7.94 3.05 8.5
11/11/2020 9:30:00 AM 13.77 56.786 0.871 7.94 2.27 8.51
11/11/2020 9:45:00 AM 13.8 56.84 0.869 7.95 2.04 8.62
11/11/2020 10:00:00 AM 13.82 56.876 0.868 7.95 2.68 8.69
11/11/2020 10:15:00 AM 13.85 56.93 0.866 7.96 1.9 8.72
11/11/2020 10:30:00 AM 13.87 56.966 0.864 7.96 3.13 8.76
11/11/2020 10:45:00 AM 13.9 57.02 0.862 7.96 4.06 8.84
11/11/2020 11:00:00 AM 13.93 57.074 0.86 7.97 1.85 8.92
11/11/2020 11:15:00 AM 13.96 57.128 0.859 7.98 3.23 8.99
11/11/2020 11:30:00 AM 14 57.2 0.857 7.98 1.83 9.1
11/11/2020 11:45:00 AM 14.04 57.272 0.855 7.99 4.11 9.19
11/11/2020 12:00:00 PM 14.1 57.38 0.853 8 2.03 9.26
11/11/2020 12:15:00 PM 14.16 57.488 0.847 8 3.2 9.26
11/11/2020 12:30:00 PM 14.2 57.56 0.845 8.01 2.72 9.3
11/11/2020 12:45:00 PM 14.25 57.65 0.843 8.01 2.27 9.34
11/11/2020 1:00:00 PM 14.28 57.704 0.842 8.02 1.05 9.4
11/11/2020 1:15:00 PM 14.34 57.812 0.84 8.02 1.97 9.45
11/11/2020 1:30:00 PM 14.37 57.866 0.837 8.03 3.46 9.56
11/11/2020 1:45:00 PM 14.39 57.902 0.836 8.04 3.37 9.58
11/11/2020 2:00:00 PM 14.43 57.974 0.833 8.04 3.96 9.55
11/11/2020 2:15:00 PM 14.47 58.046 0.832 8.05 2.47 9.53
11/11/2020 2:30:00 PM 14.51 58.118 0.829 8.05 3 9.51
11/11/2020 2:45:00 PM 14.53 58.154 0.827 8.05 2.09 9.46
11/11/2020 3:00:00 PM 14.56 58.208 0.825 8.05 2.67 9.37
11/11/2020 3:15:00 PM 14.6 58.28 0.822 8.05 3.41 9.36
11/11/2020 3:30:00 PM 14.65 58.37 0.814 8.05 1.63 9.3
11/11/2020 3:45:00 PM 14.68 58.424 0.811 8.05 2.15 9.26
11/11/2020 4:00:00 PM 14.69 58.442 0.81 8.05 2.7 9.17
11/11/2020 4:15:00 PM 14.72 58.496 0.807 8.05 1.94 9.07
11/11/2020 4:30:00 PM 14.75 58.55 0.802 8.04 2.39 9.05
11/11/2020 4:45:00 PM 14.77 58.586 0.797 8.04 3.3 8.95
11/11/2020 5:00:00 PM 14.78 58.604 0.795 8.04 2.44 8.84
11/11/2020 5:15:00 PM 14.81 58.658 0.79 8.03 8.67 8.77
11/11/2020 5:30:00 PM 14.84 58.712 0.781 8.03 3.77 8.71
11/11/2020 5:45:00 PM 14.85 58.73 0.776 8.03 5.09 8.65
11/11/2020 6:00:00 PM 14.86 58.748 0.771 8.02 5.05 8.54
11/11/2020 6:15:00 PM 14.87 58.766 0.76 8.01 4.49 8.47
11/11/2020 6:30:00 PM 14.87 58.766 0.756 8 2.6 8.36
11/11/2020 6:45:00 PM 14.9 58.82 0.76 8 3.96 8.32
11/11/2020 7:00:00 PM 14.92 58.856 0.755 7.99 4.91 8.25
11/11/2020 7:15:00 PM 14.96 58.928 0.757 7.98 5.27 8.21
11/11/2020 7:30:00 PM 14.98 58.964 0.758 7.97 8.26 8.16
11/11/2020 7:45:00 PM 14.99 58.982 0.752 7.97 6.97 8.1
11/11/2020 8:00:00 PM 15.04 59.072 0.755 7.96 4.32 8.05
11/11/2020 8:15:00 PM 15.09 59.162 0.749 7.94 8.21 8.02
11/11/2020 8:30:00 PM 15.16 59.288 0.743 7.93 13.26 7.94
11/11/2020 8:45:00 PM 15.22 59.396 0.735 7.91 12.1 7.89
11/11/2020 9:00:00 PM 15.28 59.504 0.725 7.9 17.29 7.82
11/11/2020 9:15:00 PM 15.32 59.576 0.708 7.88 19.79 7.76
11/11/2020 9:30:00 PM 15.36 59.648 0.691 7.87 21.53 7.72
11/11/2020 9:45:00 PM 15.38 59.684 0.677 7.85 20.13 7.67
11/11/2020 10:00:00 PM 15.38 59.684 0.667 7.84 18.26 7.65
11/11/2020 10:15:00 PM 15.38 59.684 0.662 7.83 20.35 7.62
11/11/2020 10:30:00 PM 15.38 59.684 0.66 7.82 23.88 7.63
11/11/2020 10:45:00 PM 15.37 59.666 0.66 7.81 19.85 7.55
11/11/2020 11:00:00 PM 15.36 59.648 0.661 7.8 18.58 7.55
11/11/2020 11:15:00 PM 15.34 59.612 0.662 7.8 19.08 7.53
11/11/2020 11:30:00 PM 15.33 59.594 0.663 7.79 17.51 7.54
11/11/2020 11:45:00 PM 15.31 59.558 0.664 7.79 18.62 7.55
11/12/2020 12:00:00 AM 15.29 59.522 0.665 7.79 19.52 7.55
11/12/2020 12:15:00 AM 15.28 59.504 0.657 7.78 16.01 7.53
11/12/2020 12:30:00 AM 15.26 59.468 0.654 7.78 14.91 7.54
11/12/2020 12:45:00 AM 15.25 59.45 0.58 7.78 16.19 7.58
11/12/2020 1:00:00 AM 15.25 59.45 0.584 7.78 14.59 7.58
11/12/2020 1:15:00 AM 15.24 59.432 0.592 7.78 12.48 7.58
11/12/2020 1:30:00 AM 15.23 59.414 0.594 7.78 13.85 7.54
11/12/2020 1:45:00 AM 15.22 59.396 0.596 7.78 14.59 7.57
11/12/2020 2:00:00 AM 15.21 59.378 0.598 7.78 12.62 7.57
11/12/2020 2:15:00 AM 15.21 59.378 0.6 7.78 13.39 7.57
11/12/2020 2:30:00 AM 15.21 59.378 0.603 7.78 12.97 7.61
11/12/2020 2:45:00 AM 15.21 59.378 0.605 7.78 11.43 7.63
11/12/2020 3:00:00 AM 15.21 59.378 0.607 7.78 11.2 7.63
11/12/2020 3:15:00 AM 15.21 59.378 0.61 7.78 15.18 7.61
11/12/2020 3:30:00 AM 15.21 59.378 0.606 7.79 11.89 7.63
11/12/2020 3:45:00 AM 15.22 59.396 0.604 7.78 12.83 7.63
11/12/2020 4:00:00 AM 15.25 59.45 0.604 7.78 11.75 7.62
11/12/2020 4:15:00 AM 15.28 59.504 0.604 7.78 13.65 7.64
11/12/2020 4:30:00 AM 15.32 59.576 0.606 7.78 18.61 7.62
11/12/2020 4:45:00 AM 15.35 59.63 0.606 7.78 18.54 7.63
11/12/2020 5:00:00 AM 15.37 59.666 0.605 7.78 20.09 7.63
11/12/2020 5:15:00 AM 15.4 59.72 0.608 7.78 19.04 7.64
11/12/2020 5:30:00 AM 15.44 59.792 0.615 7.77 17.63 7.63
11/12/2020 5:45:00 AM 15.47 59.846 0.619 7.77 18.1 7.61
11/12/2020 6:00:00 AM 15.5 59.9 0.625 7.77 21.84 7.62
11/12/2020 6:15:00 AM 15.52 59.936 0.628 7.77 20.8 7.61
11/12/2020 6:30:00 AM 15.53 59.954 0.634 7.76 23.12 7.6
11/12/2020 6:45:00 AM 15.54 59.972 0.639 7.76 18.8 7.59
11/12/2020 7:00:00 AM 15.53 59.954 0.644 7.76 25.03 7.58
11/12/2020 7:15:00 AM 15.52 59.936 0.648 7.76 22.62 7.57
11/12/2020 7:30:00 AM 15.51 59.918 0.651 7.76 28.65 7.57
11/12/2020 7:45:00 AM 15.5 59.9 0.649 7.76 16.64 7.54
11/12/2020 8:00:00 AM 15.5 59.9 0.649 7.76 18.7 7.58
11/12/2020 8:15:00 AM 15.5 59.9 0.646 7.76 17.76 7.62
11/12/2020 8:30:00 AM 15.49 59.882 0.639 7.76 23.24 7.64
11/12/2020 8:45:00 AM 15.49 59.882 0.635 7.77 19.17 7.65
11/12/2020 9:00:00 AM 15.49 59.882 0.628 7.77 16.99 7.69
11/12/2020 9:15:00 AM 15.49 59.882 0.622 7.77 15.72 7.71
11/12/2020 9:30:00 AM 15.48 59.864 0.617 7.77 17.13 7.74
11/12/2020 9:45:00 AM 15.48 59.864 0.612 7.77 16.6 7.77
11/12/2020 10:00:00 AM 15.47 59.846 0.609 7.78 14.91 7.8
11/12/2020 10:15:00 AM 15.46 59.828 0.607 7.78 15.04 7.82
11/12/2020 10:30:00 AM 15.43 59.774 0.607 7.78 14.95 7.84
11/12/2020 10:45:00 AM 15.4 59.72 0.604 7.78 13.59 7.83
11/12/2020 11:00:00 AM 15.37 59.666 0.605 7.78 13.51 7.85
11/12/2020 11:15:00 AM 15.35 59.63 0.606 7.78 14.62 7.88
11/12/2020 11:30:00 AM 15.32 59.576 0.609 7.78 12.28 7.9
11/12/2020 11:45:00 AM 15.3 59.54 0.612 7.79 14.9 7.96
11/12/2020 12:00:00 PM 15.26 59.468 0.616 7.79 14.22 7.96
11/12/2020 12:15:00 PM 15.22 59.396 0.619 7.79 13.85 7.98
11/12/2020 12:30:00 PM 15.2 59.36 0.623 7.8 10.82 8.02
11/12/2020 12:45:00 PM 15.17 59.306 0.628 7.8 10.19 8.07
11/12/2020 1:00:00 PM 15.15 59.27 0.63 7.81 10.81 8.1
11/12/2020 1:15:00 PM 15.11 59.198 0.634 7.81 11.98 8.1
11/12/2020 1:30:00 PM 15.1 59.18 0.639 7.81 11.79 8.12
11/12/2020 1:45:00 PM 15.08 59.144 0.643 7.82 10.5 8.15
11/12/2020 2:00:00 PM 15.05 59.09 0.646 7.82 9.92 8.16
11/12/2020 2:15:00 PM 15.02 59.036 0.65 7.82 9.73 8.16
11/12/2020 2:30:00 PM 15 59 0.652 7.83 11.3 8.17
11/12/2020 2:45:00 PM 14.98 58.964 0.654 7.83 9.47 8.17
11/12/2020 3:00:00 PM 14.95 58.91 0.655 7.83 10.13 8.16
11/12/2020 3:15:00 PM 14.92 58.856 0.656 7.83 10.32 8.16
11/12/2020 3:30:00 PM 14.89 58.802 0.656 7.83 10.56 8.15
11/12/2020 3:45:00 PM 14.86 58.748 0.655 7.83 10.59 8.13
11/12/2020 4:00:00 PM 14.83 58.694 0.654 7.83 9.8 8.12
11/12/2020 4:15:00 PM 14.8 58.64 0.651 7.83 10.82 8.11
11/12/2020 4:30:00 PM 14.77 58.586 0.649 7.83 11.37 8.08
11/12/2020 4:45:00 PM 14.74 58.532 0.645 7.83 9.27 8.04
11/12/2020 5:00:00 PM 14.7 58.46 0.641 7.82 10.55 8.03
11/12/2020 5:15:00 PM 14.67 58.406 0.637 7.82 11.18 7.99
11/12/2020 5:30:00 PM 14.63 58.334 0.632 7.82 12.55 7.98
11/12/2020 5:45:00 PM 14.6 58.28 0.628 7.81 14.87 7.93
11/12/2020 6:00:00 PM 14.57 58.226 0.624 7.81 13.27 7.92
11/12/2020 6:15:00 PM 14.55 58.19 0.619 7.8 17.56 7.89
11/12/2020 6:30:00 PM 14.52 58.136 0.616 7.8 11.9 7.87
11/12/2020 6:45:00 PM 14.49 58.082 0.613 7.79 12.89 7.85
11/12/2020 7:00:00 PM 14.46 58.028 0.611 7.79 12.89 7.83
11/12/2020 7:15:00 PM 14.42 57.956 0.609 7.79 14.33 7.86
11/12/2020 7:30:00 PM 14.4 57.92 0.608 7.78 15.76 7.84
11/12/2020 7:45:00 PM 14.37 57.866 0.608 7.78 22.48 7.85
11/12/2020 8:00:00 PM 14.33 57.794 0.608 7.77 17.71 7.81
11/12/2020 8:15:00 PM 14.3 57.74 0.609 7.77 13.03 7.82
11/12/2020 8:30:00 PM 14.28 57.704 0.611 7.77 12.98 7.82
11/12/2020 8:45:00 PM 14.25 57.65 0.612 7.77 13.92 7.83
11/12/2020 9:00:00 PM 14.22 57.596 0.615 7.77 13.29 7.84
11/12/2020 9:15:00 PM 14.19 57.542 0.618 7.77 11.27 7.84
11/12/2020 9:30:00 PM 14.15 57.47 0.621 7.77 11.42 7.84
11/12/2020 9:45:00 PM 14.13 57.434 0.624 7.77 10.5 7.84
11/12/2020 10:00:00 PM 14.1 57.38 0.627 7.77 10.22 7.85
11/12/2020 10:15:00 PM 14.07 57.326 0.631 7.77 9.32 7.86
11/12/2020 10:30:00 PM 14.04 57.272 0.634 7.77 11.24 7.86
11/12/2020 10:45:00 PM 14.01 57.218 0.637 7.77 9.51 7.88
11/12/2020 11:00:00 PM 13.99 57.182 0.64 7.77 11.14 7.87
11/12/2020 11:15:00 PM 13.96 57.128 0.643 7.77 11.68 7.89
11/12/2020 11:30:00 PM 13.93 57.074 0.645 7.77 16.04 7.91
11/12/2020 11:45:00 PM 13.9 57.02 0.647 7.77 9.51 7.9
11/13/2020 12:00:00 AM 13.87 56.966 0.649 7.77 17.16 7.91
11/13/2020 12:15:00 AM 13.84 56.912 0.651 7.77 10.42 7.9
11/13/2020 12:30:00 AM 13.82 56.876 0.653 7.77 13.56 7.93
11/13/2020 12:45:00 AM 13.79 56.822 0.654 7.77 10.44 7.91
11/13/2020 1:00:00 AM 13.76 56.768 0.656 7.77 10.28 7.92
11/13/2020 1:15:00 AM 13.73 56.714 0.656 7.77 9.33 7.94
11/13/2020 1:30:00 AM 13.7 56.66 0.657 7.78 9.45 7.94
11/13/2020 1:45:00 AM 13.67 56.606 0.658 7.77 9.11 7.95
11/13/2020 2:00:00 AM 13.64 56.552 0.659 7.78 8.86 7.96
11/13/2020 2:15:00 AM 13.62 56.516 0.658 7.78 11.86 7.95
11/13/2020 2:30:00 AM 13.59 56.462 0.659 7.78 17.69 7.96
11/13/2020 2:45:00 AM 13.56 56.408 0.659 7.78 10.29 7.98
11/13/2020 3:00:00 AM 13.53 56.354 0.659 7.78 10.38 7.96
11/13/2020 3:15:00 AM 13.5 56.3 0.659 7.78 11.02 7.98
11/13/2020 3:30:00 AM 13.47 56.246 0.659 7.78 9.82 7.97
11/13/2020 3:45:00 AM 13.45 56.21 0.659 7.77 8.93 7.97
11/13/2020 4:00:00 AM 13.42 56.156 0.659 7.78 10.42 7.98
11/13/2020 4:15:00 AM 13.39 56.102 0.658 7.78 8.45 7.99
11/13/2020 4:30:00 AM 13.37 56.066 0.658 7.78 9.54 8
11/13/2020 4:45:00 AM 13.34 56.012 0.657 7.78 12.28 8.01
11/13/2020 5:00:00 AM 13.32 55.976 0.656 7.78 12.5 8
11/13/2020 5:15:00 AM 13.29 55.922 0.656 7.78 11.12 8.01
11/13/2020 5:30:00 AM 13.27 55.886 0.655 7.78 10.09 8.03
11/13/2020 5:45:00 AM 13.24 55.832 0.655 7.78 9.44 8.02
11/13/2020 6:00:00 AM 13.22 55.796 0.654 7.78 10.81 8.01
11/13/2020 6:15:00 AM 13.19 55.742 0.653 7.78 9.49 8.03
11/13/2020 6:30:00 AM 13.17 55.706 0.653 7.78 10.81 8.04
11/13/2020 6:45:00 AM 13.14 55.652 0.652 7.78 10.88 8.05
11/13/2020 7:00:00 AM 13.12 55.616 0.651 7.78 8.5 8.07
11/13/2020 7:15:00 AM 13.1 55.58 0.651 7.78 10.62 8.05
11/13/2020 7:30:00 AM 13.09 55.562 0.65 7.78 9.53 8.07
11/13/2020 7:45:00 AM 13.06 55.508 0.65 7.78 8.67 8.09
11/13/2020 8:00:00 AM 13.05 55.49 0.65 7.78 9.61 8.08
11/13/2020 8:15:00 AM 13.03 55.454 0.649 7.78 10.33 8.12
11/13/2020 8:30:00 AM 13.02 55.436 0.649 7.78 8.54 8.11
11/13/2020 8:45:00 AM 13.01 55.418 0.648 7.78 8.01 8.18
11/13/2020 9:00:00 AM 13 55.4 0.648 7.78 6.66 8.19
11/13/2020 9:15:00 AM 12.98 55.364 0.647 7.79 7.03 8.22
11/13/2020 9:30:00 AM